<?xml version="1.0" encoding="UTF-8" standalone="no" ?>
<gpx xmlns="http://www.topografix.com/GPX/1/1" xmlns:xsi="http://www.w3.org/2001/XMLSchema-instance" xsi:schemaLocation="http://www.topografix.com/GPX/1/1 http://www.topografix.com/GPX/1/1/gpx.xsd" version="1.1" creator="VisuGPX - https://www.visugpx.com">
  <metadata>
    <name>Circuit du Mont Mounier</name>
    <desc><![CDATA[Belle randonnée vers le Mont Mounier culminant à 2817m.Un orage nous a empêché d'y aller, nous nous sommes contenté du Petit Mounier à 2728m.]]></desc>
  </metadata>
  <trk>
    <name><![CDATA[2018-07-05 17:00:26]]></name>
    <trkseg>
      <trkpt lat="44.11065" lon="6.95824">
        <ele>1755.99</ele>
        <time>2018-07-05T07:16:00Z</time>
      </trkpt>
      <trkpt lat="44.11086" lon="6.9583">
        <ele>1754.06</ele>
        <time>2018-07-05T07:18:42Z</time>
      </trkpt>
      <trkpt lat="44.11095" lon="6.95831">
        <ele>1755.02</ele>
        <time>2018-07-05T07:18:50Z</time>
      </trkpt>
      <trkpt lat="44.11104" lon="6.95836">
        <ele>1755.5</ele>
        <time>2018-07-05T07:18:58Z</time>
      </trkpt>
      <trkpt lat="44.11114" lon="6.95835">
        <ele>1755.99</ele>
        <time>2018-07-05T07:19:06Z</time>
      </trkpt>
      <trkpt lat="44.11124" lon="6.95831">
        <ele>1756.47</ele>
        <time>2018-07-05T07:19:15Z</time>
      </trkpt>
      <trkpt lat="44.11133" lon="6.95823">
        <ele>1757.43</ele>
        <time>2018-07-05T07:19:25Z</time>
      </trkpt>
      <trkpt lat="44.11142" lon="6.95817">
        <ele>1757.91</ele>
        <time>2018-07-05T07:19:40Z</time>
      </trkpt>
      <trkpt lat="44.11154" lon="6.95825">
        <ele>1759.35</ele>
        <time>2018-07-05T07:19:52Z</time>
      </trkpt>
      <trkpt lat="44.11163" lon="6.95835">
        <ele>1759.83</ele>
        <time>2018-07-05T07:20:02Z</time>
      </trkpt>
      <trkpt lat="44.11172" lon="6.95842">
        <ele>1761.27</ele>
        <time>2018-07-05T07:20:12Z</time>
      </trkpt>
      <trkpt lat="44.11182" lon="6.95844">
        <ele>1761.75</ele>
        <time>2018-07-05T07:20:23Z</time>
      </trkpt>
      <trkpt lat="44.11193" lon="6.95844">
        <ele>1762.23</ele>
        <time>2018-07-05T07:20:34Z</time>
      </trkpt>
      <trkpt lat="44.11204" lon="6.95846">
        <ele>1763.2</ele>
        <time>2018-07-05T07:20:45Z</time>
      </trkpt>
      <trkpt lat="44.11215" lon="6.95851">
        <ele>1764.16</ele>
        <time>2018-07-05T07:20:55Z</time>
      </trkpt>
      <trkpt lat="44.11226" lon="6.95852">
        <ele>1764.16</ele>
        <time>2018-07-05T07:21:05Z</time>
      </trkpt>
      <trkpt lat="44.11235" lon="6.95857">
        <ele>1765.6</ele>
        <time>2018-07-05T07:21:16Z</time>
      </trkpt>
      <trkpt lat="44.1124" lon="6.95869">
        <ele>1765.6</ele>
        <time>2018-07-05T07:21:26Z</time>
      </trkpt>
      <trkpt lat="44.11242" lon="6.95885">
        <ele>1766.08</ele>
        <time>2018-07-05T07:21:36Z</time>
      </trkpt>
      <trkpt lat="44.11241" lon="6.95898">
        <ele>1766.56</ele>
        <time>2018-07-05T07:21:45Z</time>
      </trkpt>
      <trkpt lat="44.11237" lon="6.9591">
        <ele>1767.04</ele>
        <time>2018-07-05T07:21:55Z</time>
      </trkpt>
      <trkpt lat="44.11241" lon="6.95922">
        <ele>1768</ele>
        <time>2018-07-05T07:22:05Z</time>
      </trkpt>
      <trkpt lat="44.11247" lon="6.95936">
        <ele>1768.48</ele>
        <time>2018-07-05T07:22:14Z</time>
      </trkpt>
      <trkpt lat="44.11252" lon="6.95946">
        <ele>1768.96</ele>
        <time>2018-07-05T07:22:23Z</time>
      </trkpt>
      <trkpt lat="44.1126" lon="6.95955">
        <ele>1770.41</ele>
        <time>2018-07-05T07:22:34Z</time>
      </trkpt>
      <trkpt lat="44.11267" lon="6.95965">
        <ele>1770.41</ele>
        <time>2018-07-05T07:22:43Z</time>
      </trkpt>
      <trkpt lat="44.11272" lon="6.95976">
        <ele>1771.37</ele>
        <time>2018-07-05T07:22:53Z</time>
      </trkpt>
      <trkpt lat="44.11279" lon="6.95986">
        <ele>1771.85</ele>
        <time>2018-07-05T07:23:03Z</time>
      </trkpt>
      <trkpt lat="44.11286" lon="6.95995">
        <ele>1772.81</ele>
        <time>2018-07-05T07:23:13Z</time>
      </trkpt>
      <trkpt lat="44.11294" lon="6.96004">
        <ele>1773.29</ele>
        <time>2018-07-05T07:23:23Z</time>
      </trkpt>
      <trkpt lat="44.11304" lon="6.96012">
        <ele>1774.25</ele>
        <time>2018-07-05T07:23:34Z</time>
      </trkpt>
      <trkpt lat="44.11313" lon="6.96017">
        <ele>1774.73</ele>
        <time>2018-07-05T07:23:44Z</time>
      </trkpt>
      <trkpt lat="44.11323" lon="6.9602">
        <ele>1775.69</ele>
        <time>2018-07-05T07:23:54Z</time>
      </trkpt>
      <trkpt lat="44.11332" lon="6.96023">
        <ele>1776.17</ele>
        <time>2018-07-05T07:24:04Z</time>
      </trkpt>
      <trkpt lat="44.11342" lon="6.96024">
        <ele>1777.13</ele>
        <time>2018-07-05T07:24:15Z</time>
      </trkpt>
      <trkpt lat="44.11353" lon="6.96025">
        <ele>1777.61</ele>
        <time>2018-07-05T07:24:25Z</time>
      </trkpt>
      <trkpt lat="44.11363" lon="6.96023">
        <ele>1778.1</ele>
        <time>2018-07-05T07:24:36Z</time>
      </trkpt>
      <trkpt lat="44.11373" lon="6.96019">
        <ele>1779.06</ele>
        <time>2018-07-05T07:24:47Z</time>
      </trkpt>
      <trkpt lat="44.11384" lon="6.96015">
        <ele>1779.54</ele>
        <time>2018-07-05T07:25:16Z</time>
      </trkpt>
      <trkpt lat="44.11395" lon="6.96008">
        <ele>1780.02</ele>
        <time>2018-07-05T07:25:28Z</time>
      </trkpt>
      <trkpt lat="44.11412" lon="6.96006">
        <ele>1780.5</ele>
        <time>2018-07-05T07:25:46Z</time>
      </trkpt>
      <trkpt lat="44.11425" lon="6.96007">
        <ele>1780.5</ele>
        <time>2018-07-05T07:25:57Z</time>
      </trkpt>
      <trkpt lat="44.11442" lon="6.96011">
        <ele>1780.98</ele>
        <time>2018-07-05T07:26:39Z</time>
      </trkpt>
      <trkpt lat="44.11451" lon="6.96014">
        <ele>1780.98</ele>
        <time>2018-07-05T07:27:03Z</time>
      </trkpt>
      <trkpt lat="44.11462" lon="6.96016">
        <ele>1780.98</ele>
        <time>2018-07-05T07:27:12Z</time>
      </trkpt>
      <trkpt lat="44.11473" lon="6.96019">
        <ele>1780.98</ele>
        <time>2018-07-05T07:27:21Z</time>
      </trkpt>
      <trkpt lat="44.11482" lon="6.96022">
        <ele>1780.98</ele>
        <time>2018-07-05T07:27:30Z</time>
      </trkpt>
      <trkpt lat="44.11492" lon="6.96025">
        <ele>1780.98</ele>
        <time>2018-07-05T07:27:40Z</time>
      </trkpt>
      <trkpt lat="44.11502" lon="6.96029">
        <ele>1780.98</ele>
        <time>2018-07-05T07:27:50Z</time>
      </trkpt>
      <trkpt lat="44.11512" lon="6.96033">
        <ele>1781.46</ele>
        <time>2018-07-05T07:27:59Z</time>
      </trkpt>
      <trkpt lat="44.11522" lon="6.96035">
        <ele>1781.46</ele>
        <time>2018-07-05T07:28:08Z</time>
      </trkpt>
      <trkpt lat="44.11532" lon="6.96038">
        <ele>1781.94</ele>
        <time>2018-07-05T07:28:18Z</time>
      </trkpt>
      <trkpt lat="44.11541" lon="6.96041">
        <ele>1781.94</ele>
        <time>2018-07-05T07:28:26Z</time>
      </trkpt>
      <trkpt lat="44.11551" lon="6.96043">
        <ele>1781.94</ele>
        <time>2018-07-05T07:28:35Z</time>
      </trkpt>
      <trkpt lat="44.1156" lon="6.96046">
        <ele>1781.94</ele>
        <time>2018-07-05T07:28:44Z</time>
      </trkpt>
      <trkpt lat="44.11569" lon="6.96049">
        <ele>1782.42</ele>
        <time>2018-07-05T07:28:53Z</time>
      </trkpt>
      <trkpt lat="44.11579" lon="6.96052">
        <ele>1782.9</ele>
        <time>2018-07-05T07:29:01Z</time>
      </trkpt>
      <trkpt lat="44.11588" lon="6.96054">
        <ele>1782.9</ele>
        <time>2018-07-05T07:29:10Z</time>
      </trkpt>
      <trkpt lat="44.11598" lon="6.96056">
        <ele>1783.38</ele>
        <time>2018-07-05T07:29:19Z</time>
      </trkpt>
      <trkpt lat="44.11607" lon="6.96057">
        <ele>1783.38</ele>
        <time>2018-07-05T07:29:27Z</time>
      </trkpt>
      <trkpt lat="44.11616" lon="6.96055">
        <ele>1783.86</ele>
        <time>2018-07-05T07:29:36Z</time>
      </trkpt>
      <trkpt lat="44.11626" lon="6.96052">
        <ele>1784.34</ele>
        <time>2018-07-05T07:29:45Z</time>
      </trkpt>
      <trkpt lat="44.11635" lon="6.96047">
        <ele>1784.34</ele>
        <time>2018-07-05T07:29:54Z</time>
      </trkpt>
      <trkpt lat="44.11643" lon="6.9604">
        <ele>1784.34</ele>
        <time>2018-07-05T07:30:03Z</time>
      </trkpt>
      <trkpt lat="44.11652" lon="6.96033">
        <ele>1784.82</ele>
        <time>2018-07-05T07:30:16Z</time>
      </trkpt>
      <trkpt lat="44.1166" lon="6.96026">
        <ele>1784.82</ele>
        <time>2018-07-05T07:30:26Z</time>
      </trkpt>
      <trkpt lat="44.1167" lon="6.96021">
        <ele>1784.82</ele>
        <time>2018-07-05T07:30:37Z</time>
      </trkpt>
      <trkpt lat="44.11679" lon="6.96017">
        <ele>1784.82</ele>
        <time>2018-07-05T07:30:47Z</time>
      </trkpt>
      <trkpt lat="44.11688" lon="6.96015">
        <ele>1784.82</ele>
        <time>2018-07-05T07:30:57Z</time>
      </trkpt>
      <trkpt lat="44.11698" lon="6.96014">
        <ele>1784.82</ele>
        <time>2018-07-05T07:31:06Z</time>
      </trkpt>
      <trkpt lat="44.11707" lon="6.96011">
        <ele>1784.82</ele>
        <time>2018-07-05T07:31:15Z</time>
      </trkpt>
      <trkpt lat="44.11716" lon="6.96008">
        <ele>1785.31</ele>
        <time>2018-07-05T07:31:24Z</time>
      </trkpt>
      <trkpt lat="44.11726" lon="6.96004">
        <ele>1785.31</ele>
        <time>2018-07-05T07:31:33Z</time>
      </trkpt>
      <trkpt lat="44.11736" lon="6.96">
        <ele>1785.31</ele>
        <time>2018-07-05T07:31:42Z</time>
      </trkpt>
      <trkpt lat="44.11745" lon="6.95997">
        <ele>1785.31</ele>
        <time>2018-07-05T07:31:51Z</time>
      </trkpt>
      <trkpt lat="44.11754" lon="6.95995">
        <ele>1785.31</ele>
        <time>2018-07-05T07:32:00Z</time>
      </trkpt>
      <trkpt lat="44.11764" lon="6.9599">
        <ele>1785.31</ele>
        <time>2018-07-05T07:32:10Z</time>
      </trkpt>
      <trkpt lat="44.11774" lon="6.95987">
        <ele>1785.79</ele>
        <time>2018-07-05T07:32:20Z</time>
      </trkpt>
      <trkpt lat="44.11784" lon="6.95981">
        <ele>1785.79</ele>
        <time>2018-07-05T07:32:56Z</time>
      </trkpt>
      <trkpt lat="44.11792" lon="6.95976">
        <ele>1786.27</ele>
        <time>2018-07-05T07:33:05Z</time>
      </trkpt>
      <trkpt lat="44.11802" lon="6.95974">
        <ele>1786.27</ele>
        <time>2018-07-05T07:33:15Z</time>
      </trkpt>
      <trkpt lat="44.11811" lon="6.95973">
        <ele>1786.27</ele>
        <time>2018-07-05T07:33:24Z</time>
      </trkpt>
      <trkpt lat="44.11819" lon="6.95973">
        <ele>1786.75</ele>
        <time>2018-07-05T07:33:44Z</time>
      </trkpt>
      <trkpt lat="44.11829" lon="6.95975">
        <ele>1786.75</ele>
        <time>2018-07-05T07:33:54Z</time>
      </trkpt>
      <trkpt lat="44.11838" lon="6.95976">
        <ele>1786.75</ele>
        <time>2018-07-05T07:34:04Z</time>
      </trkpt>
      <trkpt lat="44.11848" lon="6.95977">
        <ele>1787.71</ele>
        <time>2018-07-05T07:34:14Z</time>
      </trkpt>
      <trkpt lat="44.11858" lon="6.95976">
        <ele>1787.71</ele>
        <time>2018-07-05T07:34:25Z</time>
      </trkpt>
      <trkpt lat="44.11868" lon="6.95977">
        <ele>1787.71</ele>
        <time>2018-07-05T07:34:36Z</time>
      </trkpt>
      <trkpt lat="44.11878" lon="6.95978">
        <ele>1787.71</ele>
        <time>2018-07-05T07:34:47Z</time>
      </trkpt>
      <trkpt lat="44.11888" lon="6.9598">
        <ele>1789.15</ele>
        <time>2018-07-05T07:34:57Z</time>
      </trkpt>
      <trkpt lat="44.11899" lon="6.95984">
        <ele>1789.63</ele>
        <time>2018-07-05T07:35:07Z</time>
      </trkpt>
      <trkpt lat="44.1191" lon="6.95989">
        <ele>1790.59</ele>
        <time>2018-07-05T07:35:17Z</time>
      </trkpt>
      <trkpt lat="44.11918" lon="6.95993">
        <ele>1791.07</ele>
        <time>2018-07-05T07:35:29Z</time>
      </trkpt>
      <trkpt lat="44.11927" lon="6.95997">
        <ele>1792.03</ele>
        <time>2018-07-05T07:35:40Z</time>
      </trkpt>
      <trkpt lat="44.11937" lon="6.96005">
        <ele>1793</ele>
        <time>2018-07-05T07:35:51Z</time>
      </trkpt>
      <trkpt lat="44.11947" lon="6.96014">
        <ele>1793.96</ele>
        <time>2018-07-05T07:36:04Z</time>
      </trkpt>
      <trkpt lat="44.11951" lon="6.96024">
        <ele>1794.92</ele>
        <time>2018-07-05T07:36:14Z</time>
      </trkpt>
      <trkpt lat="44.11956" lon="6.96036">
        <ele>1795.88</ele>
        <time>2018-07-05T07:36:24Z</time>
      </trkpt>
      <trkpt lat="44.11962" lon="6.96048">
        <ele>1796.84</ele>
        <time>2018-07-05T07:36:34Z</time>
      </trkpt>
      <trkpt lat="44.11968" lon="6.96058">
        <ele>1797.8</ele>
        <time>2018-07-05T07:36:46Z</time>
      </trkpt>
      <trkpt lat="44.11976" lon="6.96066">
        <ele>1798.28</ele>
        <time>2018-07-05T07:37:03Z</time>
      </trkpt>
      <trkpt lat="44.11984" lon="6.96071">
        <ele>1798.28</ele>
        <time>2018-07-05T07:37:22Z</time>
      </trkpt>
      <trkpt lat="44.11991" lon="6.9607">
        <ele>1799.73</ele>
        <time>2018-07-05T07:38:28Z</time>
      </trkpt>
      <trkpt lat="44.12003" lon="6.96074">
        <ele>1802.13</ele>
        <time>2018-07-05T07:38:42Z</time>
      </trkpt>
      <trkpt lat="44.12013" lon="6.96077">
        <ele>1803.09</ele>
        <time>2018-07-05T07:38:53Z</time>
      </trkpt>
      <trkpt lat="44.12023" lon="6.96083">
        <ele>1804.53</ele>
        <time>2018-07-05T07:39:04Z</time>
      </trkpt>
      <trkpt lat="44.12032" lon="6.96087">
        <ele>1805.97</ele>
        <time>2018-07-05T07:39:16Z</time>
      </trkpt>
      <trkpt lat="44.1204" lon="6.9609">
        <ele>1807.42</ele>
        <time>2018-07-05T07:39:29Z</time>
      </trkpt>
      <trkpt lat="44.12049" lon="6.96095">
        <ele>1808.86</ele>
        <time>2018-07-05T07:39:41Z</time>
      </trkpt>
      <trkpt lat="44.12058" lon="6.96099">
        <ele>1811.26</ele>
        <time>2018-07-05T07:40:02Z</time>
      </trkpt>
      <trkpt lat="44.12068" lon="6.96101">
        <ele>1813.18</ele>
        <time>2018-07-05T07:40:21Z</time>
      </trkpt>
      <trkpt lat="44.12075" lon="6.96107">
        <ele>1815.11</ele>
        <time>2018-07-05T07:40:37Z</time>
      </trkpt>
      <trkpt lat="44.12085" lon="6.96111">
        <ele>1816.55</ele>
        <time>2018-07-05T07:40:54Z</time>
      </trkpt>
      <trkpt lat="44.12095" lon="6.96116">
        <ele>1819.43</ele>
        <time>2018-07-05T07:41:09Z</time>
      </trkpt>
      <trkpt lat="44.12104" lon="6.96119">
        <ele>1821.35</ele>
        <time>2018-07-05T07:41:28Z</time>
      </trkpt>
      <trkpt lat="44.12114" lon="6.96119">
        <ele>1823.28</ele>
        <time>2018-07-05T07:41:42Z</time>
      </trkpt>
      <trkpt lat="44.12124" lon="6.96125">
        <ele>1825.2</ele>
        <time>2018-07-05T07:41:58Z</time>
      </trkpt>
      <trkpt lat="44.12134" lon="6.9613">
        <ele>1826.64</ele>
        <time>2018-07-05T07:42:13Z</time>
      </trkpt>
      <trkpt lat="44.12141" lon="6.96137">
        <ele>1828.08</ele>
        <time>2018-07-05T07:43:01Z</time>
      </trkpt>
      <trkpt lat="44.12148" lon="6.9615">
        <ele>1828.56</ele>
        <time>2018-07-05T07:43:15Z</time>
      </trkpt>
      <trkpt lat="44.12155" lon="6.9616">
        <ele>1830.01</ele>
        <time>2018-07-05T07:43:28Z</time>
      </trkpt>
      <trkpt lat="44.12158" lon="6.96173">
        <ele>1831.45</ele>
        <time>2018-07-05T07:43:42Z</time>
      </trkpt>
      <trkpt lat="44.12157" lon="6.96187">
        <ele>1833.37</ele>
        <time>2018-07-05T07:43:56Z</time>
      </trkpt>
      <trkpt lat="44.12156" lon="6.96199">
        <ele>1835.29</ele>
        <time>2018-07-05T07:44:09Z</time>
      </trkpt>
      <trkpt lat="44.1216" lon="6.96211">
        <ele>1837.7</ele>
        <time>2018-07-05T07:44:23Z</time>
      </trkpt>
      <trkpt lat="44.12161" lon="6.96225">
        <ele>1838.18</ele>
        <time>2018-07-05T07:44:35Z</time>
      </trkpt>
      <trkpt lat="44.12162" lon="6.96239">
        <ele>1839.14</ele>
        <time>2018-07-05T07:44:47Z</time>
      </trkpt>
      <trkpt lat="44.12165" lon="6.96251">
        <ele>1840.58</ele>
        <time>2018-07-05T07:44:59Z</time>
      </trkpt>
      <trkpt lat="44.12166" lon="6.96264">
        <ele>1841.54</ele>
        <time>2018-07-05T07:45:12Z</time>
      </trkpt>
      <trkpt lat="44.12167" lon="6.96277">
        <ele>1842.98</ele>
        <time>2018-07-05T07:45:24Z</time>
      </trkpt>
      <trkpt lat="44.12166" lon="6.9629">
        <ele>1843.95</ele>
        <time>2018-07-05T07:45:37Z</time>
      </trkpt>
      <trkpt lat="44.12167" lon="6.96304">
        <ele>1845.39</ele>
        <time>2018-07-05T07:45:51Z</time>
      </trkpt>
      <trkpt lat="44.12168" lon="6.96318">
        <ele>1847.31</ele>
        <time>2018-07-05T07:46:05Z</time>
      </trkpt>
      <trkpt lat="44.12171" lon="6.96331">
        <ele>1848.75</ele>
        <time>2018-07-05T07:46:20Z</time>
      </trkpt>
      <trkpt lat="44.12173" lon="6.96344">
        <ele>1850.19</ele>
        <time>2018-07-05T07:46:35Z</time>
      </trkpt>
      <trkpt lat="44.12174" lon="6.96356">
        <ele>1852.6</ele>
        <time>2018-07-05T07:46:52Z</time>
      </trkpt>
      <trkpt lat="44.12178" lon="6.96369">
        <ele>1853.56</ele>
        <time>2018-07-05T07:47:23Z</time>
      </trkpt>
      <trkpt lat="44.1218" lon="6.96377">
        <ele>1854.52</ele>
        <time>2018-07-05T07:47:38Z</time>
      </trkpt>
      <trkpt lat="44.12185" lon="6.96388">
        <ele>1855.96</ele>
        <time>2018-07-05T07:47:55Z</time>
      </trkpt>
      <trkpt lat="44.12191" lon="6.96404">
        <ele>1857.4</ele>
        <time>2018-07-05T07:48:13Z</time>
      </trkpt>
      <trkpt lat="44.12194" lon="6.96418">
        <ele>1857.4</ele>
        <time>2018-07-05T07:48:30Z</time>
      </trkpt>
      <trkpt lat="44.12197" lon="6.9643">
        <ele>1857.4</ele>
        <time>2018-07-05T07:48:44Z</time>
      </trkpt>
      <trkpt lat="44.122" lon="6.96441">
        <ele>1858.85</ele>
        <time>2018-07-05T07:49:28Z</time>
      </trkpt>
      <trkpt lat="44.12207" lon="6.9645">
        <ele>1859.33</ele>
        <time>2018-07-05T07:49:40Z</time>
      </trkpt>
      <trkpt lat="44.12214" lon="6.96459">
        <ele>1860.29</ele>
        <time>2018-07-05T07:49:52Z</time>
      </trkpt>
      <trkpt lat="44.12218" lon="6.96469">
        <ele>1860.29</ele>
        <time>2018-07-05T07:50:46Z</time>
      </trkpt>
      <trkpt lat="44.12228" lon="6.96471">
        <ele>1861.25</ele>
        <time>2018-07-05T07:51:03Z</time>
      </trkpt>
      <trkpt lat="44.12238" lon="6.96474">
        <ele>1862.69</ele>
        <time>2018-07-05T07:51:16Z</time>
      </trkpt>
      <trkpt lat="44.12247" lon="6.9648">
        <ele>1863.17</ele>
        <time>2018-07-05T07:51:28Z</time>
      </trkpt>
      <trkpt lat="44.12257" lon="6.96484">
        <ele>1864.13</ele>
        <time>2018-07-05T07:51:40Z</time>
      </trkpt>
      <trkpt lat="44.12266" lon="6.96489">
        <ele>1865.09</ele>
        <time>2018-07-05T07:51:51Z</time>
      </trkpt>
      <trkpt lat="44.12275" lon="6.96494">
        <ele>1865.58</ele>
        <time>2018-07-05T07:52:03Z</time>
      </trkpt>
      <trkpt lat="44.12283" lon="6.96497">
        <ele>1866.54</ele>
        <time>2018-07-05T07:52:14Z</time>
      </trkpt>
      <trkpt lat="44.12293" lon="6.965">
        <ele>1867.5</ele>
        <time>2018-07-05T07:52:40Z</time>
      </trkpt>
      <trkpt lat="44.12302" lon="6.96508">
        <ele>1867.98</ele>
        <time>2018-07-05T07:52:49Z</time>
      </trkpt>
      <trkpt lat="44.1231" lon="6.96514">
        <ele>1868.46</ele>
        <time>2018-07-05T07:52:58Z</time>
      </trkpt>
      <trkpt lat="44.12318" lon="6.96518">
        <ele>1869.42</ele>
        <time>2018-07-05T07:53:08Z</time>
      </trkpt>
      <trkpt lat="44.12328" lon="6.96522">
        <ele>1871.34</ele>
        <time>2018-07-05T07:53:20Z</time>
      </trkpt>
      <trkpt lat="44.12339" lon="6.96528">
        <ele>1873.75</ele>
        <time>2018-07-05T07:57:42Z</time>
      </trkpt>
      <trkpt lat="44.12343" lon="6.9654">
        <ele>1876.15</ele>
        <time>2018-07-05T07:57:58Z</time>
      </trkpt>
      <trkpt lat="44.1235" lon="6.9655">
        <ele>1878.07</ele>
        <time>2018-07-05T07:58:14Z</time>
      </trkpt>
      <trkpt lat="44.12358" lon="6.96559">
        <ele>1879.51</ele>
        <time>2018-07-05T07:58:28Z</time>
      </trkpt>
      <trkpt lat="44.12367" lon="6.96567">
        <ele>1880.48</ele>
        <time>2018-07-05T07:58:43Z</time>
      </trkpt>
      <trkpt lat="44.12376" lon="6.96576">
        <ele>1881.44</ele>
        <time>2018-07-05T07:59:26Z</time>
      </trkpt>
      <trkpt lat="44.12385" lon="6.96585">
        <ele>1881.92</ele>
        <time>2018-07-05T07:59:48Z</time>
      </trkpt>
      <trkpt lat="44.12393" lon="6.96594">
        <ele>1882.88</ele>
        <time>2018-07-05T08:00:00Z</time>
      </trkpt>
      <trkpt lat="44.12401" lon="6.96603">
        <ele>1884.8</ele>
        <time>2018-07-05T08:00:15Z</time>
      </trkpt>
      <trkpt lat="44.1241" lon="6.96614">
        <ele>1887.21</ele>
        <time>2018-07-05T08:00:30Z</time>
      </trkpt>
      <trkpt lat="44.12417" lon="6.96623">
        <ele>1890.09</ele>
        <time>2018-07-05T08:00:46Z</time>
      </trkpt>
      <trkpt lat="44.12418" lon="6.96641">
        <ele>1892.49</ele>
        <time>2018-07-05T08:01:05Z</time>
      </trkpt>
      <trkpt lat="44.1242" lon="6.96658">
        <ele>1893.45</ele>
        <time>2018-07-05T08:01:23Z</time>
      </trkpt>
      <trkpt lat="44.12414" lon="6.96669">
        <ele>1896.34</ele>
        <time>2018-07-05T08:01:44Z</time>
      </trkpt>
      <trkpt lat="44.12414" lon="6.96683">
        <ele>1897.78</ele>
        <time>2018-07-05T08:01:56Z</time>
      </trkpt>
      <trkpt lat="44.12413" lon="6.96697">
        <ele>1899.22</ele>
        <time>2018-07-05T08:02:27Z</time>
      </trkpt>
      <trkpt lat="44.12414" lon="6.9671">
        <ele>1900.18</ele>
        <time>2018-07-05T08:02:37Z</time>
      </trkpt>
      <trkpt lat="44.12415" lon="6.96723">
        <ele>1901.14</ele>
        <time>2018-07-05T08:02:48Z</time>
      </trkpt>
      <trkpt lat="44.12416" lon="6.96737">
        <ele>1902.59</ele>
        <time>2018-07-05T08:03:04Z</time>
      </trkpt>
      <trkpt lat="44.1242" lon="6.9675">
        <ele>1903.07</ele>
        <time>2018-07-05T08:03:15Z</time>
      </trkpt>
      <trkpt lat="44.12421" lon="6.96766">
        <ele>1904.99</ele>
        <time>2018-07-05T08:03:31Z</time>
      </trkpt>
      <trkpt lat="44.12418" lon="6.96779">
        <ele>1906.43</ele>
        <time>2018-07-05T08:03:45Z</time>
      </trkpt>
      <trkpt lat="44.12415" lon="6.9679">
        <ele>1907.39</ele>
        <time>2018-07-05T08:04:11Z</time>
      </trkpt>
      <trkpt lat="44.12411" lon="6.96803">
        <ele>1909.32</ele>
        <time>2018-07-05T08:04:26Z</time>
      </trkpt>
      <trkpt lat="44.12407" lon="6.96816">
        <ele>1911.24</ele>
        <time>2018-07-05T08:04:42Z</time>
      </trkpt>
      <trkpt lat="44.12403" lon="6.96833">
        <ele>1913.16</ele>
        <time>2018-07-05T08:05:46Z</time>
      </trkpt>
      <trkpt lat="44.124" lon="6.96845">
        <ele>1916.04</ele>
        <time>2018-07-05T08:05:58Z</time>
      </trkpt>
      <trkpt lat="44.12396" lon="6.96857">
        <ele>1917.97</ele>
        <time>2018-07-05T08:06:10Z</time>
      </trkpt>
      <trkpt lat="44.12391" lon="6.9687">
        <ele>1919.89</ele>
        <time>2018-07-05T08:06:27Z</time>
      </trkpt>
      <trkpt lat="44.12385" lon="6.96881">
        <ele>1921.33</ele>
        <time>2018-07-05T08:06:39Z</time>
      </trkpt>
      <trkpt lat="44.12381" lon="6.96893">
        <ele>1923.25</ele>
        <time>2018-07-05T08:06:51Z</time>
      </trkpt>
      <trkpt lat="44.12378" lon="6.96907">
        <ele>1925.66</ele>
        <time>2018-07-05T08:07:06Z</time>
      </trkpt>
      <trkpt lat="44.12372" lon="6.96918">
        <ele>1927.58</ele>
        <time>2018-07-05T08:07:19Z</time>
      </trkpt>
      <trkpt lat="44.12368" lon="6.96932">
        <ele>1929.5</ele>
        <time>2018-07-05T08:07:33Z</time>
      </trkpt>
      <trkpt lat="44.12364" lon="6.96946">
        <ele>1931.91</ele>
        <time>2018-07-05T08:07:48Z</time>
      </trkpt>
      <trkpt lat="44.12359" lon="6.96958">
        <ele>1933.83</ele>
        <time>2018-07-05T08:08:02Z</time>
      </trkpt>
      <trkpt lat="44.12353" lon="6.96971">
        <ele>1935.27</ele>
        <time>2018-07-05T08:08:15Z</time>
      </trkpt>
      <trkpt lat="44.12348" lon="6.96983">
        <ele>1936.71</ele>
        <time>2018-07-05T08:08:27Z</time>
      </trkpt>
      <trkpt lat="44.12344" lon="6.96995">
        <ele>1938.16</ele>
        <time>2018-07-05T08:08:39Z</time>
      </trkpt>
      <trkpt lat="44.1234" lon="6.97008">
        <ele>1939.6</ele>
        <time>2018-07-05T08:08:53Z</time>
      </trkpt>
      <trkpt lat="44.12336" lon="6.9702">
        <ele>1942</ele>
        <time>2018-07-05T08:09:08Z</time>
      </trkpt>
      <trkpt lat="44.12331" lon="6.97032">
        <ele>1942.96</ele>
        <time>2018-07-05T08:09:22Z</time>
      </trkpt>
      <trkpt lat="44.12327" lon="6.97046">
        <ele>1945.36</ele>
        <time>2018-07-05T08:09:38Z</time>
      </trkpt>
      <trkpt lat="44.12323" lon="6.97058">
        <ele>1947.29</ele>
        <time>2018-07-05T08:09:55Z</time>
      </trkpt>
      <trkpt lat="44.12319" lon="6.9707">
        <ele>1949.21</ele>
        <time>2018-07-05T08:10:10Z</time>
      </trkpt>
      <trkpt lat="44.12314" lon="6.97081">
        <ele>1951.13</ele>
        <time>2018-07-05T08:10:55Z</time>
      </trkpt>
      <trkpt lat="44.12311" lon="6.97093">
        <ele>1952.57</ele>
        <time>2018-07-05T08:11:57Z</time>
      </trkpt>
      <trkpt lat="44.12308" lon="6.97104">
        <ele>1954.02</ele>
        <time>2018-07-05T08:12:10Z</time>
      </trkpt>
      <trkpt lat="44.12303" lon="6.97117">
        <ele>1955.46</ele>
        <time>2018-07-05T08:12:22Z</time>
      </trkpt>
      <trkpt lat="44.12304" lon="6.9713">
        <ele>1956.9</ele>
        <time>2018-07-05T08:12:36Z</time>
      </trkpt>
      <trkpt lat="44.12307" lon="6.97143">
        <ele>1958.34</ele>
        <time>2018-07-05T08:12:56Z</time>
      </trkpt>
      <trkpt lat="44.1231" lon="6.97156">
        <ele>1959.3</ele>
        <time>2018-07-05T08:13:10Z</time>
      </trkpt>
      <trkpt lat="44.12313" lon="6.9717">
        <ele>1961.23</ele>
        <time>2018-07-05T08:13:49Z</time>
      </trkpt>
      <trkpt lat="44.12317" lon="6.97183">
        <ele>1963.15</ele>
        <time>2018-07-05T08:14:36Z</time>
      </trkpt>
      <trkpt lat="44.12321" lon="6.97195">
        <ele>1964.59</ele>
        <time>2018-07-05T08:14:50Z</time>
      </trkpt>
      <trkpt lat="44.12327" lon="6.97206">
        <ele>1966.51</ele>
        <time>2018-07-05T08:15:06Z</time>
      </trkpt>
      <trkpt lat="44.12332" lon="6.97214">
        <ele>1968.44</ele>
        <time>2018-07-05T08:15:32Z</time>
      </trkpt>
      <trkpt lat="44.12338" lon="6.97224">
        <ele>1969.88</ele>
        <time>2018-07-05T08:15:47Z</time>
      </trkpt>
      <trkpt lat="44.12346" lon="6.97232">
        <ele>1971.8</ele>
        <time>2018-07-05T08:16:17Z</time>
      </trkpt>
      <trkpt lat="44.12355" lon="6.97238">
        <ele>1973.72</ele>
        <time>2018-07-05T08:16:40Z</time>
      </trkpt>
      <trkpt lat="44.12365" lon="6.97242">
        <ele>1975.65</ele>
        <time>2018-07-05T08:16:58Z</time>
      </trkpt>
      <trkpt lat="44.12375" lon="6.97242">
        <ele>1978.05</ele>
        <time>2018-07-05T08:17:16Z</time>
      </trkpt>
      <trkpt lat="44.12386" lon="6.97246">
        <ele>1979.49</ele>
        <time>2018-07-05T08:17:37Z</time>
      </trkpt>
      <trkpt lat="44.12396" lon="6.9725">
        <ele>1981.9</ele>
        <time>2018-07-05T08:18:11Z</time>
      </trkpt>
      <trkpt lat="44.12406" lon="6.9725">
        <ele>1984.3</ele>
        <time>2018-07-05T08:18:31Z</time>
      </trkpt>
      <trkpt lat="44.12414" lon="6.97249">
        <ele>1986.22</ele>
        <time>2018-07-05T08:18:52Z</time>
      </trkpt>
      <trkpt lat="44.12422" lon="6.97245">
        <ele>1988.14</ele>
        <time>2018-07-05T08:19:07Z</time>
      </trkpt>
      <trkpt lat="44.12427" lon="6.97236">
        <ele>1991.99</ele>
        <time>2018-07-05T08:19:25Z</time>
      </trkpt>
      <trkpt lat="44.12431" lon="6.97224">
        <ele>1991.99</ele>
        <time>2018-07-05T08:19:40Z</time>
      </trkpt>
      <trkpt lat="44.12434" lon="6.97212">
        <ele>1993.91</ele>
        <time>2018-07-05T08:19:54Z</time>
      </trkpt>
      <trkpt lat="44.12438" lon="6.972">
        <ele>1995.35</ele>
        <time>2018-07-05T08:20:06Z</time>
      </trkpt>
      <trkpt lat="44.12442" lon="6.97189">
        <ele>1996.32</ele>
        <time>2018-07-05T08:20:19Z</time>
      </trkpt>
      <trkpt lat="44.12448" lon="6.97178">
        <ele>1998.24</ele>
        <time>2018-07-05T08:20:35Z</time>
      </trkpt>
      <trkpt lat="44.12452" lon="6.97167">
        <ele>1999.68</ele>
        <time>2018-07-05T08:20:50Z</time>
      </trkpt>
      <trkpt lat="44.12457" lon="6.97157">
        <ele>2001.12</ele>
        <time>2018-07-05T08:21:24Z</time>
      </trkpt>
      <trkpt lat="44.12461" lon="6.97146">
        <ele>2001.6</ele>
        <time>2018-07-05T08:21:35Z</time>
      </trkpt>
      <trkpt lat="44.12467" lon="6.97135">
        <ele>2002.56</ele>
        <time>2018-07-05T08:21:48Z</time>
      </trkpt>
      <trkpt lat="44.12472" lon="6.97123">
        <ele>2004.49</ele>
        <time>2018-07-05T08:22:03Z</time>
      </trkpt>
      <trkpt lat="44.12477" lon="6.97112">
        <ele>2005.93</ele>
        <time>2018-07-05T08:22:28Z</time>
      </trkpt>
      <trkpt lat="44.12484" lon="6.971">
        <ele>2007.37</ele>
        <time>2018-07-05T08:23:17Z</time>
      </trkpt>
      <trkpt lat="44.12493" lon="6.97092">
        <ele>2009.77</ele>
        <time>2018-07-05T08:23:33Z</time>
      </trkpt>
      <trkpt lat="44.125" lon="6.97105">
        <ele>2013.14</ele>
        <time>2018-07-05T08:23:53Z</time>
      </trkpt>
      <trkpt lat="44.12505" lon="6.97118">
        <ele>2015.06</ele>
        <time>2018-07-05T08:24:08Z</time>
      </trkpt>
      <trkpt lat="44.12509" lon="6.97131">
        <ele>2017.46</ele>
        <time>2018-07-05T08:24:28Z</time>
      </trkpt>
      <trkpt lat="44.12515" lon="6.9714">
        <ele>2021.31</ele>
        <time>2018-07-05T08:25:26Z</time>
      </trkpt>
      <trkpt lat="44.12516" lon="6.97146">
        <ele>2024.19</ele>
        <time>2018-07-05T08:27:15Z</time>
      </trkpt>
      <trkpt lat="44.12526" lon="6.97159">
        <ele>2028.04</ele>
        <time>2018-07-05T08:27:41Z</time>
      </trkpt>
      <trkpt lat="44.12533" lon="6.97175">
        <ele>2031.4</ele>
        <time>2018-07-05T08:28:04Z</time>
      </trkpt>
      <trkpt lat="44.12537" lon="6.97178">
        <ele>2033.81</ele>
        <time>2018-07-05T08:28:26Z</time>
      </trkpt>
      <trkpt lat="44.12547" lon="6.97189">
        <ele>2038.13</ele>
        <time>2018-07-05T08:29:21Z</time>
      </trkpt>
      <trkpt lat="44.1255" lon="6.97199">
        <ele>2040.54</ele>
        <time>2018-07-05T08:29:47Z</time>
      </trkpt>
      <trkpt lat="44.12555" lon="6.97193">
        <ele>2043.42</ele>
        <time>2018-07-05T08:30:08Z</time>
      </trkpt>
      <trkpt lat="44.12558" lon="6.97193">
        <ele>2047.26</ele>
        <time>2018-07-05T08:30:44Z</time>
      </trkpt>
      <trkpt lat="44.12566" lon="6.97186">
        <ele>2051.11</ele>
        <time>2018-07-05T08:31:20Z</time>
      </trkpt>
      <trkpt lat="44.12572" lon="6.97199">
        <ele>2053.99</ele>
        <time>2018-07-05T08:31:58Z</time>
      </trkpt>
      <trkpt lat="44.12577" lon="6.97212">
        <ele>2057.84</ele>
        <time>2018-07-05T08:32:39Z</time>
      </trkpt>
      <trkpt lat="44.12581" lon="6.97224">
        <ele>2060.24</ele>
        <time>2018-07-05T08:32:57Z</time>
      </trkpt>
      <trkpt lat="44.12584" lon="6.97237">
        <ele>2061.2</ele>
        <time>2018-07-05T08:33:13Z</time>
      </trkpt>
      <trkpt lat="44.12587" lon="6.97236">
        <ele>2062.65</ele>
        <time>2018-07-05T08:34:53Z</time>
      </trkpt>
      <trkpt lat="44.1259" lon="6.97225">
        <ele>2065.53</ele>
        <time>2018-07-05T08:35:34Z</time>
      </trkpt>
      <trkpt lat="44.12592" lon="6.97211">
        <ele>2065.53</ele>
        <time>2018-07-05T08:35:47Z</time>
      </trkpt>
      <trkpt lat="44.12596" lon="6.97198">
        <ele>2067.45</ele>
        <time>2018-07-05T08:35:59Z</time>
      </trkpt>
      <trkpt lat="44.12598" lon="6.97186">
        <ele>2069.38</ele>
        <time>2018-07-05T08:36:11Z</time>
      </trkpt>
      <trkpt lat="44.12602" lon="6.97175">
        <ele>2070.82</ele>
        <time>2018-07-05T08:36:24Z</time>
      </trkpt>
      <trkpt lat="44.12601" lon="6.97163">
        <ele>2072.74</ele>
        <time>2018-07-05T08:36:39Z</time>
      </trkpt>
      <trkpt lat="44.12596" lon="6.97153">
        <ele>2074.66</ele>
        <time>2018-07-05T08:36:52Z</time>
      </trkpt>
      <trkpt lat="44.12596" lon="6.9714">
        <ele>2075.62</ele>
        <time>2018-07-05T08:37:04Z</time>
      </trkpt>
      <trkpt lat="44.12598" lon="6.97128">
        <ele>2076.1</ele>
        <time>2018-07-05T08:37:20Z</time>
      </trkpt>
      <trkpt lat="44.12601" lon="6.97118">
        <ele>2077.07</ele>
        <time>2018-07-05T08:38:09Z</time>
      </trkpt>
      <trkpt lat="44.12607" lon="6.97108">
        <ele>2078.99</ele>
        <time>2018-07-05T08:38:22Z</time>
      </trkpt>
      <trkpt lat="44.12614" lon="6.97107">
        <ele>2082.35</ele>
        <time>2018-07-05T08:38:38Z</time>
      </trkpt>
      <trkpt lat="44.12621" lon="6.97117">
        <ele>2084.76</ele>
        <time>2018-07-05T08:39:29Z</time>
      </trkpt>
      <trkpt lat="44.1263" lon="6.97125">
        <ele>2087.16</ele>
        <time>2018-07-05T08:39:47Z</time>
      </trkpt>
      <trkpt lat="44.1264" lon="6.97131">
        <ele>2090.04</ele>
        <time>2018-07-05T08:40:14Z</time>
      </trkpt>
      <trkpt lat="44.12651" lon="6.97139">
        <ele>2093.89</ele>
        <time>2018-07-05T08:40:48Z</time>
      </trkpt>
      <trkpt lat="44.12652" lon="6.97144">
        <ele>2095.81</ele>
        <time>2018-07-05T08:42:31Z</time>
      </trkpt>
      <trkpt lat="44.12663" lon="6.97156">
        <ele>2100.62</ele>
        <time>2018-07-05T08:43:00Z</time>
      </trkpt>
      <trkpt lat="44.12668" lon="6.97148">
        <ele>2104.94</ele>
        <time>2018-07-05T08:43:38Z</time>
      </trkpt>
      <trkpt lat="44.12664" lon="6.97134">
        <ele>2106.87</ele>
        <time>2018-07-05T08:43:57Z</time>
      </trkpt>
      <trkpt lat="44.12663" lon="6.97121">
        <ele>2108.31</ele>
        <time>2018-07-05T08:44:33Z</time>
      </trkpt>
      <trkpt lat="44.12666" lon="6.97108">
        <ele>2111.19</ele>
        <time>2018-07-05T08:44:53Z</time>
      </trkpt>
      <trkpt lat="44.12669" lon="6.97095">
        <ele>2115.04</ele>
        <time>2018-07-05T08:45:18Z</time>
      </trkpt>
      <trkpt lat="44.12671" lon="6.97083">
        <ele>2116.96</ele>
        <time>2018-07-05T08:45:34Z</time>
      </trkpt>
      <trkpt lat="44.12671" lon="6.9707">
        <ele>2118.4</ele>
        <time>2018-07-05T08:45:48Z</time>
      </trkpt>
      <trkpt lat="44.1267" lon="6.97057">
        <ele>2119.36</ele>
        <time>2018-07-05T08:46:05Z</time>
      </trkpt>
      <trkpt lat="44.12677" lon="6.97066">
        <ele>2121.77</ele>
        <time>2018-07-05T08:46:21Z</time>
      </trkpt>
      <trkpt lat="44.1268" lon="6.97079">
        <ele>2122.73</ele>
        <time>2018-07-05T08:46:37Z</time>
      </trkpt>
      <trkpt lat="44.12684" lon="6.97091">
        <ele>2124.17</ele>
        <time>2018-07-05T08:46:53Z</time>
      </trkpt>
      <trkpt lat="44.12689" lon="6.97102">
        <ele>2126.09</ele>
        <time>2018-07-05T08:47:11Z</time>
      </trkpt>
      <trkpt lat="44.12696" lon="6.97113">
        <ele>2128.5</ele>
        <time>2018-07-05T08:47:29Z</time>
      </trkpt>
      <trkpt lat="44.12702" lon="6.97124">
        <ele>2130.9</ele>
        <time>2018-07-05T08:47:47Z</time>
      </trkpt>
      <trkpt lat="44.12709" lon="6.97133">
        <ele>2133.78</ele>
        <time>2018-07-05T08:48:07Z</time>
      </trkpt>
      <trkpt lat="44.12719" lon="6.9714">
        <ele>2135.71</ele>
        <time>2018-07-05T08:48:31Z</time>
      </trkpt>
      <trkpt lat="44.12728" lon="6.97146">
        <ele>2138.59</ele>
        <time>2018-07-05T08:48:49Z</time>
      </trkpt>
      <trkpt lat="44.12737" lon="6.97154">
        <ele>2140.51</ele>
        <time>2018-07-05T08:49:09Z</time>
      </trkpt>
      <trkpt lat="44.12745" lon="6.97159">
        <ele>2142.44</ele>
        <time>2018-07-05T08:49:27Z</time>
      </trkpt>
      <trkpt lat="44.12754" lon="6.97166">
        <ele>2144.84</ele>
        <time>2018-07-05T08:50:11Z</time>
      </trkpt>
      <trkpt lat="44.12763" lon="6.97173">
        <ele>2147.24</ele>
        <time>2018-07-05T08:50:28Z</time>
      </trkpt>
      <trkpt lat="44.12772" lon="6.97179">
        <ele>2149.16</ele>
        <time>2018-07-05T08:50:45Z</time>
      </trkpt>
      <trkpt lat="44.12781" lon="6.97185">
        <ele>2151.57</ele>
        <time>2018-07-05T08:51:03Z</time>
      </trkpt>
      <trkpt lat="44.12788" lon="6.97193">
        <ele>2153.97</ele>
        <time>2018-07-05T08:51:35Z</time>
      </trkpt>
      <trkpt lat="44.12796" lon="6.97201">
        <ele>2156.37</ele>
        <time>2018-07-05T08:53:15Z</time>
      </trkpt>
      <trkpt lat="44.12807" lon="6.97206">
        <ele>2159.26</ele>
        <time>2018-07-05T08:53:32Z</time>
      </trkpt>
      <trkpt lat="44.12815" lon="6.9721">
        <ele>2161.18</ele>
        <time>2018-07-05T08:53:51Z</time>
      </trkpt>
      <trkpt lat="44.12825" lon="6.97212">
        <ele>2163.58</ele>
        <time>2018-07-05T08:54:08Z</time>
      </trkpt>
      <trkpt lat="44.12835" lon="6.97216">
        <ele>2166.47</ele>
        <time>2018-07-05T08:54:39Z</time>
      </trkpt>
      <trkpt lat="44.12845" lon="6.97218">
        <ele>2168.39</ele>
        <time>2018-07-05T08:54:58Z</time>
      </trkpt>
      <trkpt lat="44.12855" lon="6.97221">
        <ele>2170.31</ele>
        <time>2018-07-05T08:55:14Z</time>
      </trkpt>
      <trkpt lat="44.12864" lon="6.97224">
        <ele>2172.24</ele>
        <time>2018-07-05T08:55:30Z</time>
      </trkpt>
      <trkpt lat="44.12872" lon="6.97224">
        <ele>2174.16</ele>
        <time>2018-07-05T08:55:48Z</time>
      </trkpt>
      <trkpt lat="44.12882" lon="6.97229">
        <ele>2176.56</ele>
        <time>2018-07-05T08:56:18Z</time>
      </trkpt>
      <trkpt lat="44.12892" lon="6.97231">
        <ele>2179.45</ele>
        <time>2018-07-05T08:56:40Z</time>
      </trkpt>
      <trkpt lat="44.12901" lon="6.97232">
        <ele>2181.37</ele>
        <time>2018-07-05T08:56:57Z</time>
      </trkpt>
      <trkpt lat="44.12911" lon="6.97231">
        <ele>2182.81</ele>
        <time>2018-07-05T08:57:13Z</time>
      </trkpt>
      <trkpt lat="44.12919" lon="6.97233">
        <ele>2184.73</ele>
        <time>2018-07-05T08:57:32Z</time>
      </trkpt>
      <trkpt lat="44.12929" lon="6.97238">
        <ele>2187.14</ele>
        <time>2018-07-05T08:57:51Z</time>
      </trkpt>
      <trkpt lat="44.12937" lon="6.97239">
        <ele>2189.06</ele>
        <time>2018-07-05T08:58:43Z</time>
      </trkpt>
      <trkpt lat="44.12947" lon="6.97242">
        <ele>2189.54</ele>
        <time>2018-07-05T08:58:57Z</time>
      </trkpt>
      <trkpt lat="44.12955" lon="6.97245">
        <ele>2192.9</ele>
        <time>2018-07-05T09:02:34Z</time>
      </trkpt>
      <trkpt lat="44.12954" lon="6.97233">
        <ele>2194.35</ele>
        <time>2018-07-05T09:02:48Z</time>
      </trkpt>
      <trkpt lat="44.12953" lon="6.9722">
        <ele>2196.27</ele>
        <time>2018-07-05T09:03:01Z</time>
      </trkpt>
      <trkpt lat="44.12951" lon="6.97208">
        <ele>2198.19</ele>
        <time>2018-07-05T09:03:14Z</time>
      </trkpt>
      <trkpt lat="44.12953" lon="6.97195">
        <ele>2199.63</ele>
        <time>2018-07-05T09:03:30Z</time>
      </trkpt>
      <trkpt lat="44.12954" lon="6.97181">
        <ele>2201.56</ele>
        <time>2018-07-05T09:03:47Z</time>
      </trkpt>
      <trkpt lat="44.12955" lon="6.97169">
        <ele>2203.48</ele>
        <time>2018-07-05T09:04:02Z</time>
      </trkpt>
      <trkpt lat="44.12959" lon="6.97156">
        <ele>2205.4</ele>
        <time>2018-07-05T09:04:18Z</time>
      </trkpt>
      <trkpt lat="44.12962" lon="6.97144">
        <ele>2207.32</ele>
        <time>2018-07-05T09:04:35Z</time>
      </trkpt>
      <trkpt lat="44.12966" lon="6.97141">
        <ele>2209.25</ele>
        <time>2018-07-05T09:04:53Z</time>
      </trkpt>
      <trkpt lat="44.1297" lon="6.97153">
        <ele>2211.17</ele>
        <time>2018-07-05T09:05:10Z</time>
      </trkpt>
      <trkpt lat="44.12974" lon="6.97165">
        <ele>2213.09</ele>
        <time>2018-07-05T09:05:27Z</time>
      </trkpt>
      <trkpt lat="44.1298" lon="6.97176">
        <ele>2215.98</ele>
        <time>2018-07-05T09:05:45Z</time>
      </trkpt>
      <trkpt lat="44.12986" lon="6.97188">
        <ele>2217.42</ele>
        <time>2018-07-05T09:06:04Z</time>
      </trkpt>
      <trkpt lat="44.12992" lon="6.97197">
        <ele>2219.34</ele>
        <time>2018-07-05T09:06:22Z</time>
      </trkpt>
      <trkpt lat="44.12999" lon="6.97206">
        <ele>2221.74</ele>
        <time>2018-07-05T09:06:41Z</time>
      </trkpt>
      <trkpt lat="44.13008" lon="6.97213">
        <ele>2224.15</ele>
        <time>2018-07-05T09:06:58Z</time>
      </trkpt>
      <trkpt lat="44.13017" lon="6.97218">
        <ele>2225.59</ele>
        <time>2018-07-05T09:07:15Z</time>
      </trkpt>
      <trkpt lat="44.13023" lon="6.97227">
        <ele>2227.99</ele>
        <time>2018-07-05T09:07:52Z</time>
      </trkpt>
      <trkpt lat="44.13033" lon="6.9723">
        <ele>2230.4</ele>
        <time>2018-07-05T09:08:29Z</time>
      </trkpt>
      <trkpt lat="44.13028" lon="6.9722">
        <ele>2231.84</ele>
        <time>2018-07-05T09:08:44Z</time>
      </trkpt>
      <trkpt lat="44.13027" lon="6.97209">
        <ele>2233.28</ele>
        <time>2018-07-05T09:08:59Z</time>
      </trkpt>
      <trkpt lat="44.13026" lon="6.97197">
        <ele>2235.2</ele>
        <time>2018-07-05T09:09:15Z</time>
      </trkpt>
      <trkpt lat="44.13033" lon="6.97198">
        <ele>2239.05</ele>
        <time>2018-07-05T09:09:32Z</time>
      </trkpt>
      <trkpt lat="44.13043" lon="6.97203">
        <ele>2240.49</ele>
        <time>2018-07-05T09:09:48Z</time>
      </trkpt>
      <trkpt lat="44.13053" lon="6.97207">
        <ele>2242.41</ele>
        <time>2018-07-05T09:10:04Z</time>
      </trkpt>
      <trkpt lat="44.13061" lon="6.97205">
        <ele>2243.37</ele>
        <time>2018-07-05T09:10:18Z</time>
      </trkpt>
      <trkpt lat="44.13071" lon="6.97205">
        <ele>2245.78</ele>
        <time>2018-07-05T09:10:38Z</time>
      </trkpt>
      <trkpt lat="44.13066" lon="6.97197">
        <ele>2246.74</ele>
        <time>2018-07-05T09:11:09Z</time>
      </trkpt>
      <trkpt lat="44.13066" lon="6.97184">
        <ele>2249.14</ele>
        <time>2018-07-05T09:11:25Z</time>
      </trkpt>
      <trkpt lat="44.13066" lon="6.97171">
        <ele>2250.58</ele>
        <time>2018-07-05T09:11:41Z</time>
      </trkpt>
      <trkpt lat="44.13067" lon="6.97158">
        <ele>2252.99</ele>
        <time>2018-07-05T09:11:55Z</time>
      </trkpt>
      <trkpt lat="44.13068" lon="6.97145">
        <ele>2254.43</ele>
        <time>2018-07-05T09:12:11Z</time>
      </trkpt>
      <trkpt lat="44.1307" lon="6.97133">
        <ele>2256.83</ele>
        <time>2018-07-05T09:12:30Z</time>
      </trkpt>
      <trkpt lat="44.13072" lon="6.97122">
        <ele>2258.75</ele>
        <time>2018-07-05T09:12:46Z</time>
      </trkpt>
      <trkpt lat="44.13077" lon="6.97117">
        <ele>2261.16</ele>
        <time>2018-07-05T09:13:04Z</time>
      </trkpt>
      <trkpt lat="44.13083" lon="6.97125">
        <ele>2263.08</ele>
        <time>2018-07-05T09:13:21Z</time>
      </trkpt>
      <trkpt lat="44.13089" lon="6.97134">
        <ele>2265.48</ele>
        <time>2018-07-05T09:13:38Z</time>
      </trkpt>
      <trkpt lat="44.13095" lon="6.97142">
        <ele>2267.41</ele>
        <time>2018-07-05T09:13:59Z</time>
      </trkpt>
      <trkpt lat="44.13101" lon="6.97145">
        <ele>2269.33</ele>
        <time>2018-07-05T09:15:05Z</time>
      </trkpt>
      <trkpt lat="44.13101" lon="6.97132">
        <ele>2269.81</ele>
        <time>2018-07-05T09:15:17Z</time>
      </trkpt>
      <trkpt lat="44.13103" lon="6.97117">
        <ele>2271.25</ele>
        <time>2018-07-05T09:15:31Z</time>
      </trkpt>
      <trkpt lat="44.13102" lon="6.97105">
        <ele>2273.17</ele>
        <time>2018-07-05T09:15:47Z</time>
      </trkpt>
      <trkpt lat="44.13105" lon="6.97098">
        <ele>2275.1</ele>
        <time>2018-07-05T09:17:06Z</time>
      </trkpt>
      <trkpt lat="44.13109" lon="6.97084">
        <ele>2277.02</ele>
        <time>2018-07-05T09:17:23Z</time>
      </trkpt>
      <trkpt lat="44.13111" lon="6.9707">
        <ele>2279.9</ele>
        <time>2018-07-05T09:17:40Z</time>
      </trkpt>
      <trkpt lat="44.13115" lon="6.97063">
        <ele>2281.83</ele>
        <time>2018-07-05T09:17:58Z</time>
      </trkpt>
      <trkpt lat="44.13121" lon="6.97072">
        <ele>2284.23</ele>
        <time>2018-07-05T09:18:15Z</time>
      </trkpt>
      <trkpt lat="44.13127" lon="6.9708">
        <ele>2286.15</ele>
        <time>2018-07-05T09:18:34Z</time>
      </trkpt>
      <trkpt lat="44.13134" lon="6.97086">
        <ele>2287.59</ele>
        <time>2018-07-05T09:18:51Z</time>
      </trkpt>
      <trkpt lat="44.13137" lon="6.97076">
        <ele>2289.04</ele>
        <time>2018-07-05T09:19:09Z</time>
      </trkpt>
      <trkpt lat="44.13139" lon="6.97064">
        <ele>2291.44</ele>
        <time>2018-07-05T09:19:26Z</time>
      </trkpt>
      <trkpt lat="44.13142" lon="6.97053">
        <ele>2293.84</ele>
        <time>2018-07-05T09:19:47Z</time>
      </trkpt>
      <trkpt lat="44.13144" lon="6.97041">
        <ele>2295.28</ele>
        <time>2018-07-05T09:20:03Z</time>
      </trkpt>
      <trkpt lat="44.13149" lon="6.97029">
        <ele>2297.21</ele>
        <time>2018-07-05T09:20:20Z</time>
      </trkpt>
      <trkpt lat="44.13153" lon="6.97018">
        <ele>2299.13</ele>
        <time>2018-07-05T09:20:36Z</time>
      </trkpt>
      <trkpt lat="44.1316" lon="6.97008">
        <ele>2300.09</ele>
        <time>2018-07-05T09:21:06Z</time>
      </trkpt>
      <trkpt lat="44.13165" lon="6.96998">
        <ele>2302.01</ele>
        <time>2018-07-05T09:21:19Z</time>
      </trkpt>
      <trkpt lat="44.13171" lon="6.96987">
        <ele>2303.46</ele>
        <time>2018-07-05T09:21:32Z</time>
      </trkpt>
      <trkpt lat="44.13177" lon="6.96978">
        <ele>2304.9</ele>
        <time>2018-07-05T09:21:46Z</time>
      </trkpt>
      <trkpt lat="44.13183" lon="6.96967">
        <ele>2307.3</ele>
        <time>2018-07-05T09:22:01Z</time>
      </trkpt>
      <trkpt lat="44.13187" lon="6.9697">
        <ele>2309.22</ele>
        <time>2018-07-05T09:22:17Z</time>
      </trkpt>
      <trkpt lat="44.13192" lon="6.96981">
        <ele>2311.15</ele>
        <time>2018-07-05T09:22:32Z</time>
      </trkpt>
      <trkpt lat="44.13196" lon="6.96992">
        <ele>2313.07</ele>
        <time>2018-07-05T09:22:52Z</time>
      </trkpt>
      <trkpt lat="44.13203" lon="6.96988">
        <ele>2316.43</ele>
        <time>2018-07-05T09:25:45Z</time>
      </trkpt>
      <trkpt lat="44.13207" lon="6.96975">
        <ele>2318.36</ele>
        <time>2018-07-05T09:26:02Z</time>
      </trkpt>
      <trkpt lat="44.13213" lon="6.96967">
        <ele>2319.32</ele>
        <time>2018-07-05T09:26:18Z</time>
      </trkpt>
      <trkpt lat="44.13222" lon="6.96965">
        <ele>2321.72</ele>
        <time>2018-07-05T09:26:34Z</time>
      </trkpt>
      <trkpt lat="44.13225" lon="6.96954">
        <ele>2323.64</ele>
        <time>2018-07-05T09:26:53Z</time>
      </trkpt>
      <trkpt lat="44.13225" lon="6.96942">
        <ele>2326.05</ele>
        <time>2018-07-05T09:27:11Z</time>
      </trkpt>
      <trkpt lat="44.13227" lon="6.96928">
        <ele>2327.49</ele>
        <time>2018-07-05T09:27:36Z</time>
      </trkpt>
      <trkpt lat="44.13229" lon="6.96915">
        <ele>2329.41</ele>
        <time>2018-07-05T09:27:51Z</time>
      </trkpt>
      <trkpt lat="44.13233" lon="6.96903">
        <ele>2331.81</ele>
        <time>2018-07-05T09:28:27Z</time>
      </trkpt>
      <trkpt lat="44.13241" lon="6.96905">
        <ele>2334.7</ele>
        <time>2018-07-05T09:28:44Z</time>
      </trkpt>
      <trkpt lat="44.13252" lon="6.96905">
        <ele>2336.14</ele>
        <time>2018-07-05T09:28:59Z</time>
      </trkpt>
      <trkpt lat="44.13261" lon="6.96902">
        <ele>2338.06</ele>
        <time>2018-07-05T09:29:14Z</time>
      </trkpt>
      <trkpt lat="44.13263" lon="6.96895">
        <ele>2340.95</ele>
        <time>2018-07-05T09:29:38Z</time>
      </trkpt>
      <trkpt lat="44.13264" lon="6.96884">
        <ele>2341.91</ele>
        <time>2018-07-05T09:29:56Z</time>
      </trkpt>
      <trkpt lat="44.13268" lon="6.96874">
        <ele>2344.31</ele>
        <time>2018-07-05T09:30:27Z</time>
      </trkpt>
      <trkpt lat="44.13275" lon="6.96864">
        <ele>2346.72</ele>
        <time>2018-07-05T09:30:42Z</time>
      </trkpt>
      <trkpt lat="44.1328" lon="6.96853">
        <ele>2348.64</ele>
        <time>2018-07-05T09:31:04Z</time>
      </trkpt>
      <trkpt lat="44.13283" lon="6.96841">
        <ele>2351.04</ele>
        <time>2018-07-05T09:31:21Z</time>
      </trkpt>
      <trkpt lat="44.13286" lon="6.96828">
        <ele>2353.44</ele>
        <time>2018-07-05T09:31:37Z</time>
      </trkpt>
      <trkpt lat="44.13288" lon="6.96816">
        <ele>2353.93</ele>
        <time>2018-07-05T09:31:54Z</time>
      </trkpt>
      <trkpt lat="44.13289" lon="6.96804">
        <ele>2356.81</ele>
        <time>2018-07-05T09:32:12Z</time>
      </trkpt>
      <trkpt lat="44.13291" lon="6.9679">
        <ele>2357.77</ele>
        <time>2018-07-05T09:32:31Z</time>
      </trkpt>
      <trkpt lat="44.13291" lon="6.96777">
        <ele>2359.69</ele>
        <time>2018-07-05T09:32:47Z</time>
      </trkpt>
      <trkpt lat="44.13292" lon="6.96766">
        <ele>2362.1</ele>
        <time>2018-07-05T09:33:11Z</time>
      </trkpt>
      <trkpt lat="44.13293" lon="6.96752">
        <ele>2364.02</ele>
        <time>2018-07-05T09:33:29Z</time>
      </trkpt>
      <trkpt lat="44.13293" lon="6.96738">
        <ele>2365.94</ele>
        <time>2018-07-05T09:33:56Z</time>
      </trkpt>
      <trkpt lat="44.13292" lon="6.96725">
        <ele>2368.35</ele>
        <time>2018-07-05T09:34:12Z</time>
      </trkpt>
      <trkpt lat="44.13292" lon="6.96713">
        <ele>2371.23</ele>
        <time>2018-07-05T09:34:31Z</time>
      </trkpt>
      <trkpt lat="44.13292" lon="6.96697">
        <ele>2374.11</ele>
        <time>2018-07-05T09:34:53Z</time>
      </trkpt>
      <trkpt lat="44.13293" lon="6.96681">
        <ele>2376.52</ele>
        <time>2018-07-05T09:35:13Z</time>
      </trkpt>
      <trkpt lat="44.13298" lon="6.96674">
        <ele>2379.4</ele>
        <time>2018-07-05T09:35:33Z</time>
      </trkpt>
      <trkpt lat="44.13303" lon="6.96681">
        <ele>2381.8</ele>
        <time>2018-07-05T09:35:52Z</time>
      </trkpt>
      <trkpt lat="44.1331" lon="6.96688">
        <ele>2383.25</ele>
        <time>2018-07-05T09:36:21Z</time>
      </trkpt>
      <trkpt lat="44.1332" lon="6.96692">
        <ele>2385.17</ele>
        <time>2018-07-05T09:36:37Z</time>
      </trkpt>
      <trkpt lat="44.13331" lon="6.96694">
        <ele>2388.05</ele>
        <time>2018-07-05T09:37:18Z</time>
      </trkpt>
      <trkpt lat="44.1334" lon="6.96691">
        <ele>2389.01</ele>
        <time>2018-07-05T09:37:34Z</time>
      </trkpt>
      <trkpt lat="44.13344" lon="6.96681">
        <ele>2390.94</ele>
        <time>2018-07-05T09:37:49Z</time>
      </trkpt>
      <trkpt lat="44.13343" lon="6.96669">
        <ele>2391.9</ele>
        <time>2018-07-05T09:38:05Z</time>
      </trkpt>
      <trkpt lat="44.13341" lon="6.96659">
        <ele>2393.82</ele>
        <time>2018-07-05T09:38:22Z</time>
      </trkpt>
      <trkpt lat="44.13342" lon="6.96646">
        <ele>2396.22</ele>
        <time>2018-07-05T09:38:37Z</time>
      </trkpt>
      <trkpt lat="44.13345" lon="6.96634">
        <ele>2397.67</ele>
        <time>2018-07-05T09:38:51Z</time>
      </trkpt>
      <trkpt lat="44.13352" lon="6.96623">
        <ele>2398.63</ele>
        <time>2018-07-05T09:39:05Z</time>
      </trkpt>
      <trkpt lat="44.13358" lon="6.9661">
        <ele>2400.55</ele>
        <time>2018-07-05T09:39:20Z</time>
      </trkpt>
      <trkpt lat="44.13365" lon="6.96601">
        <ele>2401.99</ele>
        <time>2018-07-05T09:39:34Z</time>
      </trkpt>
      <trkpt lat="44.13372" lon="6.96593">
        <ele>2403.43</ele>
        <time>2018-07-05T09:39:50Z</time>
      </trkpt>
      <trkpt lat="44.13382" lon="6.9659">
        <ele>2404.39</ele>
        <time>2018-07-05T09:40:04Z</time>
      </trkpt>
      <trkpt lat="44.13388" lon="6.96584">
        <ele>2406.32</ele>
        <time>2018-07-05T09:40:19Z</time>
      </trkpt>
      <trkpt lat="44.13397" lon="6.96581">
        <ele>2407.28</ele>
        <time>2018-07-05T09:40:34Z</time>
      </trkpt>
      <trkpt lat="44.13406" lon="6.96577">
        <ele>2408.24</ele>
        <time>2018-07-05T09:40:48Z</time>
      </trkpt>
      <trkpt lat="44.13413" lon="6.96572">
        <ele>2409.2</ele>
        <time>2018-07-05T09:41:16Z</time>
      </trkpt>
      <trkpt lat="44.13423" lon="6.9657">
        <ele>2411.12</ele>
        <time>2018-07-05T09:41:28Z</time>
      </trkpt>
      <trkpt lat="44.13433" lon="6.96568">
        <ele>2412.09</ele>
        <time>2018-07-05T09:41:44Z</time>
      </trkpt>
      <trkpt lat="44.13442" lon="6.96568">
        <ele>2413.53</ele>
        <time>2018-07-05T09:41:57Z</time>
      </trkpt>
      <trkpt lat="44.13451" lon="6.9657">
        <ele>2414.49</ele>
        <time>2018-07-05T09:42:09Z</time>
      </trkpt>
      <trkpt lat="44.1346" lon="6.96571">
        <ele>2416.41</ele>
        <time>2018-07-05T09:42:23Z</time>
      </trkpt>
      <trkpt lat="44.13469" lon="6.96575">
        <ele>2417.85</ele>
        <time>2018-07-05T09:42:37Z</time>
      </trkpt>
      <trkpt lat="44.13479" lon="6.96579">
        <ele>2418.81</ele>
        <time>2018-07-05T09:42:50Z</time>
      </trkpt>
      <trkpt lat="44.13487" lon="6.96583">
        <ele>2419.3</ele>
        <time>2018-07-05T09:43:01Z</time>
      </trkpt>
      <trkpt lat="44.13495" lon="6.96589">
        <ele>2419.3</ele>
        <time>2018-07-05T09:43:12Z</time>
      </trkpt>
      <trkpt lat="44.13503" lon="6.96597">
        <ele>2420.26</ele>
        <time>2018-07-05T09:43:24Z</time>
      </trkpt>
      <trkpt lat="44.13511" lon="6.96601">
        <ele>2422.18</ele>
        <time>2018-07-05T09:43:39Z</time>
      </trkpt>
      <trkpt lat="44.13521" lon="6.96606">
        <ele>2424.1</ele>
        <time>2018-07-05T09:43:53Z</time>
      </trkpt>
      <trkpt lat="44.1353" lon="6.96606">
        <ele>2425.06</ele>
        <time>2018-07-05T09:44:08Z</time>
      </trkpt>
      <trkpt lat="44.13537" lon="6.96602">
        <ele>2426.5</ele>
        <time>2018-07-05T09:44:37Z</time>
      </trkpt>
      <trkpt lat="44.13544" lon="6.96594">
        <ele>2427.47</ele>
        <time>2018-07-05T09:44:52Z</time>
      </trkpt>
      <trkpt lat="44.13552" lon="6.96586">
        <ele>2427.95</ele>
        <time>2018-07-05T09:45:03Z</time>
      </trkpt>
      <trkpt lat="44.13561" lon="6.9658">
        <ele>2428.43</ele>
        <time>2018-07-05T09:45:15Z</time>
      </trkpt>
      <trkpt lat="44.13568" lon="6.96572">
        <ele>2428.91</ele>
        <time>2018-07-05T09:45:27Z</time>
      </trkpt>
      <trkpt lat="44.13577" lon="6.96566">
        <ele>2430.83</ele>
        <time>2018-07-05T09:45:41Z</time>
      </trkpt>
      <trkpt lat="44.13585" lon="6.96559">
        <ele>2431.31</ele>
        <time>2018-07-05T09:45:53Z</time>
      </trkpt>
      <trkpt lat="44.13593" lon="6.96552">
        <ele>2432.27</ele>
        <time>2018-07-05T09:46:05Z</time>
      </trkpt>
      <trkpt lat="44.13602" lon="6.96547">
        <ele>2432.75</ele>
        <time>2018-07-05T09:46:16Z</time>
      </trkpt>
      <trkpt lat="44.13611" lon="6.96542">
        <ele>2433.23</ele>
        <time>2018-07-05T09:46:27Z</time>
      </trkpt>
      <trkpt lat="44.1362" lon="6.96535">
        <ele>2433.23</ele>
        <time>2018-07-05T09:46:38Z</time>
      </trkpt>
      <trkpt lat="44.13629" lon="6.9653">
        <ele>2432.75</ele>
        <time>2018-07-05T09:46:55Z</time>
      </trkpt>
      <trkpt lat="44.13636" lon="6.96521">
        <ele>2433.23</ele>
        <time>2018-07-05T09:47:06Z</time>
      </trkpt>
      <trkpt lat="44.13644" lon="6.96513">
        <ele>2433.23</ele>
        <time>2018-07-05T09:47:16Z</time>
      </trkpt>
      <trkpt lat="44.13653" lon="6.96508">
        <ele>2433.23</ele>
        <time>2018-07-05T09:47:27Z</time>
      </trkpt>
      <trkpt lat="44.13663" lon="6.96508">
        <ele>2434.2</ele>
        <time>2018-07-05T09:47:41Z</time>
      </trkpt>
      <trkpt lat="44.13671" lon="6.96515">
        <ele>2435.64</ele>
        <time>2018-07-05T09:47:57Z</time>
      </trkpt>
      <trkpt lat="44.1368" lon="6.96519">
        <ele>2438.04</ele>
        <time>2018-07-05T09:48:15Z</time>
      </trkpt>
      <trkpt lat="44.13688" lon="6.96526">
        <ele>2439</ele>
        <time>2018-07-05T09:48:31Z</time>
      </trkpt>
      <trkpt lat="44.13696" lon="6.96531">
        <ele>2441.89</ele>
        <time>2018-07-05T09:48:51Z</time>
      </trkpt>
      <trkpt lat="44.13704" lon="6.96536">
        <ele>2444.29</ele>
        <time>2018-07-05T09:49:09Z</time>
      </trkpt>
      <trkpt lat="44.13713" lon="6.96539">
        <ele>2445.73</ele>
        <time>2018-07-05T09:49:26Z</time>
      </trkpt>
      <trkpt lat="44.13721" lon="6.96539">
        <ele>2446.69</ele>
        <time>2018-07-05T09:49:42Z</time>
      </trkpt>
      <trkpt lat="44.13732" lon="6.96536">
        <ele>2447.17</ele>
        <time>2018-07-05T09:50:24Z</time>
      </trkpt>
      <trkpt lat="44.1374" lon="6.96526">
        <ele>2447.65</ele>
        <time>2018-07-05T09:50:47Z</time>
      </trkpt>
      <trkpt lat="44.13747" lon="6.96519">
        <ele>2448.13</ele>
        <time>2018-07-05T09:50:59Z</time>
      </trkpt>
      <trkpt lat="44.13752" lon="6.96516">
        <ele>2448.62</ele>
        <time>2018-07-05T09:53:04Z</time>
      </trkpt>
      <trkpt lat="44.13759" lon="6.96508">
        <ele>2448.62</ele>
        <time>2018-07-05T09:53:15Z</time>
      </trkpt>
      <trkpt lat="44.13767" lon="6.965">
        <ele>2447.65</ele>
        <time>2018-07-05T09:53:26Z</time>
      </trkpt>
      <trkpt lat="44.13776" lon="6.96494">
        <ele>2447.65</ele>
        <time>2018-07-05T09:53:37Z</time>
      </trkpt>
      <trkpt lat="44.13785" lon="6.9649">
        <ele>2446.69</ele>
        <time>2018-07-05T09:53:48Z</time>
      </trkpt>
      <trkpt lat="44.13794" lon="6.96484">
        <ele>2446.21</ele>
        <time>2018-07-05T09:54:00Z</time>
      </trkpt>
      <trkpt lat="44.13804" lon="6.96482">
        <ele>2445.25</ele>
        <time>2018-07-05T09:54:12Z</time>
      </trkpt>
      <trkpt lat="44.13812" lon="6.96477">
        <ele>2444.29</ele>
        <time>2018-07-05T09:54:23Z</time>
      </trkpt>
      <trkpt lat="44.13821" lon="6.96472">
        <ele>2443.33</ele>
        <time>2018-07-05T09:54:36Z</time>
      </trkpt>
      <trkpt lat="44.1383" lon="6.96467">
        <ele>2442.85</ele>
        <time>2018-07-05T09:54:49Z</time>
      </trkpt>
      <trkpt lat="44.13837" lon="6.96462">
        <ele>2441.89</ele>
        <time>2018-07-05T09:55:09Z</time>
      </trkpt>
      <trkpt lat="44.13845" lon="6.96454">
        <ele>2441.41</ele>
        <time>2018-07-05T09:55:20Z</time>
      </trkpt>
      <trkpt lat="44.13855" lon="6.9645">
        <ele>2440.44</ele>
        <time>2018-07-05T09:55:33Z</time>
      </trkpt>
      <trkpt lat="44.13858" lon="6.96449">
        <ele>2441.89</ele>
        <time>2018-07-05T09:57:17Z</time>
      </trkpt>
      <trkpt lat="44.13862" lon="6.96438">
        <ele>2441.89</ele>
        <time>2018-07-05T09:57:30Z</time>
      </trkpt>
      <trkpt lat="44.13865" lon="6.96426">
        <ele>2441.89</ele>
        <time>2018-07-05T09:57:54Z</time>
      </trkpt>
      <trkpt lat="44.13868" lon="6.96414">
        <ele>2441.89</ele>
        <time>2018-07-05T09:58:06Z</time>
      </trkpt>
      <trkpt lat="44.13872" lon="6.96402">
        <ele>2441.89</ele>
        <time>2018-07-05T09:58:19Z</time>
      </trkpt>
      <trkpt lat="44.13876" lon="6.96388">
        <ele>2442.37</ele>
        <time>2018-07-05T09:58:30Z</time>
      </trkpt>
      <trkpt lat="44.1388" lon="6.96375">
        <ele>2442.37</ele>
        <time>2018-07-05T09:58:40Z</time>
      </trkpt>
      <trkpt lat="44.13883" lon="6.96362">
        <ele>2442.37</ele>
        <time>2018-07-05T09:58:51Z</time>
      </trkpt>
      <trkpt lat="44.13889" lon="6.96352">
        <ele>2442.37</ele>
        <time>2018-07-05T09:59:01Z</time>
      </trkpt>
      <trkpt lat="44.13894" lon="6.96341">
        <ele>2442.37</ele>
        <time>2018-07-05T09:59:10Z</time>
      </trkpt>
      <trkpt lat="44.139" lon="6.9633">
        <ele>2440.92</ele>
        <time>2018-07-05T09:59:19Z</time>
      </trkpt>
      <trkpt lat="44.13907" lon="6.9632">
        <ele>2440.44</ele>
        <time>2018-07-05T09:59:28Z</time>
      </trkpt>
      <trkpt lat="44.13912" lon="6.9631">
        <ele>2439.96</ele>
        <time>2018-07-05T09:59:37Z</time>
      </trkpt>
      <trkpt lat="44.13914" lon="6.96297">
        <ele>2439.96</ele>
        <time>2018-07-05T09:59:47Z</time>
      </trkpt>
      <trkpt lat="44.13915" lon="6.96284">
        <ele>2439.48</ele>
        <time>2018-07-05T09:59:56Z</time>
      </trkpt>
      <trkpt lat="44.13921" lon="6.96275">
        <ele>2439.48</ele>
        <time>2018-07-05T10:00:05Z</time>
      </trkpt>
      <trkpt lat="44.13926" lon="6.96264">
        <ele>2439.48</ele>
        <time>2018-07-05T10:00:14Z</time>
      </trkpt>
      <trkpt lat="44.13929" lon="6.96251">
        <ele>2439</ele>
        <time>2018-07-05T10:00:23Z</time>
      </trkpt>
      <trkpt lat="44.13934" lon="6.96239">
        <ele>2437.56</ele>
        <time>2018-07-05T10:00:35Z</time>
      </trkpt>
      <trkpt lat="44.13938" lon="6.96227">
        <ele>2437.56</ele>
        <time>2018-07-05T10:00:44Z</time>
      </trkpt>
      <trkpt lat="44.1394" lon="6.96215">
        <ele>2437.56</ele>
        <time>2018-07-05T10:01:22Z</time>
      </trkpt>
      <trkpt lat="44.13945" lon="6.96203">
        <ele>2437.56</ele>
        <time>2018-07-05T10:01:50Z</time>
      </trkpt>
      <trkpt lat="44.13949" lon="6.96192">
        <ele>2437.56</ele>
        <time>2018-07-05T10:01:59Z</time>
      </trkpt>
      <trkpt lat="44.13953" lon="6.96181">
        <ele>2437.08</ele>
        <time>2018-07-05T10:02:07Z</time>
      </trkpt>
      <trkpt lat="44.13956" lon="6.96169">
        <ele>2436.6</ele>
        <time>2018-07-05T10:02:16Z</time>
      </trkpt>
      <trkpt lat="44.13961" lon="6.96157">
        <ele>2436.12</ele>
        <time>2018-07-05T10:02:25Z</time>
      </trkpt>
      <trkpt lat="44.13966" lon="6.96146">
        <ele>2436.12</ele>
        <time>2018-07-05T10:02:33Z</time>
      </trkpt>
      <trkpt lat="44.13969" lon="6.96134">
        <ele>2436.12</ele>
        <time>2018-07-05T10:02:41Z</time>
      </trkpt>
      <trkpt lat="44.13973" lon="6.96121">
        <ele>2437.56</ele>
        <time>2018-07-05T10:02:50Z</time>
      </trkpt>
      <trkpt lat="44.13979" lon="6.96111">
        <ele>2437.56</ele>
        <time>2018-07-05T10:02:58Z</time>
      </trkpt>
      <trkpt lat="44.13983" lon="6.96098">
        <ele>2437.56</ele>
        <time>2018-07-05T10:03:07Z</time>
      </trkpt>
      <trkpt lat="44.13987" lon="6.96087">
        <ele>2436.6</ele>
        <time>2018-07-05T10:03:15Z</time>
      </trkpt>
      <trkpt lat="44.13992" lon="6.96075">
        <ele>2436.6</ele>
        <time>2018-07-05T10:03:24Z</time>
      </trkpt>
      <trkpt lat="44.13997" lon="6.96064">
        <ele>2435.64</ele>
        <time>2018-07-05T10:03:33Z</time>
      </trkpt>
      <trkpt lat="44.14002" lon="6.96052">
        <ele>2437.08</ele>
        <time>2018-07-05T10:03:42Z</time>
      </trkpt>
      <trkpt lat="44.14006" lon="6.9604">
        <ele>2437.08</ele>
        <time>2018-07-05T10:03:50Z</time>
      </trkpt>
      <trkpt lat="44.14009" lon="6.96028">
        <ele>2438.04</ele>
        <time>2018-07-05T10:03:59Z</time>
      </trkpt>
      <trkpt lat="44.14015" lon="6.96016">
        <ele>2438.52</ele>
        <time>2018-07-05T10:04:09Z</time>
      </trkpt>
      <trkpt lat="44.14019" lon="6.96004">
        <ele>2439</ele>
        <time>2018-07-05T10:04:19Z</time>
      </trkpt>
      <trkpt lat="44.14022" lon="6.9599">
        <ele>2439</ele>
        <time>2018-07-05T10:04:29Z</time>
      </trkpt>
      <trkpt lat="44.14026" lon="6.95977">
        <ele>2439.48</ele>
        <time>2018-07-05T10:04:39Z</time>
      </trkpt>
      <trkpt lat="44.14029" lon="6.95964">
        <ele>2439.48</ele>
        <time>2018-07-05T10:04:48Z</time>
      </trkpt>
      <trkpt lat="44.14037" lon="6.95957">
        <ele>2439.48</ele>
        <time>2018-07-05T10:04:58Z</time>
      </trkpt>
      <trkpt lat="44.14044" lon="6.95946">
        <ele>2439.48</ele>
        <time>2018-07-05T10:05:07Z</time>
      </trkpt>
      <trkpt lat="44.1405" lon="6.95936">
        <ele>2439.48</ele>
        <time>2018-07-05T10:05:15Z</time>
      </trkpt>
      <trkpt lat="44.14055" lon="6.95924">
        <ele>2439.48</ele>
        <time>2018-07-05T10:05:24Z</time>
      </trkpt>
      <trkpt lat="44.1406" lon="6.95914">
        <ele>2439.48</ele>
        <time>2018-07-05T10:05:32Z</time>
      </trkpt>
      <trkpt lat="44.14066" lon="6.95904">
        <ele>2438.04</ele>
        <time>2018-07-05T10:05:41Z</time>
      </trkpt>
      <trkpt lat="44.14071" lon="6.95892">
        <ele>2437.56</ele>
        <time>2018-07-05T10:05:50Z</time>
      </trkpt>
      <trkpt lat="44.14074" lon="6.95879">
        <ele>2437.56</ele>
        <time>2018-07-05T10:05:59Z</time>
      </trkpt>
      <trkpt lat="44.14081" lon="6.95869">
        <ele>2437.56</ele>
        <time>2018-07-05T10:06:08Z</time>
      </trkpt>
      <trkpt lat="44.14088" lon="6.95859">
        <ele>2437.08</ele>
        <time>2018-07-05T10:06:17Z</time>
      </trkpt>
      <trkpt lat="44.14095" lon="6.95847">
        <ele>2437.08</ele>
        <time>2018-07-05T10:06:26Z</time>
      </trkpt>
      <trkpt lat="44.14099" lon="6.95836">
        <ele>2438.52</ele>
        <time>2018-07-05T10:06:56Z</time>
      </trkpt>
      <trkpt lat="44.14102" lon="6.95829">
        <ele>2437.56</ele>
        <time>2018-07-05T10:09:57Z</time>
      </trkpt>
      <trkpt lat="44.14108" lon="6.95819">
        <ele>2438.52</ele>
        <time>2018-07-05T10:10:06Z</time>
      </trkpt>
      <trkpt lat="44.14114" lon="6.95809">
        <ele>2439.96</ele>
        <time>2018-07-05T10:10:15Z</time>
      </trkpt>
      <trkpt lat="44.1412" lon="6.95799">
        <ele>2440.92</ele>
        <time>2018-07-05T10:10:24Z</time>
      </trkpt>
      <trkpt lat="44.14125" lon="6.95787">
        <ele>2442.37</ele>
        <time>2018-07-05T10:10:34Z</time>
      </trkpt>
      <trkpt lat="44.1413" lon="6.95776">
        <ele>2443.81</ele>
        <time>2018-07-05T10:10:44Z</time>
      </trkpt>
      <trkpt lat="44.14135" lon="6.95765">
        <ele>2445.25</ele>
        <time>2018-07-05T10:10:54Z</time>
      </trkpt>
      <trkpt lat="44.14141" lon="6.95753">
        <ele>2445.73</ele>
        <time>2018-07-05T10:11:05Z</time>
      </trkpt>
      <trkpt lat="44.14147" lon="6.95743">
        <ele>2447.65</ele>
        <time>2018-07-05T10:11:16Z</time>
      </trkpt>
      <trkpt lat="44.14152" lon="6.95732">
        <ele>2449.58</ele>
        <time>2018-07-05T10:11:30Z</time>
      </trkpt>
      <trkpt lat="44.14157" lon="6.95722">
        <ele>2451.5</ele>
        <time>2018-07-05T10:11:52Z</time>
      </trkpt>
      <trkpt lat="44.14158" lon="6.95711">
        <ele>2454.38</ele>
        <time>2018-07-05T10:12:10Z</time>
      </trkpt>
      <trkpt lat="44.14161" lon="6.95699">
        <ele>2456.31</ele>
        <time>2018-07-05T10:12:27Z</time>
      </trkpt>
      <trkpt lat="44.14167" lon="6.9569">
        <ele>2457.75</ele>
        <time>2018-07-05T10:12:45Z</time>
      </trkpt>
      <trkpt lat="44.14174" lon="6.9568">
        <ele>2459.67</ele>
        <time>2018-07-05T10:13:02Z</time>
      </trkpt>
      <trkpt lat="44.1418" lon="6.95671">
        <ele>2461.59</ele>
        <time>2018-07-05T10:13:37Z</time>
      </trkpt>
      <trkpt lat="44.14186" lon="6.95662">
        <ele>2464.48</ele>
        <time>2018-07-05T10:13:56Z</time>
      </trkpt>
      <trkpt lat="44.14192" lon="6.95652">
        <ele>2466.88</ele>
        <time>2018-07-05T10:14:14Z</time>
      </trkpt>
      <trkpt lat="44.14195" lon="6.95641">
        <ele>2468.8</ele>
        <time>2018-07-05T10:14:31Z</time>
      </trkpt>
      <trkpt lat="44.14201" lon="6.95632">
        <ele>2470.73</ele>
        <time>2018-07-05T10:14:47Z</time>
      </trkpt>
      <trkpt lat="44.14206" lon="6.9562">
        <ele>2473.13</ele>
        <time>2018-07-05T10:15:04Z</time>
      </trkpt>
      <trkpt lat="44.14212" lon="6.9561">
        <ele>2475.53</ele>
        <time>2018-07-05T10:15:23Z</time>
      </trkpt>
      <trkpt lat="44.14217" lon="6.956">
        <ele>2477.45</ele>
        <time>2018-07-05T10:15:42Z</time>
      </trkpt>
      <trkpt lat="44.14225" lon="6.95588">
        <ele>2479.86</ele>
        <time>2018-07-05T10:16:30Z</time>
      </trkpt>
      <trkpt lat="44.14229" lon="6.95574">
        <ele>2483.22</ele>
        <time>2018-07-05T10:16:50Z</time>
      </trkpt>
      <trkpt lat="44.14234" lon="6.95562">
        <ele>2486.11</ele>
        <time>2018-07-05T10:17:11Z</time>
      </trkpt>
      <trkpt lat="44.14238" lon="6.95551">
        <ele>2489.47</ele>
        <time>2018-07-05T10:17:33Z</time>
      </trkpt>
      <trkpt lat="44.14247" lon="6.95541">
        <ele>2490.91</ele>
        <time>2018-07-05T10:18:34Z</time>
      </trkpt>
      <trkpt lat="44.14253" lon="6.95531">
        <ele>2493.8</ele>
        <time>2018-07-05T10:18:50Z</time>
      </trkpt>
      <trkpt lat="44.14259" lon="6.95521">
        <ele>2495.24</ele>
        <time>2018-07-05T10:19:07Z</time>
      </trkpt>
      <trkpt lat="44.14267" lon="6.95512">
        <ele>2497.64</ele>
        <time>2018-07-05T10:19:23Z</time>
      </trkpt>
      <trkpt lat="44.14273" lon="6.95501">
        <ele>2499.57</ele>
        <time>2018-07-05T10:19:39Z</time>
      </trkpt>
      <trkpt lat="44.14279" lon="6.9549">
        <ele>2500.53</ele>
        <time>2018-07-05T10:19:56Z</time>
      </trkpt>
      <trkpt lat="44.14285" lon="6.9548">
        <ele>2502.93</ele>
        <time>2018-07-05T10:20:14Z</time>
      </trkpt>
      <trkpt lat="44.14295" lon="6.95477">
        <ele>2504.85</ele>
        <time>2018-07-05T10:20:45Z</time>
      </trkpt>
      <trkpt lat="44.14303" lon="6.95471">
        <ele>2506.29</ele>
        <time>2018-07-05T10:21:01Z</time>
      </trkpt>
      <trkpt lat="44.1431" lon="6.95462">
        <ele>2508.22</ele>
        <time>2018-07-05T10:21:17Z</time>
      </trkpt>
      <trkpt lat="44.14319" lon="6.95456">
        <ele>2509.66</ele>
        <time>2018-07-05T10:21:36Z</time>
      </trkpt>
      <trkpt lat="44.14317" lon="6.95445">
        <ele>2511.58</ele>
        <time>2018-07-05T10:21:54Z</time>
      </trkpt>
      <trkpt lat="44.14309" lon="6.95444">
        <ele>2513.98</ele>
        <time>2018-07-05T10:22:11Z</time>
      </trkpt>
      <trkpt lat="44.14316" lon="6.95433">
        <ele>2515.91</ele>
        <time>2018-07-05T10:22:30Z</time>
      </trkpt>
      <trkpt lat="44.14325" lon="6.95427">
        <ele>2517.35</ele>
        <time>2018-07-05T10:22:48Z</time>
      </trkpt>
      <trkpt lat="44.14333" lon="6.95422">
        <ele>2519.27</ele>
        <time>2018-07-05T10:23:05Z</time>
      </trkpt>
      <trkpt lat="44.14341" lon="6.95416">
        <ele>2521.19</ele>
        <time>2018-07-05T10:23:23Z</time>
      </trkpt>
      <trkpt lat="44.14351" lon="6.95414">
        <ele>2523.12</ele>
        <time>2018-07-05T10:23:54Z</time>
      </trkpt>
      <trkpt lat="44.14359" lon="6.95408">
        <ele>2526</ele>
        <time>2018-07-05T10:24:13Z</time>
      </trkpt>
      <trkpt lat="44.14371" lon="6.95401">
        <ele>2528.4</ele>
        <time>2018-07-05T10:25:07Z</time>
      </trkpt>
      <trkpt lat="44.14374" lon="6.9539">
        <ele>2531.77</ele>
        <time>2018-07-05T10:25:29Z</time>
      </trkpt>
      <trkpt lat="44.14381" lon="6.95384">
        <ele>2535.13</ele>
        <time>2018-07-05T10:25:46Z</time>
      </trkpt>
      <trkpt lat="44.14389" lon="6.95379">
        <ele>2537.06</ele>
        <time>2018-07-05T10:26:04Z</time>
      </trkpt>
      <trkpt lat="44.14398" lon="6.95373">
        <ele>2539.94</ele>
        <time>2018-07-05T10:26:32Z</time>
      </trkpt>
      <trkpt lat="44.14403" lon="6.95365">
        <ele>2542.82</ele>
        <time>2018-07-05T10:27:51Z</time>
      </trkpt>
      <trkpt lat="44.14413" lon="6.95359">
        <ele>2546.67</ele>
        <time>2018-07-05T10:28:17Z</time>
      </trkpt>
      <trkpt lat="44.14424" lon="6.95354">
        <ele>2549.55</ele>
        <time>2018-07-05T10:28:36Z</time>
      </trkpt>
      <trkpt lat="44.14433" lon="6.95352">
        <ele>2551.96</ele>
        <time>2018-07-05T10:28:54Z</time>
      </trkpt>
      <trkpt lat="44.14444" lon="6.9535">
        <ele>2552.92</ele>
        <time>2018-07-05T10:29:09Z</time>
      </trkpt>
      <trkpt lat="44.14455" lon="6.95346">
        <ele>2555.32</ele>
        <time>2018-07-05T10:29:36Z</time>
      </trkpt>
      <trkpt lat="44.14464" lon="6.95342">
        <ele>2557.24</ele>
        <time>2018-07-05T10:30:21Z</time>
      </trkpt>
      <trkpt lat="44.14475" lon="6.95339">
        <ele>2560.13</ele>
        <time>2018-07-05T10:30:39Z</time>
      </trkpt>
      <trkpt lat="44.14488" lon="6.95338">
        <ele>2561.57</ele>
        <time>2018-07-05T10:31:02Z</time>
      </trkpt>
      <trkpt lat="44.14499" lon="6.95338">
        <ele>2563.49</ele>
        <time>2018-07-05T10:31:24Z</time>
      </trkpt>
      <trkpt lat="44.14512" lon="6.95335">
        <ele>2566.38</ele>
        <time>2018-07-05T10:32:05Z</time>
      </trkpt>
      <trkpt lat="44.14525" lon="6.95334">
        <ele>2568.78</ele>
        <time>2018-07-05T10:32:40Z</time>
      </trkpt>
      <trkpt lat="44.14537" lon="6.95334">
        <ele>2571.18</ele>
        <time>2018-07-05T10:33:12Z</time>
      </trkpt>
      <trkpt lat="44.14548" lon="6.95333">
        <ele>2573.59</ele>
        <time>2018-07-05T10:33:33Z</time>
      </trkpt>
      <trkpt lat="44.14559" lon="6.95337">
        <ele>2575.03</ele>
        <time>2018-07-05T10:35:24Z</time>
      </trkpt>
      <trkpt lat="44.14569" lon="6.95335">
        <ele>2578.39</ele>
        <time>2018-07-05T10:35:51Z</time>
      </trkpt>
      <trkpt lat="44.1458" lon="6.95337">
        <ele>2579.84</ele>
        <time>2018-07-05T10:36:12Z</time>
      </trkpt>
      <trkpt lat="44.14591" lon="6.95337">
        <ele>2582.24</ele>
        <time>2018-07-05T10:36:33Z</time>
      </trkpt>
      <trkpt lat="44.14604" lon="6.95339">
        <ele>2585.12</ele>
        <time>2018-07-05T10:37:12Z</time>
      </trkpt>
      <trkpt lat="44.14617" lon="6.95341">
        <ele>2587.53</ele>
        <time>2018-07-05T10:37:50Z</time>
      </trkpt>
      <trkpt lat="44.14629" lon="6.95339">
        <ele>2590.89</ele>
        <time>2018-07-05T10:39:27Z</time>
      </trkpt>
      <trkpt lat="44.14641" lon="6.95342">
        <ele>2592.81</ele>
        <time>2018-07-05T10:39:48Z</time>
      </trkpt>
      <trkpt lat="44.14637" lon="6.95337">
        <ele>2595.7</ele>
        <time>2018-07-05T10:41:21Z</time>
      </trkpt>
      <trkpt lat="44.14647" lon="6.95338">
        <ele>2596.18</ele>
        <time>2018-07-05T10:45:59Z</time>
      </trkpt>
      <trkpt lat="44.14657" lon="6.95342">
        <ele>2597.14</ele>
        <time>2018-07-05T10:46:13Z</time>
      </trkpt>
      <trkpt lat="44.14666" lon="6.95347">
        <ele>2598.1</ele>
        <time>2018-07-05T10:46:26Z</time>
      </trkpt>
      <trkpt lat="44.14674" lon="6.95345">
        <ele>2598.58</ele>
        <time>2018-07-05T10:46:38Z</time>
      </trkpt>
      <trkpt lat="44.14684" lon="6.95345">
        <ele>2599.06</ele>
        <time>2018-07-05T10:46:49Z</time>
      </trkpt>
      <trkpt lat="44.14686" lon="6.95352">
        <ele>2601.95</ele>
        <time>2018-07-05T10:47:05Z</time>
      </trkpt>
      <trkpt lat="44.14688" lon="6.95361">
        <ele>2603.39</ele>
        <time>2018-07-05T10:47:20Z</time>
      </trkpt>
      <trkpt lat="44.14697" lon="6.95357">
        <ele>2605.79</ele>
        <time>2018-07-05T10:47:37Z</time>
      </trkpt>
      <trkpt lat="44.14707" lon="6.95358">
        <ele>2606.75</ele>
        <time>2018-07-05T10:47:52Z</time>
      </trkpt>
      <trkpt lat="44.14717" lon="6.95358">
        <ele>2608.67</ele>
        <time>2018-07-05T10:48:08Z</time>
      </trkpt>
      <trkpt lat="44.14727" lon="6.95359">
        <ele>2611.56</ele>
        <time>2018-07-05T10:48:36Z</time>
      </trkpt>
      <trkpt lat="44.14722" lon="6.95369">
        <ele>2613.96</ele>
        <time>2018-07-05T10:48:54Z</time>
      </trkpt>
      <trkpt lat="44.14728" lon="6.9537">
        <ele>2615.88</ele>
        <time>2018-07-05T10:49:13Z</time>
      </trkpt>
      <trkpt lat="44.1474" lon="6.95369">
        <ele>2617.81</ele>
        <time>2018-07-05T10:49:47Z</time>
      </trkpt>
      <trkpt lat="44.14743" lon="6.95375">
        <ele>2619.73</ele>
        <time>2018-07-05T10:50:03Z</time>
      </trkpt>
      <trkpt lat="44.14743" lon="6.9538">
        <ele>2621.65</ele>
        <time>2018-07-05T10:50:21Z</time>
      </trkpt>
      <trkpt lat="44.14752" lon="6.95379">
        <ele>2624.06</ele>
        <time>2018-07-05T10:50:40Z</time>
      </trkpt>
      <trkpt lat="44.14752" lon="6.95387">
        <ele>2626.46</ele>
        <time>2018-07-05T10:51:13Z</time>
      </trkpt>
      <trkpt lat="44.1476" lon="6.9539">
        <ele>2630.3</ele>
        <time>2018-07-05T10:51:34Z</time>
      </trkpt>
      <trkpt lat="44.14765" lon="6.95391">
        <ele>2631.75</ele>
        <time>2018-07-05T10:51:51Z</time>
      </trkpt>
      <trkpt lat="44.14772" lon="6.95395">
        <ele>2634.15</ele>
        <time>2018-07-05T10:52:11Z</time>
      </trkpt>
      <trkpt lat="44.14776" lon="6.95401">
        <ele>2636.07</ele>
        <time>2018-07-05T10:52:28Z</time>
      </trkpt>
      <trkpt lat="44.14784" lon="6.95409">
        <ele>2637.99</ele>
        <time>2018-07-05T10:53:06Z</time>
      </trkpt>
      <trkpt lat="44.1479" lon="6.9542">
        <ele>2639.92</ele>
        <time>2018-07-05T10:53:21Z</time>
      </trkpt>
      <trkpt lat="44.14798" lon="6.95429">
        <ele>2641.36</ele>
        <time>2018-07-05T10:53:36Z</time>
      </trkpt>
      <trkpt lat="44.14805" lon="6.9544">
        <ele>2642.8</ele>
        <time>2018-07-05T10:53:50Z</time>
      </trkpt>
      <trkpt lat="44.14808" lon="6.95452">
        <ele>2643.76</ele>
        <time>2018-07-05T10:54:02Z</time>
      </trkpt>
      <trkpt lat="44.14811" lon="6.95466">
        <ele>2644.24</ele>
        <time>2018-07-05T10:54:14Z</time>
      </trkpt>
      <trkpt lat="44.14814" lon="6.95479">
        <ele>2644.72</ele>
        <time>2018-07-05T10:54:26Z</time>
      </trkpt>
      <trkpt lat="44.14817" lon="6.95492">
        <ele>2645.21</ele>
        <time>2018-07-05T10:54:37Z</time>
      </trkpt>
      <trkpt lat="44.1482" lon="6.95505">
        <ele>2645.21</ele>
        <time>2018-07-05T10:54:49Z</time>
      </trkpt>
      <trkpt lat="44.14823" lon="6.95517">
        <ele>2643.76</ele>
        <time>2018-07-05T10:55:00Z</time>
      </trkpt>
      <trkpt lat="44.14827" lon="6.95528">
        <ele>2643.76</ele>
        <time>2018-07-05T10:55:11Z</time>
      </trkpt>
      <trkpt lat="44.14832" lon="6.95539">
        <ele>2643.76</ele>
        <time>2018-07-05T10:55:22Z</time>
      </trkpt>
      <trkpt lat="44.14837" lon="6.9555">
        <ele>2643.28</ele>
        <time>2018-07-05T10:55:33Z</time>
      </trkpt>
      <trkpt lat="44.14844" lon="6.9556">
        <ele>2642.8</ele>
        <time>2018-07-05T10:55:44Z</time>
      </trkpt>
      <trkpt lat="44.1485" lon="6.95569">
        <ele>2640.88</ele>
        <time>2018-07-05T10:55:54Z</time>
      </trkpt>
      <trkpt lat="44.14857" lon="6.95579">
        <ele>2640.4</ele>
        <time>2018-07-05T10:56:04Z</time>
      </trkpt>
      <trkpt lat="44.14864" lon="6.95588">
        <ele>2639.44</ele>
        <time>2018-07-05T10:56:12Z</time>
      </trkpt>
      <trkpt lat="44.14868" lon="6.95599">
        <ele>2638.96</ele>
        <time>2018-07-05T10:56:21Z</time>
      </trkpt>
      <trkpt lat="44.14872" lon="6.9561">
        <ele>2638.96</ele>
        <time>2018-07-05T10:56:30Z</time>
      </trkpt>
      <trkpt lat="44.14875" lon="6.95622">
        <ele>2640.4</ele>
        <time>2018-07-05T10:56:39Z</time>
      </trkpt>
      <trkpt lat="44.14878" lon="6.95636">
        <ele>2641.84</ele>
        <time>2018-07-05T10:56:49Z</time>
      </trkpt>
      <trkpt lat="44.14881" lon="6.95649">
        <ele>2642.8</ele>
        <time>2018-07-05T10:57:00Z</time>
      </trkpt>
      <trkpt lat="44.14878" lon="6.95662">
        <ele>2643.76</ele>
        <time>2018-07-05T10:57:11Z</time>
      </trkpt>
      <trkpt lat="44.14875" lon="6.95675">
        <ele>2644.72</ele>
        <time>2018-07-05T10:57:23Z</time>
      </trkpt>
      <trkpt lat="44.14872" lon="6.95689">
        <ele>2646.17</ele>
        <time>2018-07-05T10:57:35Z</time>
      </trkpt>
      <trkpt lat="44.1487" lon="6.95702">
        <ele>2648.09</ele>
        <time>2018-07-05T10:57:50Z</time>
      </trkpt>
      <trkpt lat="44.14879" lon="6.95712">
        <ele>2649.53</ele>
        <time>2018-07-05T10:58:54Z</time>
      </trkpt>
      <trkpt lat="44.14887" lon="6.95722">
        <ele>2651.93</ele>
        <time>2018-07-05T10:59:11Z</time>
      </trkpt>
      <trkpt lat="44.14895" lon="6.95732">
        <ele>2653.38</ele>
        <time>2018-07-05T10:59:27Z</time>
      </trkpt>
      <trkpt lat="44.14902" lon="6.95743">
        <ele>2655.3</ele>
        <time>2018-07-05T10:59:43Z</time>
      </trkpt>
      <trkpt lat="44.1491" lon="6.95753">
        <ele>2657.22</ele>
        <time>2018-07-05T11:00:02Z</time>
      </trkpt>
      <trkpt lat="44.14919" lon="6.95762">
        <ele>2659.62</ele>
        <time>2018-07-05T11:00:18Z</time>
      </trkpt>
      <trkpt lat="44.14927" lon="6.95771">
        <ele>2661.07</ele>
        <time>2018-07-05T11:00:35Z</time>
      </trkpt>
      <trkpt lat="44.14935" lon="6.9578">
        <ele>2662.99</ele>
        <time>2018-07-05T11:00:51Z</time>
      </trkpt>
      <trkpt lat="44.14943" lon="6.95788">
        <ele>2664.43</ele>
        <time>2018-07-05T11:01:08Z</time>
      </trkpt>
      <trkpt lat="44.1495" lon="6.95798">
        <ele>2666.35</ele>
        <time>2018-07-05T11:01:26Z</time>
      </trkpt>
      <trkpt lat="44.14958" lon="6.95804">
        <ele>2666.83</ele>
        <time>2018-07-05T11:01:41Z</time>
      </trkpt>
      <trkpt lat="44.14952" lon="6.95808">
        <ele>2670.2</ele>
        <time>2018-07-05T11:02:01Z</time>
      </trkpt>
      <trkpt lat="44.14942" lon="6.95809">
        <ele>2673.08</ele>
        <time>2018-07-05T11:02:18Z</time>
      </trkpt>
      <trkpt lat="44.14933" lon="6.95809">
        <ele>2674.52</ele>
        <time>2018-07-05T11:02:36Z</time>
      </trkpt>
      <trkpt lat="44.14923" lon="6.95811">
        <ele>2677.41</ele>
        <time>2018-07-05T11:02:54Z</time>
      </trkpt>
      <trkpt lat="44.14914" lon="6.9581">
        <ele>2679.81</ele>
        <time>2018-07-05T11:03:21Z</time>
      </trkpt>
      <trkpt lat="44.14905" lon="6.95811">
        <ele>2679.81</ele>
        <time>2018-07-05T11:03:39Z</time>
      </trkpt>
      <trkpt lat="44.14896" lon="6.95814">
        <ele>2685.58</ele>
        <time>2018-07-05T11:03:57Z</time>
      </trkpt>
      <trkpt lat="44.14886" lon="6.95816">
        <ele>2685.58</ele>
        <time>2018-07-05T11:04:16Z</time>
      </trkpt>
      <trkpt lat="44.14884" lon="6.9582">
        <ele>2687.5</ele>
        <time>2018-07-05T11:06:57Z</time>
      </trkpt>
      <trkpt lat="44.14889" lon="6.9583">
        <ele>2690.87</ele>
        <time>2018-07-05T11:07:47Z</time>
      </trkpt>
      <trkpt lat="44.14905" lon="6.95848">
        <ele>2694.23</ele>
        <time>2018-07-05T11:08:23Z</time>
      </trkpt>
      <trkpt lat="44.14941" lon="6.95901">
        <ele>2704.33</ele>
        <time>2018-07-05T11:09:59Z</time>
      </trkpt>
      <trkpt lat="44.14959" lon="6.95925">
        <ele>2707.69</ele>
        <time>2018-07-05T11:10:49Z</time>
      </trkpt>
      <trkpt lat="44.14965" lon="6.95954">
        <ele>2711.06</ele>
        <time>2018-07-05T11:11:18Z</time>
      </trkpt>
      <trkpt lat="44.14967" lon="6.95967">
        <ele>2711.54</ele>
        <time>2018-07-05T11:11:30Z</time>
      </trkpt>
      <trkpt lat="44.1497" lon="6.95981">
        <ele>2712.5</ele>
        <time>2018-07-05T11:11:42Z</time>
      </trkpt>
      <trkpt lat="44.14973" lon="6.95993">
        <ele>2713.46</ele>
        <time>2018-07-05T11:11:53Z</time>
      </trkpt>
      <trkpt lat="44.14976" lon="6.96006">
        <ele>2713.94</ele>
        <time>2018-07-05T11:12:05Z</time>
      </trkpt>
      <trkpt lat="44.14979" lon="6.96018">
        <ele>2713.94</ele>
        <time>2018-07-05T11:12:17Z</time>
      </trkpt>
      <trkpt lat="44.14983" lon="6.9603">
        <ele>2714.42</ele>
        <time>2018-07-05T11:12:28Z</time>
      </trkpt>
      <trkpt lat="44.14985" lon="6.96044">
        <ele>2714.9</ele>
        <time>2018-07-05T11:12:39Z</time>
      </trkpt>
      <trkpt lat="44.14986" lon="6.96057">
        <ele>2715.86</ele>
        <time>2018-07-05T11:12:50Z</time>
      </trkpt>
      <trkpt lat="44.14987" lon="6.9607">
        <ele>2716.34</ele>
        <time>2018-07-05T11:13:01Z</time>
      </trkpt>
      <trkpt lat="44.14985" lon="6.96082">
        <ele>2717.3</ele>
        <time>2018-07-05T11:13:12Z</time>
      </trkpt>
      <trkpt lat="44.14985" lon="6.96096">
        <ele>2718.27</ele>
        <time>2018-07-05T11:13:24Z</time>
      </trkpt>
      <trkpt lat="44.14983" lon="6.96109">
        <ele>2718.75</ele>
        <time>2018-07-05T11:13:36Z</time>
      </trkpt>
      <trkpt lat="44.14978" lon="6.9612">
        <ele>2720.19</ele>
        <time>2018-07-05T11:13:49Z</time>
      </trkpt>
      <trkpt lat="44.14972" lon="6.96132">
        <ele>2722.59</ele>
        <time>2018-07-05T11:14:02Z</time>
      </trkpt>
      <trkpt lat="44.14968" lon="6.96143">
        <ele>2722.59</ele>
        <time>2018-07-05T11:14:18Z</time>
      </trkpt>
      <trkpt lat="44.1497" lon="6.96142">
        <ele>2722.11</ele>
        <time>2018-07-05T11:15:06Z</time>
      </trkpt>
      <trkpt lat="44.14979" lon="6.9615">
        <ele>2723.55</ele>
        <time>2018-07-05T11:15:21Z</time>
      </trkpt>
      <trkpt lat="44.14977" lon="6.96161">
        <ele>2724.51</ele>
        <time>2018-07-05T11:15:34Z</time>
      </trkpt>
      <trkpt lat="44.14971" lon="6.96173">
        <ele>2725.96</ele>
        <time>2018-07-05T11:15:49Z</time>
      </trkpt>
      <trkpt lat="44.14965" lon="6.96183">
        <ele>2726.44</ele>
        <time>2018-07-05T11:16:05Z</time>
      </trkpt>
      <trkpt lat="44.14961" lon="6.96197">
        <ele>2726.92</ele>
        <time>2018-07-05T11:16:19Z</time>
      </trkpt>
      <trkpt lat="44.14955" lon="6.96206">
        <ele>2725.48</ele>
        <time>2018-07-05T11:16:38Z</time>
      </trkpt>
      <trkpt lat="44.14958" lon="6.96206">
        <ele>2725.48</ele>
        <time>2018-07-05T11:19:00Z</time>
      </trkpt>
      <trkpt lat="44.14948" lon="6.9621">
        <ele>2726.44</ele>
        <time>2018-07-05T11:19:13Z</time>
      </trkpt>
      <trkpt lat="44.14952" lon="6.96214">
        <ele>2726.92</ele>
        <time>2018-07-05T11:19:57Z</time>
      </trkpt>
      <trkpt lat="44.14961" lon="6.96206">
        <ele>2724.99</ele>
        <time>2018-07-05T11:20:12Z</time>
      </trkpt>
      <trkpt lat="44.14962" lon="6.96194">
        <ele>2724.99</ele>
        <time>2018-07-05T11:20:26Z</time>
      </trkpt>
      <trkpt lat="44.14961" lon="6.96182">
        <ele>2724.03</ele>
        <time>2018-07-05T11:20:42Z</time>
      </trkpt>
      <trkpt lat="44.14964" lon="6.96166">
        <ele>2723.07</ele>
        <time>2018-07-05T11:21:14Z</time>
      </trkpt>
      <trkpt lat="44.14963" lon="6.96159">
        <ele>2725.96</ele>
        <time>2018-07-05T11:37:49Z</time>
      </trkpt>
      <trkpt lat="44.14974" lon="6.96134">
        <ele>2730.28</ele>
        <time>2018-07-05T11:52:51Z</time>
      </trkpt>
      <trkpt lat="44.14981" lon="6.96114">
        <ele>2727.88</ele>
        <time>2018-07-05T11:53:08Z</time>
      </trkpt>
      <trkpt lat="44.14985" lon="6.96098">
        <ele>2725.96</ele>
        <time>2018-07-05T11:53:20Z</time>
      </trkpt>
      <trkpt lat="44.14985" lon="6.96084">
        <ele>2725.48</ele>
        <time>2018-07-05T11:53:29Z</time>
      </trkpt>
      <trkpt lat="44.14987" lon="6.9607">
        <ele>2725.48</ele>
        <time>2018-07-05T11:53:37Z</time>
      </trkpt>
      <trkpt lat="44.14986" lon="6.96055">
        <ele>2724.99</ele>
        <time>2018-07-05T11:53:47Z</time>
      </trkpt>
      <trkpt lat="44.14985" lon="6.96041">
        <ele>2722.11</ele>
        <time>2018-07-05T11:53:56Z</time>
      </trkpt>
      <trkpt lat="44.14983" lon="6.96027">
        <ele>2723.55</ele>
        <time>2018-07-05T11:54:04Z</time>
      </trkpt>
      <trkpt lat="44.14979" lon="6.96014">
        <ele>2723.07</ele>
        <time>2018-07-05T11:54:12Z</time>
      </trkpt>
      <trkpt lat="44.14976" lon="6.96002">
        <ele>2720.67</ele>
        <time>2018-07-05T11:54:20Z</time>
      </trkpt>
      <trkpt lat="44.14972" lon="6.95989">
        <ele>2721.63</ele>
        <time>2018-07-05T11:54:29Z</time>
      </trkpt>
      <trkpt lat="44.14969" lon="6.95975">
        <ele>2720.19</ele>
        <time>2018-07-05T11:54:38Z</time>
      </trkpt>
      <trkpt lat="44.14966" lon="6.95961">
        <ele>2718.75</ele>
        <time>2018-07-05T11:54:47Z</time>
      </trkpt>
      <trkpt lat="44.14962" lon="6.95949">
        <ele>2719.23</ele>
        <time>2018-07-05T11:54:56Z</time>
      </trkpt>
      <trkpt lat="44.14958" lon="6.95934">
        <ele>2717.3</ele>
        <time>2018-07-05T11:55:06Z</time>
      </trkpt>
      <trkpt lat="44.14954" lon="6.95921">
        <ele>2715.38</ele>
        <time>2018-07-05T11:55:15Z</time>
      </trkpt>
      <trkpt lat="44.14946" lon="6.9591">
        <ele>2715.38</ele>
        <time>2018-07-05T11:55:28Z</time>
      </trkpt>
      <trkpt lat="44.14938" lon="6.95905">
        <ele>2712.98</ele>
        <time>2018-07-05T11:55:38Z</time>
      </trkpt>
      <trkpt lat="44.1493" lon="6.9589">
        <ele>2709.13</ele>
        <time>2018-07-05T11:55:56Z</time>
      </trkpt>
      <trkpt lat="44.14919" lon="6.95876">
        <ele>2707.21</ele>
        <time>2018-07-05T11:56:12Z</time>
      </trkpt>
      <trkpt lat="44.14908" lon="6.95858">
        <ele>2703.36</ele>
        <time>2018-07-05T11:56:33Z</time>
      </trkpt>
      <trkpt lat="44.14899" lon="6.95843">
        <ele>2699.04</ele>
        <time>2018-07-05T11:56:48Z</time>
      </trkpt>
      <trkpt lat="44.1494" lon="6.9581">
        <ele>2682.7</ele>
        <time>2018-07-05T11:58:37Z</time>
      </trkpt>
      <trkpt lat="44.14945" lon="6.95794">
        <ele>2675.49</ele>
        <time>2018-07-05T11:59:32Z</time>
      </trkpt>
      <trkpt lat="44.14929" lon="6.95781">
        <ele>2672.12</ele>
        <time>2018-07-05T11:59:50Z</time>
      </trkpt>
      <trkpt lat="44.14921" lon="6.95769">
        <ele>2667.8</ele>
        <time>2018-07-05T12:00:00Z</time>
      </trkpt>
      <trkpt lat="44.14914" lon="6.95757">
        <ele>2667.31</ele>
        <time>2018-07-05T12:00:09Z</time>
      </trkpt>
      <trkpt lat="44.14906" lon="6.95747">
        <ele>2664.91</ele>
        <time>2018-07-05T12:00:18Z</time>
      </trkpt>
      <trkpt lat="44.14899" lon="6.95737">
        <ele>2662.99</ele>
        <time>2018-07-05T12:00:28Z</time>
      </trkpt>
      <trkpt lat="44.14892" lon="6.95727">
        <ele>2662.51</ele>
        <time>2018-07-05T12:00:37Z</time>
      </trkpt>
      <trkpt lat="44.14881" lon="6.95716">
        <ele>2660.11</ele>
        <time>2018-07-05T12:00:52Z</time>
      </trkpt>
      <trkpt lat="44.14869" lon="6.95702">
        <ele>2658.66</ele>
        <time>2018-07-05T12:01:05Z</time>
      </trkpt>
      <trkpt lat="44.14871" lon="6.95687">
        <ele>2656.26</ele>
        <time>2018-07-05T12:01:18Z</time>
      </trkpt>
      <trkpt lat="44.14874" lon="6.95674">
        <ele>2654.34</ele>
        <time>2018-07-05T12:01:25Z</time>
      </trkpt>
      <trkpt lat="44.14879" lon="6.95662">
        <ele>2653.38</ele>
        <time>2018-07-05T12:01:33Z</time>
      </trkpt>
      <trkpt lat="44.1488" lon="6.9565">
        <ele>2652.42</ele>
        <time>2018-07-05T12:01:41Z</time>
      </trkpt>
      <trkpt lat="44.14878" lon="6.95637">
        <ele>2652.9</ele>
        <time>2018-07-05T12:01:50Z</time>
      </trkpt>
      <trkpt lat="44.14876" lon="6.95625">
        <ele>2651.93</ele>
        <time>2018-07-05T12:01:59Z</time>
      </trkpt>
      <trkpt lat="44.14873" lon="6.95611">
        <ele>2650.01</ele>
        <time>2018-07-05T12:02:07Z</time>
      </trkpt>
      <trkpt lat="44.14868" lon="6.956">
        <ele>2650.01</ele>
        <time>2018-07-05T12:02:14Z</time>
      </trkpt>
      <trkpt lat="44.14862" lon="6.95589">
        <ele>2650.97</ele>
        <time>2018-07-05T12:02:22Z</time>
      </trkpt>
      <trkpt lat="44.14856" lon="6.95579">
        <ele>2651.45</ele>
        <time>2018-07-05T12:02:30Z</time>
      </trkpt>
      <trkpt lat="44.14849" lon="6.95566">
        <ele>2650.97</ele>
        <time>2018-07-05T12:02:41Z</time>
      </trkpt>
      <trkpt lat="44.14842" lon="6.95557">
        <ele>2652.42</ele>
        <time>2018-07-05T12:02:50Z</time>
      </trkpt>
      <trkpt lat="44.14835" lon="6.95545">
        <ele>2654.82</ele>
        <time>2018-07-05T12:03:00Z</time>
      </trkpt>
      <trkpt lat="44.14828" lon="6.95532">
        <ele>2653.38</ele>
        <time>2018-07-05T12:03:10Z</time>
      </trkpt>
      <trkpt lat="44.14823" lon="6.9552">
        <ele>2654.34</ele>
        <time>2018-07-05T12:03:20Z</time>
      </trkpt>
      <trkpt lat="44.14814" lon="6.95472">
        <ele>2654.82</ele>
        <time>2018-07-05T12:07:56Z</time>
      </trkpt>
      <trkpt lat="44.14811" lon="6.95458">
        <ele>2652.9</ele>
        <time>2018-07-05T12:08:06Z</time>
      </trkpt>
      <trkpt lat="44.14808" lon="6.95442">
        <ele>2652.42</ele>
        <time>2018-07-05T12:08:20Z</time>
      </trkpt>
      <trkpt lat="44.14802" lon="6.95431">
        <ele>2650.97</ele>
        <time>2018-07-05T12:08:28Z</time>
      </trkpt>
      <trkpt lat="44.14794" lon="6.95421">
        <ele>2650.49</ele>
        <time>2018-07-05T12:08:35Z</time>
      </trkpt>
      <trkpt lat="44.14788" lon="6.95411">
        <ele>2648.57</ele>
        <time>2018-07-05T12:08:43Z</time>
      </trkpt>
      <trkpt lat="44.14781" lon="6.95401">
        <ele>2646.17</ele>
        <time>2018-07-05T12:08:52Z</time>
      </trkpt>
      <trkpt lat="44.14766" lon="6.95393">
        <ele>2642.32</ele>
        <time>2018-07-05T12:09:23Z</time>
      </trkpt>
      <trkpt lat="44.14726" lon="6.95367">
        <ele>2624.54</ele>
        <time>2018-07-05T12:11:31Z</time>
      </trkpt>
      <trkpt lat="44.14711" lon="6.95358">
        <ele>2617.33</ele>
        <time>2018-07-05T12:12:20Z</time>
      </trkpt>
      <trkpt lat="44.14683" lon="6.9535">
        <ele>2608.19</ele>
        <time>2018-07-05T12:13:35Z</time>
      </trkpt>
      <trkpt lat="44.14632" lon="6.95332">
        <ele>2601.95</ele>
        <time>2018-07-05T12:14:49Z</time>
      </trkpt>
      <trkpt lat="44.14622" lon="6.95331">
        <ele>2602.43</ele>
        <time>2018-07-05T12:14:59Z</time>
      </trkpt>
      <trkpt lat="44.14608" lon="6.95327">
        <ele>2599.54</ele>
        <time>2018-07-05T12:15:14Z</time>
      </trkpt>
      <trkpt lat="44.14598" lon="6.95323">
        <ele>2599.54</ele>
        <time>2018-07-05T12:15:24Z</time>
      </trkpt>
      <trkpt lat="44.14573" lon="6.95312">
        <ele>2597.62</ele>
        <time>2018-07-05T12:15:57Z</time>
      </trkpt>
      <trkpt lat="44.14561" lon="6.95308">
        <ele>2598.1</ele>
        <time>2018-07-05T12:16:08Z</time>
      </trkpt>
      <trkpt lat="44.1454" lon="6.953">
        <ele>2595.7</ele>
        <time>2018-07-05T12:16:36Z</time>
      </trkpt>
      <trkpt lat="44.1449" lon="6.95288">
        <ele>2593.29</ele>
        <time>2018-07-05T12:18:01Z</time>
      </trkpt>
      <trkpt lat="44.14448" lon="6.9528">
        <ele>2591.37</ele>
        <time>2018-07-05T12:18:49Z</time>
      </trkpt>
      <trkpt lat="44.14446" lon="6.95281">
        <ele>2592.33</ele>
        <time>2018-07-05T12:22:43Z</time>
      </trkpt>
      <trkpt lat="44.14468" lon="6.95282">
        <ele>2592.33</ele>
        <time>2018-07-05T12:23:09Z</time>
      </trkpt>
      <trkpt lat="44.1448" lon="6.95285">
        <ele>2593.29</ele>
        <time>2018-07-05T12:23:23Z</time>
      </trkpt>
      <trkpt lat="44.14542" lon="6.9532">
        <ele>2584.16</ele>
        <time>2018-07-05T12:26:38Z</time>
      </trkpt>
      <trkpt lat="44.14553" lon="6.95323">
        <ele>2584.16</ele>
        <time>2018-07-05T12:26:48Z</time>
      </trkpt>
      <trkpt lat="44.14549" lon="6.95329">
        <ele>2581.76</ele>
        <time>2018-07-05T12:27:03Z</time>
      </trkpt>
      <trkpt lat="44.14533" lon="6.95333">
        <ele>2577.91</ele>
        <time>2018-07-05T12:27:18Z</time>
      </trkpt>
      <trkpt lat="44.14516" lon="6.95336">
        <ele>2575.03</ele>
        <time>2018-07-05T12:27:37Z</time>
      </trkpt>
      <trkpt lat="44.1448" lon="6.95337">
        <ele>2566.86</ele>
        <time>2018-07-05T12:28:25Z</time>
      </trkpt>
      <trkpt lat="44.14458" lon="6.95339">
        <ele>2562.05</ele>
        <time>2018-07-05T12:28:53Z</time>
      </trkpt>
      <trkpt lat="44.14448" lon="6.95344">
        <ele>2559.65</ele>
        <time>2018-07-05T12:29:02Z</time>
      </trkpt>
      <trkpt lat="44.14397" lon="6.95367">
        <ele>2546.67</ele>
        <time>2018-07-05T12:30:14Z</time>
      </trkpt>
      <trkpt lat="44.14379" lon="6.9538">
        <ele>2541.38</ele>
        <time>2018-07-05T12:30:37Z</time>
      </trkpt>
      <trkpt lat="44.14339" lon="6.95418">
        <ele>2529.37</ele>
        <time>2018-07-05T12:31:54Z</time>
      </trkpt>
      <trkpt lat="44.14325" lon="6.95425">
        <ele>2526.48</ele>
        <time>2018-07-05T12:32:11Z</time>
      </trkpt>
      <trkpt lat="44.14317" lon="6.95431">
        <ele>2525.04</ele>
        <time>2018-07-05T12:32:23Z</time>
      </trkpt>
      <trkpt lat="44.1431" lon="6.95435">
        <ele>2523.6</ele>
        <time>2018-07-05T12:32:36Z</time>
      </trkpt>
      <trkpt lat="44.14319" lon="6.95446">
        <ele>2521.19</ele>
        <time>2018-07-05T12:33:12Z</time>
      </trkpt>
      <trkpt lat="44.14322" lon="6.95452">
        <ele>2518.79</ele>
        <time>2018-07-05T12:33:25Z</time>
      </trkpt>
      <trkpt lat="44.1431" lon="6.95453">
        <ele>2516.39</ele>
        <time>2018-07-05T12:33:35Z</time>
      </trkpt>
      <trkpt lat="44.143" lon="6.9546">
        <ele>2514.47</ele>
        <time>2018-07-05T12:33:44Z</time>
      </trkpt>
      <trkpt lat="44.1429" lon="6.95468">
        <ele>2513.5</ele>
        <time>2018-07-05T12:33:53Z</time>
      </trkpt>
      <trkpt lat="44.14281" lon="6.95473">
        <ele>2511.1</ele>
        <time>2018-07-05T12:34:02Z</time>
      </trkpt>
      <trkpt lat="44.14276" lon="6.95478">
        <ele>2509.18</ele>
        <time>2018-07-05T12:34:11Z</time>
      </trkpt>
      <trkpt lat="44.14272" lon="6.95486">
        <ele>2507.74</ele>
        <time>2018-07-05T12:34:20Z</time>
      </trkpt>
      <trkpt lat="44.14266" lon="6.9549">
        <ele>2505.33</ele>
        <time>2018-07-05T12:34:29Z</time>
      </trkpt>
      <trkpt lat="44.14258" lon="6.95501">
        <ele>2503.41</ele>
        <time>2018-07-05T12:34:38Z</time>
      </trkpt>
      <trkpt lat="44.14254" lon="6.95511">
        <ele>2501.01</ele>
        <time>2018-07-05T12:34:48Z</time>
      </trkpt>
      <trkpt lat="44.1425" lon="6.95519">
        <ele>2499.08</ele>
        <time>2018-07-05T12:34:58Z</time>
      </trkpt>
      <trkpt lat="44.14248" lon="6.95526">
        <ele>2497.16</ele>
        <time>2018-07-05T12:35:09Z</time>
      </trkpt>
      <trkpt lat="44.1424" lon="6.95544">
        <ele>2493.8</ele>
        <time>2018-07-05T12:35:23Z</time>
      </trkpt>
      <trkpt lat="44.1423" lon="6.95559">
        <ele>2491.87</ele>
        <time>2018-07-05T12:35:37Z</time>
      </trkpt>
      <trkpt lat="44.14227" lon="6.95575">
        <ele>2488.51</ele>
        <time>2018-07-05T12:35:49Z</time>
      </trkpt>
      <trkpt lat="44.14219" lon="6.95593">
        <ele>2486.59</ele>
        <time>2018-07-05T12:36:01Z</time>
      </trkpt>
      <trkpt lat="44.14214" lon="6.95605">
        <ele>2484.66</ele>
        <time>2018-07-05T12:36:12Z</time>
      </trkpt>
      <trkpt lat="44.14208" lon="6.95613">
        <ele>2481.78</ele>
        <time>2018-07-05T12:36:23Z</time>
      </trkpt>
      <trkpt lat="44.14202" lon="6.95619">
        <ele>2479.38</ele>
        <time>2018-07-05T12:36:34Z</time>
      </trkpt>
      <trkpt lat="44.14199" lon="6.9563">
        <ele>2477.94</ele>
        <time>2018-07-05T12:36:44Z</time>
      </trkpt>
      <trkpt lat="44.14196" lon="6.95637">
        <ele>2475.53</ele>
        <time>2018-07-05T12:36:57Z</time>
      </trkpt>
      <trkpt lat="44.14186" lon="6.95641">
        <ele>2472.65</ele>
        <time>2018-07-05T12:37:41Z</time>
      </trkpt>
      <trkpt lat="44.14178" lon="6.95653">
        <ele>2470.24</ele>
        <time>2018-07-05T12:37:52Z</time>
      </trkpt>
      <trkpt lat="44.14175" lon="6.95665">
        <ele>2468.32</ele>
        <time>2018-07-05T12:38:02Z</time>
      </trkpt>
      <trkpt lat="44.14169" lon="6.95679">
        <ele>2466.4</ele>
        <time>2018-07-05T12:38:12Z</time>
      </trkpt>
      <trkpt lat="44.14161" lon="6.95686">
        <ele>2464.48</ele>
        <time>2018-07-05T12:38:23Z</time>
      </trkpt>
      <trkpt lat="44.14155" lon="6.95701">
        <ele>2462.55</ele>
        <time>2018-07-05T12:38:34Z</time>
      </trkpt>
      <trkpt lat="44.14155" lon="6.95713">
        <ele>2460.15</ele>
        <time>2018-07-05T12:38:45Z</time>
      </trkpt>
      <trkpt lat="44.1415" lon="6.95724">
        <ele>2457.27</ele>
        <time>2018-07-05T12:38:55Z</time>
      </trkpt>
      <trkpt lat="44.14145" lon="6.95736">
        <ele>2455.34</ele>
        <time>2018-07-05T12:39:04Z</time>
      </trkpt>
      <trkpt lat="44.1414" lon="6.95748">
        <ele>2454.38</ele>
        <time>2018-07-05T12:39:13Z</time>
      </trkpt>
      <trkpt lat="44.14133" lon="6.95755">
        <ele>2452.46</ele>
        <time>2018-07-05T12:39:22Z</time>
      </trkpt>
      <trkpt lat="44.14131" lon="6.95763">
        <ele>2451.5</ele>
        <time>2018-07-05T12:39:31Z</time>
      </trkpt>
      <trkpt lat="44.14129" lon="6.95776">
        <ele>2450.06</ele>
        <time>2018-07-05T12:39:39Z</time>
      </trkpt>
      <trkpt lat="44.14123" lon="6.95791">
        <ele>2448.62</ele>
        <time>2018-07-05T12:39:48Z</time>
      </trkpt>
      <trkpt lat="44.14118" lon="6.95802">
        <ele>2447.17</ele>
        <time>2018-07-05T12:39:57Z</time>
      </trkpt>
      <trkpt lat="44.14111" lon="6.95813">
        <ele>2445.73</ele>
        <time>2018-07-05T12:40:05Z</time>
      </trkpt>
      <trkpt lat="44.14104" lon="6.95823">
        <ele>2444.29</ele>
        <time>2018-07-05T12:40:13Z</time>
      </trkpt>
      <trkpt lat="44.14099" lon="6.95834">
        <ele>2445.25</ele>
        <time>2018-07-05T12:40:21Z</time>
      </trkpt>
      <trkpt lat="44.14093" lon="6.95847">
        <ele>2445.25</ele>
        <time>2018-07-05T12:40:30Z</time>
      </trkpt>
      <trkpt lat="44.14088" lon="6.95859">
        <ele>2444.29</ele>
        <time>2018-07-05T12:40:38Z</time>
      </trkpt>
      <trkpt lat="44.14081" lon="6.9587">
        <ele>2444.29</ele>
        <time>2018-07-05T12:40:46Z</time>
      </trkpt>
      <trkpt lat="44.14073" lon="6.9588">
        <ele>2444.29</ele>
        <time>2018-07-05T12:40:55Z</time>
      </trkpt>
      <trkpt lat="44.1407" lon="6.95893">
        <ele>2443.81</ele>
        <time>2018-07-05T12:41:05Z</time>
      </trkpt>
      <trkpt lat="44.14065" lon="6.95903">
        <ele>2443.81</ele>
        <time>2018-07-05T12:41:13Z</time>
      </trkpt>
      <trkpt lat="44.1406" lon="6.95914">
        <ele>2443.81</ele>
        <time>2018-07-05T12:41:21Z</time>
      </trkpt>
      <trkpt lat="44.14054" lon="6.95924">
        <ele>2445.25</ele>
        <time>2018-07-05T12:41:29Z</time>
      </trkpt>
      <trkpt lat="44.14049" lon="6.95935">
        <ele>2445.73</ele>
        <time>2018-07-05T12:41:38Z</time>
      </trkpt>
      <trkpt lat="44.14044" lon="6.95944">
        <ele>2445.73</ele>
        <time>2018-07-05T12:41:46Z</time>
      </trkpt>
      <trkpt lat="44.14037" lon="6.95955">
        <ele>2445.73</ele>
        <time>2018-07-05T12:41:55Z</time>
      </trkpt>
      <trkpt lat="44.14029" lon="6.95961">
        <ele>2445.73</ele>
        <time>2018-07-05T12:42:04Z</time>
      </trkpt>
      <trkpt lat="44.14024" lon="6.95972">
        <ele>2445.73</ele>
        <time>2018-07-05T12:42:13Z</time>
      </trkpt>
      <trkpt lat="44.14021" lon="6.95984">
        <ele>2445.73</ele>
        <time>2018-07-05T12:42:22Z</time>
      </trkpt>
      <trkpt lat="44.14018" lon="6.95993">
        <ele>2445.73</ele>
        <time>2018-07-05T12:42:32Z</time>
      </trkpt>
      <trkpt lat="44.14014" lon="6.96007">
        <ele>2445.25</ele>
        <time>2018-07-05T12:42:41Z</time>
      </trkpt>
      <trkpt lat="44.14009" lon="6.96021">
        <ele>2444.29</ele>
        <time>2018-07-05T12:42:50Z</time>
      </trkpt>
      <trkpt lat="44.14006" lon="6.96029">
        <ele>2444.29</ele>
        <time>2018-07-05T12:43:00Z</time>
      </trkpt>
      <trkpt lat="44.14003" lon="6.9604">
        <ele>2443.81</ele>
        <time>2018-07-05T12:43:12Z</time>
      </trkpt>
      <trkpt lat="44.13998" lon="6.96052">
        <ele>2443.81</ele>
        <time>2018-07-05T12:43:23Z</time>
      </trkpt>
      <trkpt lat="44.13993" lon="6.96066">
        <ele>2443.33</ele>
        <time>2018-07-05T12:43:32Z</time>
      </trkpt>
      <trkpt lat="44.13989" lon="6.96077">
        <ele>2443.33</ele>
        <time>2018-07-05T12:43:41Z</time>
      </trkpt>
      <trkpt lat="44.13983" lon="6.96091">
        <ele>2442.85</ele>
        <time>2018-07-05T12:43:54Z</time>
      </trkpt>
      <trkpt lat="44.13979" lon="6.96102">
        <ele>2442.85</ele>
        <time>2018-07-05T12:44:04Z</time>
      </trkpt>
      <trkpt lat="44.13973" lon="6.96111">
        <ele>2442.85</ele>
        <time>2018-07-05T12:44:13Z</time>
      </trkpt>
      <trkpt lat="44.13968" lon="6.96122">
        <ele>2442.85</ele>
        <time>2018-07-05T12:44:23Z</time>
      </trkpt>
      <trkpt lat="44.13966" lon="6.96135">
        <ele>2441.89</ele>
        <time>2018-07-05T12:44:49Z</time>
      </trkpt>
      <trkpt lat="44.13962" lon="6.96147">
        <ele>2441.89</ele>
        <time>2018-07-05T12:45:01Z</time>
      </trkpt>
      <trkpt lat="44.13957" lon="6.96158">
        <ele>2441.41</ele>
        <time>2018-07-05T12:45:11Z</time>
      </trkpt>
      <trkpt lat="44.13952" lon="6.9617">
        <ele>2441.41</ele>
        <time>2018-07-05T12:45:21Z</time>
      </trkpt>
      <trkpt lat="44.13948" lon="6.9618">
        <ele>2441.41</ele>
        <time>2018-07-05T12:45:30Z</time>
      </trkpt>
      <trkpt lat="44.13944" lon="6.96192">
        <ele>2443.33</ele>
        <time>2018-07-05T12:45:39Z</time>
      </trkpt>
      <trkpt lat="44.13939" lon="6.96203">
        <ele>2443.33</ele>
        <time>2018-07-05T12:45:48Z</time>
      </trkpt>
      <trkpt lat="44.13934" lon="6.96216">
        <ele>2443.81</ele>
        <time>2018-07-05T12:45:58Z</time>
      </trkpt>
      <trkpt lat="44.13932" lon="6.96228">
        <ele>2443.81</ele>
        <time>2018-07-05T12:46:07Z</time>
      </trkpt>
      <trkpt lat="44.13929" lon="6.96242">
        <ele>2444.29</ele>
        <time>2018-07-05T12:46:19Z</time>
      </trkpt>
      <trkpt lat="44.13925" lon="6.96254">
        <ele>2444.77</ele>
        <time>2018-07-05T12:46:28Z</time>
      </trkpt>
      <trkpt lat="44.13921" lon="6.96265">
        <ele>2444.77</ele>
        <time>2018-07-05T12:46:37Z</time>
      </trkpt>
      <trkpt lat="44.13916" lon="6.96275">
        <ele>2445.25</ele>
        <time>2018-07-05T12:46:46Z</time>
      </trkpt>
      <trkpt lat="44.13909" lon="6.96285">
        <ele>2445.73</ele>
        <time>2018-07-05T12:46:56Z</time>
      </trkpt>
      <trkpt lat="44.13908" lon="6.96298">
        <ele>2445.73</ele>
        <time>2018-07-05T12:47:07Z</time>
      </trkpt>
      <trkpt lat="44.13904" lon="6.96309">
        <ele>2445.73</ele>
        <time>2018-07-05T12:47:17Z</time>
      </trkpt>
      <trkpt lat="44.13899" lon="6.96317">
        <ele>2446.21</ele>
        <time>2018-07-05T12:47:26Z</time>
      </trkpt>
      <trkpt lat="44.13892" lon="6.96328">
        <ele>2446.69</ele>
        <time>2018-07-05T12:47:35Z</time>
      </trkpt>
      <trkpt lat="44.13888" lon="6.9634">
        <ele>2447.17</ele>
        <time>2018-07-05T12:47:44Z</time>
      </trkpt>
      <trkpt lat="44.13883" lon="6.9635">
        <ele>2447.17</ele>
        <time>2018-07-05T12:47:52Z</time>
      </trkpt>
      <trkpt lat="44.13878" lon="6.96362">
        <ele>2447.17</ele>
        <time>2018-07-05T12:48:01Z</time>
      </trkpt>
      <trkpt lat="44.13874" lon="6.96374">
        <ele>2447.17</ele>
        <time>2018-07-05T12:48:09Z</time>
      </trkpt>
      <trkpt lat="44.1387" lon="6.96386">
        <ele>2447.17</ele>
        <time>2018-07-05T12:48:18Z</time>
      </trkpt>
      <trkpt lat="44.13867" lon="6.96397">
        <ele>2446.69</ele>
        <time>2018-07-05T12:48:26Z</time>
      </trkpt>
      <trkpt lat="44.13864" lon="6.9641">
        <ele>2446.69</ele>
        <time>2018-07-05T12:48:34Z</time>
      </trkpt>
      <trkpt lat="44.13862" lon="6.96423">
        <ele>2446.69</ele>
        <time>2018-07-05T12:48:42Z</time>
      </trkpt>
      <trkpt lat="44.13857" lon="6.96435">
        <ele>2445.73</ele>
        <time>2018-07-05T12:48:51Z</time>
      </trkpt>
      <trkpt lat="44.1385" lon="6.96445">
        <ele>2445.73</ele>
        <time>2018-07-05T12:49:01Z</time>
      </trkpt>
      <trkpt lat="44.13843" lon="6.96451">
        <ele>2444.77</ele>
        <time>2018-07-05T12:49:38Z</time>
      </trkpt>
      <trkpt lat="44.13834" lon="6.96458">
        <ele>2446.21</ele>
        <time>2018-07-05T12:49:48Z</time>
      </trkpt>
      <trkpt lat="44.13826" lon="6.96465">
        <ele>2446.69</ele>
        <time>2018-07-05T12:49:57Z</time>
      </trkpt>
      <trkpt lat="44.13818" lon="6.9647">
        <ele>2447.65</ele>
        <time>2018-07-05T12:50:06Z</time>
      </trkpt>
      <trkpt lat="44.13809" lon="6.96476">
        <ele>2448.62</ele>
        <time>2018-07-05T12:50:16Z</time>
      </trkpt>
      <trkpt lat="44.13801" lon="6.96481">
        <ele>2449.58</ele>
        <time>2018-07-05T12:50:26Z</time>
      </trkpt>
      <trkpt lat="44.13791" lon="6.96483">
        <ele>2450.54</ele>
        <time>2018-07-05T12:50:37Z</time>
      </trkpt>
      <trkpt lat="44.13783" lon="6.96486">
        <ele>2451.02</ele>
        <time>2018-07-05T12:50:46Z</time>
      </trkpt>
      <trkpt lat="44.13774" lon="6.96492">
        <ele>2451.5</ele>
        <time>2018-07-05T12:50:56Z</time>
      </trkpt>
      <trkpt lat="44.13766" lon="6.96498">
        <ele>2452.46</ele>
        <time>2018-07-05T12:51:06Z</time>
      </trkpt>
      <trkpt lat="44.13758" lon="6.96505">
        <ele>2452.46</ele>
        <time>2018-07-05T12:51:24Z</time>
      </trkpt>
      <trkpt lat="44.1375" lon="6.96512">
        <ele>2452.46</ele>
        <time>2018-07-05T12:51:33Z</time>
      </trkpt>
      <trkpt lat="44.13742" lon="6.9652">
        <ele>2452.46</ele>
        <time>2018-07-05T12:51:42Z</time>
      </trkpt>
      <trkpt lat="44.13736" lon="6.9653">
        <ele>2452.46</ele>
        <time>2018-07-05T12:51:50Z</time>
      </trkpt>
      <trkpt lat="44.13729" lon="6.96539">
        <ele>2452.46</ele>
        <time>2018-07-05T12:51:58Z</time>
      </trkpt>
      <trkpt lat="44.13721" lon="6.96541">
        <ele>2452.46</ele>
        <time>2018-07-05T12:52:06Z</time>
      </trkpt>
      <trkpt lat="44.1371" lon="6.96542">
        <ele>2451.5</ele>
        <time>2018-07-05T12:52:15Z</time>
      </trkpt>
      <trkpt lat="44.137" lon="6.96539">
        <ele>2449.58</ele>
        <time>2018-07-05T12:52:25Z</time>
      </trkpt>
      <trkpt lat="44.13691" lon="6.96533">
        <ele>2447.65</ele>
        <time>2018-07-05T12:52:36Z</time>
      </trkpt>
      <trkpt lat="44.13682" lon="6.96527">
        <ele>2444.29</ele>
        <time>2018-07-05T12:52:49Z</time>
      </trkpt>
      <trkpt lat="44.13674" lon="6.96519">
        <ele>2443.81</ele>
        <time>2018-07-05T12:53:01Z</time>
      </trkpt>
      <trkpt lat="44.13666" lon="6.96515">
        <ele>2442.37</ele>
        <time>2018-07-05T12:53:12Z</time>
      </trkpt>
      <trkpt lat="44.13658" lon="6.96511">
        <ele>2439.96</ele>
        <time>2018-07-05T12:53:24Z</time>
      </trkpt>
      <trkpt lat="44.13648" lon="6.96514">
        <ele>2439.48</ele>
        <time>2018-07-05T12:53:33Z</time>
      </trkpt>
      <trkpt lat="44.1364" lon="6.9652">
        <ele>2439.48</ele>
        <time>2018-07-05T12:53:41Z</time>
      </trkpt>
      <trkpt lat="44.13632" lon="6.96528">
        <ele>2439.48</ele>
        <time>2018-07-05T12:53:50Z</time>
      </trkpt>
      <trkpt lat="44.13624" lon="6.96535">
        <ele>2439</ele>
        <time>2018-07-05T12:53:58Z</time>
      </trkpt>
      <trkpt lat="44.13616" lon="6.9654">
        <ele>2439</ele>
        <time>2018-07-05T12:54:07Z</time>
      </trkpt>
      <trkpt lat="44.13607" lon="6.96544">
        <ele>2439</ele>
        <time>2018-07-05T12:54:15Z</time>
      </trkpt>
      <trkpt lat="44.13598" lon="6.96551">
        <ele>2439</ele>
        <time>2018-07-05T12:54:24Z</time>
      </trkpt>
      <trkpt lat="44.1359" lon="6.96557">
        <ele>2439</ele>
        <time>2018-07-05T12:54:32Z</time>
      </trkpt>
      <trkpt lat="44.13582" lon="6.96564">
        <ele>2438.52</ele>
        <time>2018-07-05T12:54:40Z</time>
      </trkpt>
      <trkpt lat="44.13573" lon="6.9657">
        <ele>2438.52</ele>
        <time>2018-07-05T12:54:48Z</time>
      </trkpt>
      <trkpt lat="44.13565" lon="6.96576">
        <ele>2437.08</ele>
        <time>2018-07-05T12:54:57Z</time>
      </trkpt>
      <trkpt lat="44.13557" lon="6.96582">
        <ele>2435.64</ele>
        <time>2018-07-05T12:55:05Z</time>
      </trkpt>
      <trkpt lat="44.13548" lon="6.96589">
        <ele>2435.64</ele>
        <time>2018-07-05T12:55:13Z</time>
      </trkpt>
      <trkpt lat="44.13541" lon="6.96599">
        <ele>2435.16</ele>
        <time>2018-07-05T12:55:21Z</time>
      </trkpt>
      <trkpt lat="44.13533" lon="6.96605">
        <ele>2434.2</ele>
        <time>2018-07-05T12:55:29Z</time>
      </trkpt>
      <trkpt lat="44.13523" lon="6.96607">
        <ele>2433.23</ele>
        <time>2018-07-05T12:55:37Z</time>
      </trkpt>
      <trkpt lat="44.13514" lon="6.96605">
        <ele>2431.31</ele>
        <time>2018-07-05T12:55:45Z</time>
      </trkpt>
      <trkpt lat="44.13505" lon="6.96599">
        <ele>2429.87</ele>
        <time>2018-07-05T12:55:53Z</time>
      </trkpt>
      <trkpt lat="44.13497" lon="6.96593">
        <ele>2427.95</ele>
        <time>2018-07-05T12:56:02Z</time>
      </trkpt>
      <trkpt lat="44.13488" lon="6.96585">
        <ele>2427.95</ele>
        <time>2018-07-05T12:56:33Z</time>
      </trkpt>
      <trkpt lat="44.13479" lon="6.9658">
        <ele>2427.47</ele>
        <time>2018-07-05T12:56:42Z</time>
      </trkpt>
      <trkpt lat="44.1347" lon="6.96576">
        <ele>2426.99</ele>
        <time>2018-07-05T12:56:51Z</time>
      </trkpt>
      <trkpt lat="44.13461" lon="6.96571">
        <ele>2426.02</ele>
        <time>2018-07-05T12:56:59Z</time>
      </trkpt>
      <trkpt lat="44.13451" lon="6.96569">
        <ele>2424.58</ele>
        <time>2018-07-05T12:57:07Z</time>
      </trkpt>
      <trkpt lat="44.13442" lon="6.96569">
        <ele>2423.14</ele>
        <time>2018-07-05T12:57:15Z</time>
      </trkpt>
      <trkpt lat="44.13433" lon="6.96569">
        <ele>2422.18</ele>
        <time>2018-07-05T12:57:23Z</time>
      </trkpt>
      <trkpt lat="44.13424" lon="6.9657">
        <ele>2420.26</ele>
        <time>2018-07-05T12:57:31Z</time>
      </trkpt>
      <trkpt lat="44.13414" lon="6.96572">
        <ele>2419.3</ele>
        <time>2018-07-05T12:57:39Z</time>
      </trkpt>
      <trkpt lat="44.13405" lon="6.96577">
        <ele>2417.37</ele>
        <time>2018-07-05T12:57:47Z</time>
      </trkpt>
      <trkpt lat="44.13397" lon="6.96582">
        <ele>2416.89</ele>
        <time>2018-07-05T12:57:55Z</time>
      </trkpt>
      <trkpt lat="44.13387" lon="6.96585">
        <ele>2415.93</ele>
        <time>2018-07-05T12:58:03Z</time>
      </trkpt>
      <trkpt lat="44.1338" lon="6.96589">
        <ele>2414.49</ele>
        <time>2018-07-05T12:58:11Z</time>
      </trkpt>
      <trkpt lat="44.13371" lon="6.96594">
        <ele>2412.57</ele>
        <time>2018-07-05T12:58:19Z</time>
      </trkpt>
      <trkpt lat="44.13364" lon="6.96601">
        <ele>2411.6</ele>
        <time>2018-07-05T12:58:27Z</time>
      </trkpt>
      <trkpt lat="44.13356" lon="6.9661">
        <ele>2409.68</ele>
        <time>2018-07-05T12:58:36Z</time>
      </trkpt>
      <trkpt lat="44.1335" lon="6.9662">
        <ele>2407.28</ele>
        <time>2018-07-05T12:58:45Z</time>
      </trkpt>
      <trkpt lat="44.13344" lon="6.9663">
        <ele>2406.32</ele>
        <time>2018-07-05T12:58:53Z</time>
      </trkpt>
      <trkpt lat="44.1334" lon="6.9664">
        <ele>2404.88</ele>
        <time>2018-07-05T12:59:02Z</time>
      </trkpt>
      <trkpt lat="44.1334" lon="6.96653">
        <ele>2403.43</ele>
        <time>2018-07-05T12:59:11Z</time>
      </trkpt>
      <trkpt lat="44.1334" lon="6.96665">
        <ele>2401.51</ele>
        <time>2018-07-05T12:59:21Z</time>
      </trkpt>
      <trkpt lat="44.13343" lon="6.96678">
        <ele>2400.07</ele>
        <time>2018-07-05T12:59:35Z</time>
      </trkpt>
      <trkpt lat="44.1334" lon="6.96691">
        <ele>2398.15</ele>
        <time>2018-07-05T13:00:05Z</time>
      </trkpt>
      <trkpt lat="44.13333" lon="6.96697">
        <ele>2396.22</ele>
        <time>2018-07-05T13:00:18Z</time>
      </trkpt>
      <trkpt lat="44.13323" lon="6.96697">
        <ele>2395.26</ele>
        <time>2018-07-05T13:00:41Z</time>
      </trkpt>
      <trkpt lat="44.13315" lon="6.96695">
        <ele>2393.82</ele>
        <time>2018-07-05T13:02:40Z</time>
      </trkpt>
      <trkpt lat="44.13307" lon="6.96687">
        <ele>2391.9</ele>
        <time>2018-07-05T13:02:51Z</time>
      </trkpt>
      <trkpt lat="44.13299" lon="6.96679">
        <ele>2389.49</ele>
        <time>2018-07-05T13:03:02Z</time>
      </trkpt>
      <trkpt lat="44.13292" lon="6.96677">
        <ele>2387.57</ele>
        <time>2018-07-05T13:03:14Z</time>
      </trkpt>
      <trkpt lat="44.13293" lon="6.96691">
        <ele>2385.17</ele>
        <time>2018-07-05T13:03:25Z</time>
      </trkpt>
      <trkpt lat="44.13293" lon="6.96704">
        <ele>2381.8</ele>
        <time>2018-07-05T13:03:36Z</time>
      </trkpt>
      <trkpt lat="44.13295" lon="6.96717">
        <ele>2378.92</ele>
        <time>2018-07-05T13:03:46Z</time>
      </trkpt>
      <trkpt lat="44.13296" lon="6.9673">
        <ele>2376.52</ele>
        <time>2018-07-05T13:03:57Z</time>
      </trkpt>
      <trkpt lat="44.13295" lon="6.96744">
        <ele>2374.59</ele>
        <time>2018-07-05T13:04:07Z</time>
      </trkpt>
      <trkpt lat="44.13294" lon="6.96759">
        <ele>2371.71</ele>
        <time>2018-07-05T13:04:16Z</time>
      </trkpt>
      <trkpt lat="44.13292" lon="6.96773">
        <ele>2369.79</ele>
        <time>2018-07-05T13:04:22Z</time>
      </trkpt>
      <trkpt lat="44.13292" lon="6.96787">
        <ele>2367.38</ele>
        <time>2018-07-05T13:04:29Z</time>
      </trkpt>
      <trkpt lat="44.13289" lon="6.96801">
        <ele>2365.46</ele>
        <time>2018-07-05T13:04:37Z</time>
      </trkpt>
      <trkpt lat="44.13287" lon="6.96814">
        <ele>2363.54</ele>
        <time>2018-07-05T13:04:45Z</time>
      </trkpt>
      <trkpt lat="44.13285" lon="6.96829">
        <ele>2361.62</ele>
        <time>2018-07-05T13:04:55Z</time>
      </trkpt>
      <trkpt lat="44.13282" lon="6.96843">
        <ele>2359.21</ele>
        <time>2018-07-05T13:05:05Z</time>
      </trkpt>
      <trkpt lat="44.13276" lon="6.96854">
        <ele>2356.33</ele>
        <time>2018-07-05T13:05:15Z</time>
      </trkpt>
      <trkpt lat="44.13269" lon="6.96864">
        <ele>2354.89</ele>
        <time>2018-07-05T13:05:28Z</time>
      </trkpt>
      <trkpt lat="44.13264" lon="6.96878">
        <ele>2352.96</ele>
        <time>2018-07-05T13:05:38Z</time>
      </trkpt>
      <trkpt lat="44.13262" lon="6.96893">
        <ele>2350.56</ele>
        <time>2018-07-05T13:05:50Z</time>
      </trkpt>
      <trkpt lat="44.13258" lon="6.96902">
        <ele>2347.68</ele>
        <time>2018-07-05T13:06:00Z</time>
      </trkpt>
      <trkpt lat="44.13248" lon="6.96903">
        <ele>2346.23</ele>
        <time>2018-07-05T13:06:09Z</time>
      </trkpt>
      <trkpt lat="44.13238" lon="6.96901">
        <ele>2343.83</ele>
        <time>2018-07-05T13:06:18Z</time>
      </trkpt>
      <trkpt lat="44.1323" lon="6.96899">
        <ele>2340.95</ele>
        <time>2018-07-05T13:06:29Z</time>
      </trkpt>
      <trkpt lat="44.13228" lon="6.96914">
        <ele>2339.51</ele>
        <time>2018-07-05T13:06:39Z</time>
      </trkpt>
      <trkpt lat="44.13226" lon="6.96928">
        <ele>2337.1</ele>
        <time>2018-07-05T13:06:48Z</time>
      </trkpt>
      <trkpt lat="44.13223" lon="6.96943">
        <ele>2335.18</ele>
        <time>2018-07-05T13:06:58Z</time>
      </trkpt>
      <trkpt lat="44.13221" lon="6.96957">
        <ele>2332.3</ele>
        <time>2018-07-05T13:07:10Z</time>
      </trkpt>
      <trkpt lat="44.13214" lon="6.96965">
        <ele>2330.37</ele>
        <time>2018-07-05T13:07:20Z</time>
      </trkpt>
      <trkpt lat="44.13207" lon="6.96974">
        <ele>2327.97</ele>
        <time>2018-07-05T13:07:31Z</time>
      </trkpt>
      <trkpt lat="44.13203" lon="6.96988">
        <ele>2326.05</ele>
        <time>2018-07-05T13:07:41Z</time>
      </trkpt>
      <trkpt lat="44.13195" lon="6.96992">
        <ele>2323.64</ele>
        <time>2018-07-05T13:07:51Z</time>
      </trkpt>
      <trkpt lat="44.13191" lon="6.9698">
        <ele>2321.24</ele>
        <time>2018-07-05T13:08:00Z</time>
      </trkpt>
      <trkpt lat="44.13185" lon="6.96968">
        <ele>2319.32</ele>
        <time>2018-07-05T13:08:10Z</time>
      </trkpt>
      <trkpt lat="44.1318" lon="6.96978">
        <ele>2317.4</ele>
        <time>2018-07-05T13:08:22Z</time>
      </trkpt>
      <trkpt lat="44.13174" lon="6.96989">
        <ele>2314.99</ele>
        <time>2018-07-05T13:08:32Z</time>
      </trkpt>
      <trkpt lat="44.13168" lon="6.96999">
        <ele>2313.55</ele>
        <time>2018-07-05T13:08:41Z</time>
      </trkpt>
      <trkpt lat="44.13162" lon="6.97008">
        <ele>2312.11</ele>
        <time>2018-07-05T13:08:51Z</time>
      </trkpt>
      <trkpt lat="44.13156" lon="6.97018">
        <ele>2311.15</ele>
        <time>2018-07-05T13:09:00Z</time>
      </trkpt>
      <trkpt lat="44.13151" lon="6.97029">
        <ele>2308.74</ele>
        <time>2018-07-05T13:09:10Z</time>
      </trkpt>
      <trkpt lat="44.13146" lon="6.97042">
        <ele>2306.82</ele>
        <time>2018-07-05T13:09:20Z</time>
      </trkpt>
      <trkpt lat="44.13143" lon="6.97055">
        <ele>2304.9</ele>
        <time>2018-07-05T13:09:30Z</time>
      </trkpt>
      <trkpt lat="44.13141" lon="6.97068">
        <ele>2303.46</ele>
        <time>2018-07-05T13:09:40Z</time>
      </trkpt>
      <trkpt lat="44.13138" lon="6.9708">
        <ele>2301.05</ele>
        <time>2018-07-05T13:09:51Z</time>
      </trkpt>
      <trkpt lat="44.13132" lon="6.97088">
        <ele>2299.13</ele>
        <time>2018-07-05T13:10:03Z</time>
      </trkpt>
      <trkpt lat="44.13125" lon="6.9708">
        <ele>2296.25</ele>
        <time>2018-07-05T13:10:16Z</time>
      </trkpt>
      <trkpt lat="44.13117" lon="6.97072">
        <ele>2295.28</ele>
        <time>2018-07-05T13:10:48Z</time>
      </trkpt>
      <trkpt lat="44.13111" lon="6.97067">
        <ele>2293.36</ele>
        <time>2018-07-05T13:11:04Z</time>
      </trkpt>
      <trkpt lat="44.13108" lon="6.9708">
        <ele>2290.48</ele>
        <time>2018-07-05T13:11:15Z</time>
      </trkpt>
      <trkpt lat="44.13105" lon="6.97093">
        <ele>2287.59</ele>
        <time>2018-07-05T13:11:25Z</time>
      </trkpt>
      <trkpt lat="44.13101" lon="6.97107">
        <ele>2285.19</ele>
        <time>2018-07-05T13:11:36Z</time>
      </trkpt>
      <trkpt lat="44.131" lon="6.97121">
        <ele>2283.27</ele>
        <time>2018-07-05T13:11:47Z</time>
      </trkpt>
      <trkpt lat="44.13099" lon="6.97137">
        <ele>2280.87</ele>
        <time>2018-07-05T13:11:57Z</time>
      </trkpt>
      <trkpt lat="44.13092" lon="6.97137">
        <ele>2278.46</ele>
        <time>2018-07-05T13:12:07Z</time>
      </trkpt>
      <trkpt lat="44.13086" lon="6.97128">
        <ele>2276.06</ele>
        <time>2018-07-05T13:12:17Z</time>
      </trkpt>
      <trkpt lat="44.13079" lon="6.9712">
        <ele>2273.66</ele>
        <time>2018-07-05T13:12:27Z</time>
      </trkpt>
      <trkpt lat="44.13073" lon="6.97115">
        <ele>2272.21</ele>
        <time>2018-07-05T13:12:40Z</time>
      </trkpt>
      <trkpt lat="44.13071" lon="6.97128">
        <ele>2269.81</ele>
        <time>2018-07-05T13:12:51Z</time>
      </trkpt>
      <trkpt lat="44.13068" lon="6.97141">
        <ele>2266.93</ele>
        <time>2018-07-05T13:13:03Z</time>
      </trkpt>
      <trkpt lat="44.13067" lon="6.97157">
        <ele>2264.52</ele>
        <time>2018-07-05T13:13:14Z</time>
      </trkpt>
      <trkpt lat="44.13065" lon="6.97174">
        <ele>2263.08</ele>
        <time>2018-07-05T13:13:27Z</time>
      </trkpt>
      <trkpt lat="44.13066" lon="6.97189">
        <ele>2259.24</ele>
        <time>2018-07-05T13:13:39Z</time>
      </trkpt>
      <trkpt lat="44.13069" lon="6.97204">
        <ele>2256.35</ele>
        <time>2018-07-05T13:13:52Z</time>
      </trkpt>
      <trkpt lat="44.13059" lon="6.97202">
        <ele>2254.43</ele>
        <time>2018-07-05T13:14:04Z</time>
      </trkpt>
      <trkpt lat="44.1305" lon="6.97203">
        <ele>2252.99</ele>
        <time>2018-07-05T13:14:14Z</time>
      </trkpt>
      <trkpt lat="44.13041" lon="6.97201">
        <ele>2251.06</ele>
        <time>2018-07-05T13:14:25Z</time>
      </trkpt>
      <trkpt lat="44.13033" lon="6.97195">
        <ele>2249.62</ele>
        <time>2018-07-05T13:14:36Z</time>
      </trkpt>
      <trkpt lat="44.13029" lon="6.97197">
        <ele>2248.18</ele>
        <time>2018-07-05T13:14:54Z</time>
      </trkpt>
      <trkpt lat="44.13028" lon="6.97226">
        <ele>2238.57</ele>
        <time>2018-07-05T13:15:46Z</time>
      </trkpt>
      <trkpt lat="44.13019" lon="6.9722">
        <ele>2236.64</ele>
        <time>2018-07-05T13:15:55Z</time>
      </trkpt>
      <trkpt lat="44.1301" lon="6.97211">
        <ele>2235.2</ele>
        <time>2018-07-05T13:16:03Z</time>
      </trkpt>
      <trkpt lat="44.13001" lon="6.97206">
        <ele>2232.32</ele>
        <time>2018-07-05T13:16:17Z</time>
      </trkpt>
      <trkpt lat="44.12993" lon="6.97198">
        <ele>2229.92</ele>
        <time>2018-07-05T13:16:30Z</time>
      </trkpt>
      <trkpt lat="44.12987" lon="6.97188">
        <ele>2228.47</ele>
        <time>2018-07-05T13:16:39Z</time>
      </trkpt>
      <trkpt lat="44.12981" lon="6.97178">
        <ele>2226.07</ele>
        <time>2018-07-05T13:16:47Z</time>
      </trkpt>
      <trkpt lat="44.12976" lon="6.97168">
        <ele>2224.15</ele>
        <time>2018-07-05T13:17:02Z</time>
      </trkpt>
      <trkpt lat="44.12969" lon="6.97151">
        <ele>2220.78</ele>
        <time>2018-07-05T13:17:19Z</time>
      </trkpt>
      <trkpt lat="44.12964" lon="6.97141">
        <ele>2218.38</ele>
        <time>2018-07-05T13:17:28Z</time>
      </trkpt>
      <trkpt lat="44.1296" lon="6.97143">
        <ele>2217.9</ele>
        <time>2018-07-05T13:17:38Z</time>
      </trkpt>
      <trkpt lat="44.12958" lon="6.97156">
        <ele>2215.98</ele>
        <time>2018-07-05T13:17:47Z</time>
      </trkpt>
      <trkpt lat="44.12956" lon="6.9717">
        <ele>2214.05</ele>
        <time>2018-07-05T13:17:56Z</time>
      </trkpt>
      <trkpt lat="44.12955" lon="6.97181">
        <ele>2212.13</ele>
        <time>2018-07-05T13:18:04Z</time>
      </trkpt>
      <trkpt lat="44.12954" lon="6.97194">
        <ele>2210.69</ele>
        <time>2018-07-05T13:18:13Z</time>
      </trkpt>
      <trkpt lat="44.12953" lon="6.97206">
        <ele>2208.77</ele>
        <time>2018-07-05T13:18:23Z</time>
      </trkpt>
      <trkpt lat="44.12955" lon="6.97232">
        <ele>2205.88</ele>
        <time>2018-07-05T13:18:48Z</time>
      </trkpt>
      <trkpt lat="44.1295" lon="6.97244">
        <ele>2201.56</ele>
        <time>2018-07-05T13:19:02Z</time>
      </trkpt>
      <trkpt lat="44.1294" lon="6.9724">
        <ele>2199.15</ele>
        <time>2018-07-05T13:19:11Z</time>
      </trkpt>
      <trkpt lat="44.12916" lon="6.97235">
        <ele>2194.35</ele>
        <time>2018-07-05T13:19:52Z</time>
      </trkpt>
      <trkpt lat="44.12907" lon="6.97235">
        <ele>2192.42</ele>
        <time>2018-07-05T13:20:03Z</time>
      </trkpt>
      <trkpt lat="44.12898" lon="6.97235">
        <ele>2190.5</ele>
        <time>2018-07-05T13:20:13Z</time>
      </trkpt>
      <trkpt lat="44.12887" lon="6.97232">
        <ele>2186.66</ele>
        <time>2018-07-05T13:20:27Z</time>
      </trkpt>
      <trkpt lat="44.12876" lon="6.9723">
        <ele>2184.25</ele>
        <time>2018-07-05T13:20:38Z</time>
      </trkpt>
      <trkpt lat="44.12866" lon="6.97228">
        <ele>2182.81</ele>
        <time>2018-07-05T13:20:49Z</time>
      </trkpt>
      <trkpt lat="44.12856" lon="6.97225">
        <ele>2181.85</ele>
        <time>2018-07-05T13:21:00Z</time>
      </trkpt>
      <trkpt lat="44.12846" lon="6.97224">
        <ele>2178.48</ele>
        <time>2018-07-05T13:21:10Z</time>
      </trkpt>
      <trkpt lat="44.1282" lon="6.97216">
        <ele>2172.72</ele>
        <time>2018-07-05T13:22:02Z</time>
      </trkpt>
      <trkpt lat="44.12798" lon="6.972">
        <ele>2165.99</ele>
        <time>2018-07-05T13:22:32Z</time>
      </trkpt>
      <trkpt lat="44.12732" lon="6.97154">
        <ele>2157.82</ele>
        <time>2018-07-05T13:33:35Z</time>
      </trkpt>
      <trkpt lat="44.12709" lon="6.97137">
        <ele>2147.72</ele>
        <time>2018-07-05T13:34:18Z</time>
      </trkpt>
      <trkpt lat="44.12622" lon="6.97121">
        <ele>2097.73</ele>
        <time>2018-07-05T13:44:08Z</time>
      </trkpt>
      <trkpt lat="44.12611" lon="6.97103">
        <ele>2091</ele>
        <time>2018-07-05T13:44:30Z</time>
      </trkpt>
      <trkpt lat="44.12602" lon="6.97121">
        <ele>2089.08</ele>
        <time>2018-07-05T13:44:57Z</time>
      </trkpt>
      <trkpt lat="44.12598" lon="6.97135">
        <ele>2086.68</ele>
        <time>2018-07-05T13:45:05Z</time>
      </trkpt>
      <trkpt lat="44.126" lon="6.97152">
        <ele>2086.2</ele>
        <time>2018-07-05T13:45:17Z</time>
      </trkpt>
      <trkpt lat="44.12605" lon="6.97169">
        <ele>2082.83</ele>
        <time>2018-07-05T13:45:29Z</time>
      </trkpt>
      <trkpt lat="44.12604" lon="6.97182">
        <ele>2080.91</ele>
        <time>2018-07-05T13:45:37Z</time>
      </trkpt>
      <trkpt lat="44.12598" lon="6.97201">
        <ele>2078.03</ele>
        <time>2018-07-05T13:45:53Z</time>
      </trkpt>
      <trkpt lat="44.12556" lon="6.97198">
        <ele>2055.92</ele>
        <time>2018-07-05T13:50:17Z</time>
      </trkpt>
      <trkpt lat="44.12524" lon="6.97155">
        <ele>2036.69</ele>
        <time>2018-07-05T13:52:52Z</time>
      </trkpt>
      <trkpt lat="44.12503" lon="6.97127">
        <ele>2026.6</ele>
        <time>2018-07-05T13:53:47Z</time>
      </trkpt>
      <trkpt lat="44.12499" lon="6.97114">
        <ele>2024.67</ele>
        <time>2018-07-05T13:53:57Z</time>
      </trkpt>
      <trkpt lat="44.12488" lon="6.97097">
        <ele>2020.35</ele>
        <time>2018-07-05T13:54:27Z</time>
      </trkpt>
      <trkpt lat="44.12478" lon="6.97114">
        <ele>2017.46</ele>
        <time>2018-07-05T13:54:47Z</time>
      </trkpt>
      <trkpt lat="44.12465" lon="6.97142">
        <ele>2013.62</ele>
        <time>2018-07-05T13:55:38Z</time>
      </trkpt>
      <trkpt lat="44.12459" lon="6.97154">
        <ele>2013.14</ele>
        <time>2018-07-05T13:55:47Z</time>
      </trkpt>
      <trkpt lat="44.12452" lon="6.97173">
        <ele>2011.22</ele>
        <time>2018-07-05T13:56:07Z</time>
      </trkpt>
      <trkpt lat="44.12447" lon="6.97189">
        <ele>2007.85</ele>
        <time>2018-07-05T13:56:20Z</time>
      </trkpt>
      <trkpt lat="44.12443" lon="6.972">
        <ele>2005.93</ele>
        <time>2018-07-05T13:56:29Z</time>
      </trkpt>
      <trkpt lat="44.12437" lon="6.97212">
        <ele>2005.45</ele>
        <time>2018-07-05T13:56:38Z</time>
      </trkpt>
      <trkpt lat="44.12432" lon="6.97226">
        <ele>2002.56</ele>
        <time>2018-07-05T13:57:37Z</time>
      </trkpt>
      <trkpt lat="44.12429" lon="6.97237">
        <ele>2000.64</ele>
        <time>2018-07-05T13:57:46Z</time>
      </trkpt>
      <trkpt lat="44.12412" lon="6.97255">
        <ele>1995.35</ele>
        <time>2018-07-05T13:58:19Z</time>
      </trkpt>
      <trkpt lat="44.12398" lon="6.9725">
        <ele>1992.47</ele>
        <time>2018-07-05T13:58:41Z</time>
      </trkpt>
      <trkpt lat="44.12376" lon="6.97246">
        <ele>1987.66</ele>
        <time>2018-07-05T13:59:22Z</time>
      </trkpt>
      <trkpt lat="44.12364" lon="6.97241">
        <ele>1985.74</ele>
        <time>2018-07-05T13:59:36Z</time>
      </trkpt>
      <trkpt lat="44.12354" lon="6.97238">
        <ele>1983.34</ele>
        <time>2018-07-05T13:59:49Z</time>
      </trkpt>
      <trkpt lat="44.12337" lon="6.97224">
        <ele>1979.97</ele>
        <time>2018-07-05T14:00:13Z</time>
      </trkpt>
      <trkpt lat="44.12324" lon="6.97205">
        <ele>1975.17</ele>
        <time>2018-07-05T14:00:45Z</time>
      </trkpt>
      <trkpt lat="44.12317" lon="6.97192">
        <ele>1973.24</ele>
        <time>2018-07-05T14:00:54Z</time>
      </trkpt>
      <trkpt lat="44.12314" lon="6.9718">
        <ele>1973.72</ele>
        <time>2018-07-05T14:01:04Z</time>
      </trkpt>
      <trkpt lat="44.12307" lon="6.97192">
        <ele>1970.84</ele>
        <time>2018-07-05T14:01:26Z</time>
      </trkpt>
      <trkpt lat="44.12302" lon="6.9721">
        <ele>1968.44</ele>
        <time>2018-07-05T14:01:41Z</time>
      </trkpt>
      <trkpt lat="44.12298" lon="6.97225">
        <ele>1966.51</ele>
        <time>2018-07-05T14:01:51Z</time>
      </trkpt>
      <trkpt lat="44.12292" lon="6.97232">
        <ele>1965.07</ele>
        <time>2018-07-05T14:02:00Z</time>
      </trkpt>
      <trkpt lat="44.12284" lon="6.97236">
        <ele>1964.11</ele>
        <time>2018-07-05T14:02:08Z</time>
      </trkpt>
      <trkpt lat="44.12275" lon="6.9724">
        <ele>1963.15</ele>
        <time>2018-07-05T14:02:17Z</time>
      </trkpt>
      <trkpt lat="44.12266" lon="6.97244">
        <ele>1962.19</ele>
        <time>2018-07-05T14:02:29Z</time>
      </trkpt>
      <trkpt lat="44.12257" lon="6.97246">
        <ele>1960.75</ele>
        <time>2018-07-05T14:02:44Z</time>
      </trkpt>
      <trkpt lat="44.12247" lon="6.97247">
        <ele>1957.38</ele>
        <time>2018-07-05T14:02:53Z</time>
      </trkpt>
      <trkpt lat="44.1224" lon="6.97251">
        <ele>1955.94</ele>
        <time>2018-07-05T14:03:03Z</time>
      </trkpt>
      <trkpt lat="44.12238" lon="6.97267">
        <ele>1953.54</ele>
        <time>2018-07-05T14:03:18Z</time>
      </trkpt>
      <trkpt lat="44.12241" lon="6.97278">
        <ele>1951.13</ele>
        <time>2018-07-05T14:03:32Z</time>
      </trkpt>
      <trkpt lat="44.12244" lon="6.9729">
        <ele>1948.73</ele>
        <time>2018-07-05T14:03:51Z</time>
      </trkpt>
      <trkpt lat="44.12251" lon="6.973">
        <ele>1946.81</ele>
        <time>2018-07-05T14:04:04Z</time>
      </trkpt>
      <trkpt lat="44.12257" lon="6.97312">
        <ele>1943.92</ele>
        <time>2018-07-05T14:04:15Z</time>
      </trkpt>
      <trkpt lat="44.12255" lon="6.97324">
        <ele>1942</ele>
        <time>2018-07-05T14:04:26Z</time>
      </trkpt>
      <trkpt lat="44.1225" lon="6.97335">
        <ele>1939.12</ele>
        <time>2018-07-05T14:04:38Z</time>
      </trkpt>
      <trkpt lat="44.1224" lon="6.97337">
        <ele>1937.67</ele>
        <time>2018-07-05T14:04:49Z</time>
      </trkpt>
      <trkpt lat="44.12231" lon="6.97338">
        <ele>1934.79</ele>
        <time>2018-07-05T14:05:04Z</time>
      </trkpt>
      <trkpt lat="44.12218" lon="6.97329">
        <ele>1932.39</ele>
        <time>2018-07-05T14:05:24Z</time>
      </trkpt>
      <trkpt lat="44.12187" lon="6.97315">
        <ele>1925.18</ele>
        <time>2018-07-05T14:06:07Z</time>
      </trkpt>
      <trkpt lat="44.12159" lon="6.97292">
        <ele>1913.64</ele>
        <time>2018-07-05T14:07:09Z</time>
      </trkpt>
      <trkpt lat="44.12147" lon="6.97282">
        <ele>1911.24</ele>
        <time>2018-07-05T14:07:26Z</time>
      </trkpt>
      <trkpt lat="44.12131" lon="6.97268">
        <ele>1907.87</ele>
        <time>2018-07-05T14:07:45Z</time>
      </trkpt>
      <trkpt lat="44.12123" lon="6.97261">
        <ele>1905.47</ele>
        <time>2018-07-05T14:07:56Z</time>
      </trkpt>
      <trkpt lat="44.12115" lon="6.97251">
        <ele>1903.07</ele>
        <time>2018-07-05T14:08:08Z</time>
      </trkpt>
      <trkpt lat="44.12107" lon="6.9724">
        <ele>1901.14</ele>
        <time>2018-07-05T14:08:19Z</time>
      </trkpt>
      <trkpt lat="44.12102" lon="6.97229">
        <ele>1899.22</ele>
        <time>2018-07-05T14:08:30Z</time>
      </trkpt>
      <trkpt lat="44.12099" lon="6.97218">
        <ele>1897.3</ele>
        <time>2018-07-05T14:08:42Z</time>
      </trkpt>
      <trkpt lat="44.12097" lon="6.97207">
        <ele>1895.86</ele>
        <time>2018-07-05T14:08:53Z</time>
      </trkpt>
      <trkpt lat="44.12095" lon="6.97196">
        <ele>1893.93</ele>
        <time>2018-07-05T14:09:04Z</time>
      </trkpt>
      <trkpt lat="44.12094" lon="6.97184">
        <ele>1892.49</ele>
        <time>2018-07-05T14:09:16Z</time>
      </trkpt>
      <trkpt lat="44.12093" lon="6.97172">
        <ele>1890.09</ele>
        <time>2018-07-05T14:09:28Z</time>
      </trkpt>
      <trkpt lat="44.12092" lon="6.97159">
        <ele>1888.17</ele>
        <time>2018-07-05T14:09:41Z</time>
      </trkpt>
      <trkpt lat="44.1209" lon="6.97144">
        <ele>1886.72</ele>
        <time>2018-07-05T14:09:55Z</time>
      </trkpt>
      <trkpt lat="44.12083" lon="6.97138">
        <ele>1884.32</ele>
        <time>2018-07-05T14:10:08Z</time>
      </trkpt>
      <trkpt lat="44.12075" lon="6.97148">
        <ele>1881.92</ele>
        <time>2018-07-05T14:10:22Z</time>
      </trkpt>
      <trkpt lat="44.12067" lon="6.97156">
        <ele>1879.51</ele>
        <time>2018-07-05T14:10:39Z</time>
      </trkpt>
      <trkpt lat="44.12058" lon="6.97161">
        <ele>1877.11</ele>
        <time>2018-07-05T14:10:54Z</time>
      </trkpt>
      <trkpt lat="44.12052" lon="6.97168">
        <ele>1875.19</ele>
        <time>2018-07-05T14:11:06Z</time>
      </trkpt>
      <trkpt lat="44.12045" lon="6.97179">
        <ele>1872.79</ele>
        <time>2018-07-05T14:11:21Z</time>
      </trkpt>
      <trkpt lat="44.12039" lon="6.97188">
        <ele>1870.86</ele>
        <time>2018-07-05T14:11:34Z</time>
      </trkpt>
      <trkpt lat="44.12032" lon="6.97197">
        <ele>1868.46</ele>
        <time>2018-07-05T14:11:48Z</time>
      </trkpt>
      <trkpt lat="44.12026" lon="6.97206">
        <ele>1866.06</ele>
        <time>2018-07-05T14:12:03Z</time>
      </trkpt>
      <trkpt lat="44.12019" lon="6.97215">
        <ele>1864.13</ele>
        <time>2018-07-05T14:12:16Z</time>
      </trkpt>
      <trkpt lat="44.12015" lon="6.97226">
        <ele>1861.73</ele>
        <time>2018-07-05T14:12:28Z</time>
      </trkpt>
      <trkpt lat="44.12009" lon="6.97233">
        <ele>1859.81</ele>
        <time>2018-07-05T14:12:41Z</time>
      </trkpt>
      <trkpt lat="44.12001" lon="6.97238">
        <ele>1857.89</ele>
        <time>2018-07-05T14:12:58Z</time>
      </trkpt>
      <trkpt lat="44.11984" lon="6.97267">
        <ele>1849.71</ele>
        <time>2018-07-05T14:13:46Z</time>
      </trkpt>
      <trkpt lat="44.11967" lon="6.97277">
        <ele>1841.54</ele>
        <time>2018-07-05T14:17:47Z</time>
      </trkpt>
      <trkpt lat="44.11964" lon="6.97279">
        <ele>1841.06</ele>
        <time>2018-07-05T14:20:59Z</time>
      </trkpt>
      <trkpt lat="44.11974" lon="6.97255">
        <ele>1842.5</ele>
        <time>2018-07-05T14:22:04Z</time>
      </trkpt>
      <trkpt lat="44.11979" lon="6.97245">
        <ele>1843.47</ele>
        <time>2018-07-05T14:22:17Z</time>
      </trkpt>
      <trkpt lat="44.11984" lon="6.97233">
        <ele>1843.95</ele>
        <time>2018-07-05T14:22:31Z</time>
      </trkpt>
      <trkpt lat="44.11988" lon="6.97221">
        <ele>1844.43</ele>
        <time>2018-07-05T14:22:43Z</time>
      </trkpt>
      <trkpt lat="44.11992" lon="6.9721">
        <ele>1845.39</ele>
        <time>2018-07-05T14:22:54Z</time>
      </trkpt>
      <trkpt lat="44.11998" lon="6.972">
        <ele>1846.35</ele>
        <time>2018-07-05T14:23:07Z</time>
      </trkpt>
      <trkpt lat="44.12006" lon="6.97191">
        <ele>1846.83</ele>
        <time>2018-07-05T14:23:19Z</time>
      </trkpt>
      <trkpt lat="44.1201" lon="6.97179">
        <ele>1847.31</ele>
        <time>2018-07-05T14:23:30Z</time>
      </trkpt>
      <trkpt lat="44.12011" lon="6.97166">
        <ele>1848.75</ele>
        <time>2018-07-05T14:23:42Z</time>
      </trkpt>
      <trkpt lat="44.1201" lon="6.97153">
        <ele>1849.71</ele>
        <time>2018-07-05T14:23:53Z</time>
      </trkpt>
      <trkpt lat="44.1201" lon="6.97139">
        <ele>1850.19</ele>
        <time>2018-07-05T14:24:04Z</time>
      </trkpt>
      <trkpt lat="44.1201" lon="6.97125">
        <ele>1850.68</ele>
        <time>2018-07-05T14:24:15Z</time>
      </trkpt>
      <trkpt lat="44.12008" lon="6.97113">
        <ele>1851.64</ele>
        <time>2018-07-05T14:24:25Z</time>
      </trkpt>
      <trkpt lat="44.12005" lon="6.971">
        <ele>1852.12</ele>
        <time>2018-07-05T14:24:36Z</time>
      </trkpt>
      <trkpt lat="44.12004" lon="6.97084">
        <ele>1852.6</ele>
        <time>2018-07-05T14:24:47Z</time>
      </trkpt>
      <trkpt lat="44.12003" lon="6.97072">
        <ele>1852.6</ele>
        <time>2018-07-05T14:24:58Z</time>
      </trkpt>
      <trkpt lat="44.12002" lon="6.9706">
        <ele>1853.08</ele>
        <time>2018-07-05T14:25:12Z</time>
      </trkpt>
      <trkpt lat="44.12002" lon="6.97047">
        <ele>1853.56</ele>
        <time>2018-07-05T14:25:26Z</time>
      </trkpt>
      <trkpt lat="44.11999" lon="6.97035">
        <ele>1853.56</ele>
        <time>2018-07-05T14:25:37Z</time>
      </trkpt>
      <trkpt lat="44.12" lon="6.97023">
        <ele>1853.56</ele>
        <time>2018-07-05T14:25:47Z</time>
      </trkpt>
      <trkpt lat="44.12001" lon="6.9701">
        <ele>1852.12</ele>
        <time>2018-07-05T14:25:58Z</time>
      </trkpt>
      <trkpt lat="44.12007" lon="6.96999">
        <ele>1850.68</ele>
        <time>2018-07-05T14:26:09Z</time>
      </trkpt>
      <trkpt lat="44.12012" lon="6.96987">
        <ele>1850.68</ele>
        <time>2018-07-05T14:26:20Z</time>
      </trkpt>
      <trkpt lat="44.12018" lon="6.9698">
        <ele>1849.23</ele>
        <time>2018-07-05T14:26:36Z</time>
      </trkpt>
      <trkpt lat="44.12024" lon="6.96969">
        <ele>1848.27</ele>
        <time>2018-07-05T14:26:47Z</time>
      </trkpt>
      <trkpt lat="44.1203" lon="6.96959">
        <ele>1847.31</ele>
        <time>2018-07-05T14:26:59Z</time>
      </trkpt>
      <trkpt lat="44.12034" lon="6.96949">
        <ele>1845.87</ele>
        <time>2018-07-05T14:27:14Z</time>
      </trkpt>
      <trkpt lat="44.1204" lon="6.96936">
        <ele>1845.39</ele>
        <time>2018-07-05T14:27:25Z</time>
      </trkpt>
      <trkpt lat="44.12046" lon="6.96926">
        <ele>1844.43</ele>
        <time>2018-07-05T14:27:39Z</time>
      </trkpt>
      <trkpt lat="44.12053" lon="6.96917">
        <ele>1843.47</ele>
        <time>2018-07-05T14:27:50Z</time>
      </trkpt>
      <trkpt lat="44.1206" lon="6.96907">
        <ele>1842.98</ele>
        <time>2018-07-05T14:28:01Z</time>
      </trkpt>
      <trkpt lat="44.12066" lon="6.96896">
        <ele>1841.54</ele>
        <time>2018-07-05T14:28:11Z</time>
      </trkpt>
      <trkpt lat="44.12074" lon="6.96887">
        <ele>1840.1</ele>
        <time>2018-07-05T14:28:21Z</time>
      </trkpt>
      <trkpt lat="44.1208" lon="6.96876">
        <ele>1839.62</ele>
        <time>2018-07-05T14:28:31Z</time>
      </trkpt>
      <trkpt lat="44.12085" lon="6.96864">
        <ele>1837.7</ele>
        <time>2018-07-05T14:28:40Z</time>
      </trkpt>
      <trkpt lat="44.12091" lon="6.96853">
        <ele>1837.22</ele>
        <time>2018-07-05T14:28:49Z</time>
      </trkpt>
      <trkpt lat="44.12096" lon="6.96842">
        <ele>1836.26</ele>
        <time>2018-07-05T14:28:58Z</time>
      </trkpt>
      <trkpt lat="44.12102" lon="6.96831">
        <ele>1834.81</ele>
        <time>2018-07-05T14:29:08Z</time>
      </trkpt>
      <trkpt lat="44.12106" lon="6.96819">
        <ele>1833.85</ele>
        <time>2018-07-05T14:29:17Z</time>
      </trkpt>
      <trkpt lat="44.12109" lon="6.96808">
        <ele>1833.37</ele>
        <time>2018-07-05T14:29:26Z</time>
      </trkpt>
      <trkpt lat="44.12112" lon="6.96796">
        <ele>1831.93</ele>
        <time>2018-07-05T14:29:35Z</time>
      </trkpt>
      <trkpt lat="44.12118" lon="6.96786">
        <ele>1831.45</ele>
        <time>2018-07-05T14:29:45Z</time>
      </trkpt>
      <trkpt lat="44.12124" lon="6.96775">
        <ele>1830.01</ele>
        <time>2018-07-05T14:29:54Z</time>
      </trkpt>
      <trkpt lat="44.1213" lon="6.96762">
        <ele>1829.05</ele>
        <time>2018-07-05T14:30:03Z</time>
      </trkpt>
      <trkpt lat="44.12132" lon="6.9675">
        <ele>1828.08</ele>
        <time>2018-07-05T14:30:12Z</time>
      </trkpt>
      <trkpt lat="44.12133" lon="6.96738">
        <ele>1827.12</ele>
        <time>2018-07-05T14:30:21Z</time>
      </trkpt>
      <trkpt lat="44.12133" lon="6.96723">
        <ele>1825.68</ele>
        <time>2018-07-05T14:30:30Z</time>
      </trkpt>
      <trkpt lat="44.12133" lon="6.96709">
        <ele>1825.2</ele>
        <time>2018-07-05T14:30:39Z</time>
      </trkpt>
      <trkpt lat="44.12135" lon="6.96696">
        <ele>1824.24</ele>
        <time>2018-07-05T14:30:48Z</time>
      </trkpt>
      <trkpt lat="44.12135" lon="6.96682">
        <ele>1822.8</ele>
        <time>2018-07-05T14:30:57Z</time>
      </trkpt>
      <trkpt lat="44.12137" lon="6.96668">
        <ele>1821.84</ele>
        <time>2018-07-05T14:31:08Z</time>
      </trkpt>
      <trkpt lat="44.1214" lon="6.96661">
        <ele>1821.35</ele>
        <time>2018-07-05T14:32:05Z</time>
      </trkpt>
      <trkpt lat="44.1214" lon="6.96647">
        <ele>1820.87</ele>
        <time>2018-07-05T14:32:26Z</time>
      </trkpt>
      <trkpt lat="44.1214" lon="6.96635">
        <ele>1820.87</ele>
        <time>2018-07-05T14:32:36Z</time>
      </trkpt>
      <trkpt lat="44.12141" lon="6.96622">
        <ele>1820.39</ele>
        <time>2018-07-05T14:32:47Z</time>
      </trkpt>
      <trkpt lat="44.1214" lon="6.96609">
        <ele>1819.91</ele>
        <time>2018-07-05T14:32:56Z</time>
      </trkpt>
      <trkpt lat="44.1214" lon="6.96596">
        <ele>1818.95</ele>
        <time>2018-07-05T14:33:04Z</time>
      </trkpt>
      <trkpt lat="44.12142" lon="6.96583">
        <ele>1818.47</ele>
        <time>2018-07-05T14:33:12Z</time>
      </trkpt>
      <trkpt lat="44.12144" lon="6.96569">
        <ele>1817.99</ele>
        <time>2018-07-05T14:33:20Z</time>
      </trkpt>
      <trkpt lat="44.12141" lon="6.96556">
        <ele>1817.99</ele>
        <time>2018-07-05T14:33:29Z</time>
      </trkpt>
      <trkpt lat="44.12135" lon="6.96546">
        <ele>1817.99</ele>
        <time>2018-07-05T14:33:37Z</time>
      </trkpt>
      <trkpt lat="44.12127" lon="6.96538">
        <ele>1817.99</ele>
        <time>2018-07-05T14:33:45Z</time>
      </trkpt>
      <trkpt lat="44.12119" lon="6.96531">
        <ele>1817.99</ele>
        <time>2018-07-05T14:33:54Z</time>
      </trkpt>
      <trkpt lat="44.12111" lon="6.96522">
        <ele>1817.99</ele>
        <time>2018-07-05T14:34:03Z</time>
      </trkpt>
      <trkpt lat="44.12104" lon="6.96514">
        <ele>1817.51</ele>
        <time>2018-07-05T14:34:12Z</time>
      </trkpt>
      <trkpt lat="44.12098" lon="6.96502">
        <ele>1818.95</ele>
        <time>2018-07-05T14:34:21Z</time>
      </trkpt>
      <trkpt lat="44.12092" lon="6.96491">
        <ele>1818.95</ele>
        <time>2018-07-05T14:34:31Z</time>
      </trkpt>
      <trkpt lat="44.12085" lon="6.96481">
        <ele>1818.95</ele>
        <time>2018-07-05T14:34:41Z</time>
      </trkpt>
      <trkpt lat="44.12079" lon="6.9647">
        <ele>1818.95</ele>
        <time>2018-07-05T14:34:51Z</time>
      </trkpt>
      <trkpt lat="44.12075" lon="6.96459">
        <ele>1817.99</ele>
        <time>2018-07-05T14:34:59Z</time>
      </trkpt>
      <trkpt lat="44.1207" lon="6.96446">
        <ele>1816.55</ele>
        <time>2018-07-05T14:35:08Z</time>
      </trkpt>
      <trkpt lat="44.12066" lon="6.96434">
        <ele>1816.55</ele>
        <time>2018-07-05T14:35:17Z</time>
      </trkpt>
      <trkpt lat="44.12061" lon="6.96423">
        <ele>1815.59</ele>
        <time>2018-07-05T14:35:25Z</time>
      </trkpt>
      <trkpt lat="44.12057" lon="6.96411">
        <ele>1815.11</ele>
        <time>2018-07-05T14:35:33Z</time>
      </trkpt>
      <trkpt lat="44.12052" lon="6.96399">
        <ele>1814.15</ele>
        <time>2018-07-05T14:35:42Z</time>
      </trkpt>
      <trkpt lat="44.12047" lon="6.96388">
        <ele>1813.66</ele>
        <time>2018-07-05T14:35:51Z</time>
      </trkpt>
      <trkpt lat="44.12041" lon="6.96377">
        <ele>1813.18</ele>
        <time>2018-07-05T14:36:00Z</time>
      </trkpt>
      <trkpt lat="44.12036" lon="6.96364">
        <ele>1811.74</ele>
        <time>2018-07-05T14:36:10Z</time>
      </trkpt>
      <trkpt lat="44.12033" lon="6.96349">
        <ele>1810.3</ele>
        <time>2018-07-05T14:36:20Z</time>
      </trkpt>
      <trkpt lat="44.12031" lon="6.96336">
        <ele>1809.82</ele>
        <time>2018-07-05T14:36:29Z</time>
      </trkpt>
      <trkpt lat="44.12029" lon="6.96325">
        <ele>1808.86</ele>
        <time>2018-07-05T14:36:38Z</time>
      </trkpt>
      <trkpt lat="44.12029" lon="6.96312">
        <ele>1808.38</ele>
        <time>2018-07-05T14:36:48Z</time>
      </trkpt>
      <trkpt lat="44.12031" lon="6.96298">
        <ele>1807.42</ele>
        <time>2018-07-05T14:36:56Z</time>
      </trkpt>
      <trkpt lat="44.12032" lon="6.96284">
        <ele>1805.97</ele>
        <time>2018-07-05T14:37:04Z</time>
      </trkpt>
      <trkpt lat="44.12032" lon="6.9627">
        <ele>1805.49</ele>
        <time>2018-07-05T14:37:13Z</time>
      </trkpt>
      <trkpt lat="44.1203" lon="6.96258">
        <ele>1805.49</ele>
        <time>2018-07-05T14:37:21Z</time>
      </trkpt>
      <trkpt lat="44.12028" lon="6.96245">
        <ele>1804.53</ele>
        <time>2018-07-05T14:37:30Z</time>
      </trkpt>
      <trkpt lat="44.12025" lon="6.96231">
        <ele>1804.53</ele>
        <time>2018-07-05T14:37:39Z</time>
      </trkpt>
      <trkpt lat="44.12026" lon="6.96216">
        <ele>1804.53</ele>
        <time>2018-07-05T14:37:48Z</time>
      </trkpt>
      <trkpt lat="44.12027" lon="6.96203">
        <ele>1804.53</ele>
        <time>2018-07-05T14:37:56Z</time>
      </trkpt>
      <trkpt lat="44.12027" lon="6.96189">
        <ele>1804.05</ele>
        <time>2018-07-05T14:38:05Z</time>
      </trkpt>
      <trkpt lat="44.12026" lon="6.96175">
        <ele>1802.61</ele>
        <time>2018-07-05T14:38:14Z</time>
      </trkpt>
      <trkpt lat="44.12026" lon="6.96162">
        <ele>1802.61</ele>
        <time>2018-07-05T14:38:23Z</time>
      </trkpt>
      <trkpt lat="44.12025" lon="6.96148">
        <ele>1802.61</ele>
        <time>2018-07-05T14:38:31Z</time>
      </trkpt>
      <trkpt lat="44.12024" lon="6.96136">
        <ele>1802.61</ele>
        <time>2018-07-05T14:38:40Z</time>
      </trkpt>
      <trkpt lat="44.12022" lon="6.96122">
        <ele>1802.61</ele>
        <time>2018-07-05T14:38:49Z</time>
      </trkpt>
      <trkpt lat="44.12014" lon="6.9611">
        <ele>1802.61</ele>
        <time>2018-07-05T14:38:58Z</time>
      </trkpt>
      <trkpt lat="44.12007" lon="6.96102">
        <ele>1802.61</ele>
        <time>2018-07-05T14:39:06Z</time>
      </trkpt>
      <trkpt lat="44.11999" lon="6.96093">
        <ele>1802.13</ele>
        <time>2018-07-05T14:39:14Z</time>
      </trkpt>
      <trkpt lat="44.11992" lon="6.96086">
        <ele>1802.13</ele>
        <time>2018-07-05T14:39:24Z</time>
      </trkpt>
      <trkpt lat="44.11983" lon="6.9608">
        <ele>1803.57</ele>
        <time>2018-07-05T14:39:39Z</time>
      </trkpt>
      <trkpt lat="44.11975" lon="6.96074">
        <ele>1804.05</ele>
        <time>2018-07-05T14:40:40Z</time>
      </trkpt>
      <trkpt lat="44.11966" lon="6.96069">
        <ele>1804.05</ele>
        <time>2018-07-05T14:40:50Z</time>
      </trkpt>
      <trkpt lat="44.11959" lon="6.96059">
        <ele>1801.65</ele>
        <time>2018-07-05T14:40:59Z</time>
      </trkpt>
      <trkpt lat="44.11954" lon="6.96044">
        <ele>1800.69</ele>
        <time>2018-07-05T14:41:08Z</time>
      </trkpt>
      <trkpt lat="44.1195" lon="6.96031">
        <ele>1799.24</ele>
        <time>2018-07-05T14:41:16Z</time>
      </trkpt>
      <trkpt lat="44.11943" lon="6.96022">
        <ele>1798.76</ele>
        <time>2018-07-05T14:41:24Z</time>
      </trkpt>
      <trkpt lat="44.11935" lon="6.96014">
        <ele>1797.8</ele>
        <time>2018-07-05T14:41:33Z</time>
      </trkpt>
      <trkpt lat="44.11928" lon="6.96007">
        <ele>1797.32</ele>
        <time>2018-07-05T14:41:42Z</time>
      </trkpt>
      <trkpt lat="44.11919" lon="6.96002">
        <ele>1796.36</ele>
        <time>2018-07-05T14:41:51Z</time>
      </trkpt>
      <trkpt lat="44.1191" lon="6.95997">
        <ele>1795.4</ele>
        <time>2018-07-05T14:41:59Z</time>
      </trkpt>
      <trkpt lat="44.119" lon="6.95993">
        <ele>1795.4</ele>
        <time>2018-07-05T14:42:08Z</time>
      </trkpt>
      <trkpt lat="44.1189" lon="6.95989">
        <ele>1794.44</ele>
        <time>2018-07-05T14:42:21Z</time>
      </trkpt>
      <trkpt lat="44.1188" lon="6.95986">
        <ele>1793.96</ele>
        <time>2018-07-05T14:42:29Z</time>
      </trkpt>
      <trkpt lat="44.11871" lon="6.95984">
        <ele>1793.48</ele>
        <time>2018-07-05T14:42:36Z</time>
      </trkpt>
      <trkpt lat="44.11861" lon="6.95984">
        <ele>1793</ele>
        <time>2018-07-05T14:42:44Z</time>
      </trkpt>
      <trkpt lat="44.11851" lon="6.95985">
        <ele>1792.03</ele>
        <time>2018-07-05T14:42:52Z</time>
      </trkpt>
      <trkpt lat="44.11841" lon="6.95985">
        <ele>1792.03</ele>
        <time>2018-07-05T14:43:00Z</time>
      </trkpt>
      <trkpt lat="44.11832" lon="6.95984">
        <ele>1791.55</ele>
        <time>2018-07-05T14:43:09Z</time>
      </trkpt>
      <trkpt lat="44.11822" lon="6.95982">
        <ele>1790.59</ele>
        <time>2018-07-05T14:43:18Z</time>
      </trkpt>
      <trkpt lat="44.11811" lon="6.95982">
        <ele>1790.59</ele>
        <time>2018-07-05T14:43:27Z</time>
      </trkpt>
      <trkpt lat="44.11801" lon="6.95982">
        <ele>1790.59</ele>
        <time>2018-07-05T14:43:35Z</time>
      </trkpt>
      <trkpt lat="44.11793" lon="6.95984">
        <ele>1790.59</ele>
        <time>2018-07-05T14:43:44Z</time>
      </trkpt>
      <trkpt lat="44.11783" lon="6.95989">
        <ele>1790.59</ele>
        <time>2018-07-05T14:43:52Z</time>
      </trkpt>
      <trkpt lat="44.11774" lon="6.95992">
        <ele>1790.59</ele>
        <time>2018-07-05T14:44:00Z</time>
      </trkpt>
      <trkpt lat="44.11764" lon="6.95996">
        <ele>1790.59</ele>
        <time>2018-07-05T14:44:09Z</time>
      </trkpt>
      <trkpt lat="44.11755" lon="6.96">
        <ele>1790.11</ele>
        <time>2018-07-05T14:44:17Z</time>
      </trkpt>
      <trkpt lat="44.11746" lon="6.96004">
        <ele>1790.11</ele>
        <time>2018-07-05T14:44:25Z</time>
      </trkpt>
      <trkpt lat="44.11737" lon="6.96007">
        <ele>1790.11</ele>
        <time>2018-07-05T14:44:33Z</time>
      </trkpt>
      <trkpt lat="44.11728" lon="6.9601">
        <ele>1789.63</ele>
        <time>2018-07-05T14:44:41Z</time>
      </trkpt>
      <trkpt lat="44.11719" lon="6.96014">
        <ele>1789.63</ele>
        <time>2018-07-05T14:44:49Z</time>
      </trkpt>
      <trkpt lat="44.11709" lon="6.96017">
        <ele>1789.63</ele>
        <time>2018-07-05T14:44:58Z</time>
      </trkpt>
      <trkpt lat="44.117" lon="6.96021">
        <ele>1789.63</ele>
        <time>2018-07-05T14:45:07Z</time>
      </trkpt>
      <trkpt lat="44.1169" lon="6.96024">
        <ele>1789.63</ele>
        <time>2018-07-05T14:45:15Z</time>
      </trkpt>
      <trkpt lat="44.1168" lon="6.96026">
        <ele>1789.15</ele>
        <time>2018-07-05T14:45:23Z</time>
      </trkpt>
      <trkpt lat="44.1167" lon="6.9603">
        <ele>1789.15</ele>
        <time>2018-07-05T14:45:31Z</time>
      </trkpt>
      <trkpt lat="44.1166" lon="6.96035">
        <ele>1789.15</ele>
        <time>2018-07-05T14:45:39Z</time>
      </trkpt>
      <trkpt lat="44.11652" lon="6.9604">
        <ele>1789.15</ele>
        <time>2018-07-05T14:45:47Z</time>
      </trkpt>
      <trkpt lat="44.11644" lon="6.96045">
        <ele>1789.15</ele>
        <time>2018-07-05T14:45:55Z</time>
      </trkpt>
      <trkpt lat="44.11638" lon="6.96049">
        <ele>1789.15</ele>
        <time>2018-07-05T14:46:14Z</time>
      </trkpt>
      <trkpt lat="44.11631" lon="6.96056">
        <ele>1788.67</ele>
        <time>2018-07-05T14:46:45Z</time>
      </trkpt>
      <trkpt lat="44.11622" lon="6.9606">
        <ele>1788.19</ele>
        <time>2018-07-05T14:46:53Z</time>
      </trkpt>
      <trkpt lat="44.11612" lon="6.96063">
        <ele>1788.19</ele>
        <time>2018-07-05T14:47:01Z</time>
      </trkpt>
      <trkpt lat="44.11602" lon="6.96064">
        <ele>1787.71</ele>
        <time>2018-07-05T14:47:09Z</time>
      </trkpt>
      <trkpt lat="44.11592" lon="6.96063">
        <ele>1787.71</ele>
        <time>2018-07-05T14:47:17Z</time>
      </trkpt>
      <trkpt lat="44.11583" lon="6.96062">
        <ele>1787.71</ele>
        <time>2018-07-05T14:47:25Z</time>
      </trkpt>
      <trkpt lat="44.11574" lon="6.96059">
        <ele>1787.23</ele>
        <time>2018-07-05T14:47:33Z</time>
      </trkpt>
      <trkpt lat="44.11565" lon="6.96056">
        <ele>1786.27</ele>
        <time>2018-07-05T14:47:41Z</time>
      </trkpt>
      <trkpt lat="44.11556" lon="6.96054">
        <ele>1786.27</ele>
        <time>2018-07-05T14:47:49Z</time>
      </trkpt>
      <trkpt lat="44.11547" lon="6.96053">
        <ele>1786.27</ele>
        <time>2018-07-05T14:48:18Z</time>
      </trkpt>
      <trkpt lat="44.11539" lon="6.9605">
        <ele>1785.31</ele>
        <time>2018-07-05T14:50:12Z</time>
      </trkpt>
      <trkpt lat="44.11529" lon="6.96048">
        <ele>1785.31</ele>
        <time>2018-07-05T14:50:20Z</time>
      </trkpt>
      <trkpt lat="44.1152" lon="6.96044">
        <ele>1785.31</ele>
        <time>2018-07-05T14:50:28Z</time>
      </trkpt>
      <trkpt lat="44.1151" lon="6.96041">
        <ele>1785.31</ele>
        <time>2018-07-05T14:50:36Z</time>
      </trkpt>
      <trkpt lat="44.115" lon="6.96038">
        <ele>1785.31</ele>
        <time>2018-07-05T14:50:43Z</time>
      </trkpt>
      <trkpt lat="44.11491" lon="6.96035">
        <ele>1785.31</ele>
        <time>2018-07-05T14:50:50Z</time>
      </trkpt>
      <trkpt lat="44.11481" lon="6.96032">
        <ele>1785.31</ele>
        <time>2018-07-05T14:50:57Z</time>
      </trkpt>
      <trkpt lat="44.11472" lon="6.96029">
        <ele>1784.82</ele>
        <time>2018-07-05T14:51:04Z</time>
      </trkpt>
      <trkpt lat="44.11463" lon="6.96027">
        <ele>1784.34</ele>
        <time>2018-07-05T14:51:11Z</time>
      </trkpt>
      <trkpt lat="44.11453" lon="6.96024">
        <ele>1783.86</ele>
        <time>2018-07-05T14:51:19Z</time>
      </trkpt>
      <trkpt lat="44.11443" lon="6.96021">
        <ele>1783.86</ele>
        <time>2018-07-05T14:51:26Z</time>
      </trkpt>
      <trkpt lat="44.11434" lon="6.96019">
        <ele>1783.86</ele>
        <time>2018-07-05T14:51:33Z</time>
      </trkpt>
      <trkpt lat="44.11425" lon="6.96016">
        <ele>1783.38</ele>
        <time>2018-07-05T14:51:40Z</time>
      </trkpt>
      <trkpt lat="44.11415" lon="6.96014">
        <ele>1783.38</ele>
        <time>2018-07-05T14:51:48Z</time>
      </trkpt>
      <trkpt lat="44.11405" lon="6.96014">
        <ele>1783.38</ele>
        <time>2018-07-05T14:51:56Z</time>
      </trkpt>
      <trkpt lat="44.11395" lon="6.96015">
        <ele>1783.38</ele>
        <time>2018-07-05T14:52:04Z</time>
      </trkpt>
      <trkpt lat="44.11386" lon="6.96018">
        <ele>1782.9</ele>
        <time>2018-07-05T14:52:11Z</time>
      </trkpt>
      <trkpt lat="44.11377" lon="6.96022">
        <ele>1782.42</ele>
        <time>2018-07-05T14:52:19Z</time>
      </trkpt>
      <trkpt lat="44.11368" lon="6.96026">
        <ele>1781.94</ele>
        <time>2018-07-05T14:52:27Z</time>
      </trkpt>
      <trkpt lat="44.11356" lon="6.96029">
        <ele>1780.98</ele>
        <time>2018-07-05T14:52:35Z</time>
      </trkpt>
      <trkpt lat="44.11347" lon="6.96031">
        <ele>1780.98</ele>
        <time>2018-07-05T14:52:42Z</time>
      </trkpt>
      <trkpt lat="44.11336" lon="6.96032">
        <ele>1780.5</ele>
        <time>2018-07-05T14:52:50Z</time>
      </trkpt>
      <trkpt lat="44.11327" lon="6.96031">
        <ele>1779.54</ele>
        <time>2018-07-05T14:52:57Z</time>
      </trkpt>
      <trkpt lat="44.11317" lon="6.96029">
        <ele>1778.58</ele>
        <time>2018-07-05T14:53:05Z</time>
      </trkpt>
      <trkpt lat="44.11307" lon="6.96025">
        <ele>1777.61</ele>
        <time>2018-07-05T14:53:13Z</time>
      </trkpt>
      <trkpt lat="44.11298" lon="6.96021">
        <ele>1777.61</ele>
        <time>2018-07-05T14:53:21Z</time>
      </trkpt>
      <trkpt lat="44.11289" lon="6.96013">
        <ele>1776.65</ele>
        <time>2018-07-05T14:53:29Z</time>
      </trkpt>
      <trkpt lat="44.1128" lon="6.96002">
        <ele>1775.69</ele>
        <time>2018-07-05T14:53:37Z</time>
      </trkpt>
      <trkpt lat="44.11274" lon="6.95992">
        <ele>1775.69</ele>
        <time>2018-07-05T14:53:45Z</time>
      </trkpt>
      <trkpt lat="44.11267" lon="6.95983">
        <ele>1774.73</ele>
        <time>2018-07-05T14:53:53Z</time>
      </trkpt>
      <trkpt lat="44.11261" lon="6.95971">
        <ele>1773.77</ele>
        <time>2018-07-05T14:54:01Z</time>
      </trkpt>
      <trkpt lat="44.11255" lon="6.9596">
        <ele>1773.29</ele>
        <time>2018-07-05T14:54:09Z</time>
      </trkpt>
      <trkpt lat="44.11247" lon="6.95949">
        <ele>1772.33</ele>
        <time>2018-07-05T14:54:17Z</time>
      </trkpt>
      <trkpt lat="44.11242" lon="6.95936">
        <ele>1771.37</ele>
        <time>2018-07-05T14:54:25Z</time>
      </trkpt>
      <trkpt lat="44.11239" lon="6.95922">
        <ele>1770.89</ele>
        <time>2018-07-05T14:54:33Z</time>
      </trkpt>
      <trkpt lat="44.11237" lon="6.95907">
        <ele>1769.92</ele>
        <time>2018-07-05T14:54:41Z</time>
      </trkpt>
      <trkpt lat="44.11238" lon="6.95893">
        <ele>1769.44</ele>
        <time>2018-07-05T14:54:49Z</time>
      </trkpt>
      <trkpt lat="44.11237" lon="6.9588">
        <ele>1768.96</ele>
        <time>2018-07-05T14:54:57Z</time>
      </trkpt>
      <trkpt lat="44.11232" lon="6.95868">
        <ele>1768</ele>
        <time>2018-07-05T14:55:05Z</time>
      </trkpt>
      <trkpt lat="44.11225" lon="6.95859">
        <ele>1768</ele>
        <time>2018-07-05T14:55:13Z</time>
      </trkpt>
      <trkpt lat="44.11215" lon="6.95858">
        <ele>1766.56</ele>
        <time>2018-07-05T14:55:21Z</time>
      </trkpt>
      <trkpt lat="44.11206" lon="6.95856">
        <ele>1765.6</ele>
        <time>2018-07-05T14:55:29Z</time>
      </trkpt>
      <trkpt lat="44.11197" lon="6.95853">
        <ele>1765.6</ele>
        <time>2018-07-05T14:55:37Z</time>
      </trkpt>
      <trkpt lat="44.11186" lon="6.95853">
        <ele>1764.16</ele>
        <time>2018-07-05T14:55:45Z</time>
      </trkpt>
      <trkpt lat="44.11177" lon="6.95852">
        <ele>1763.68</ele>
        <time>2018-07-05T14:55:53Z</time>
      </trkpt>
      <trkpt lat="44.11166" lon="6.9585">
        <ele>1762.23</ele>
        <time>2018-07-05T14:56:01Z</time>
      </trkpt>
      <trkpt lat="44.11158" lon="6.95845">
        <ele>1761.27</ele>
        <time>2018-07-05T14:56:08Z</time>
      </trkpt>
      <trkpt lat="44.1115" lon="6.95835">
        <ele>1760.79</ele>
        <time>2018-07-05T14:56:16Z</time>
      </trkpt>
      <trkpt lat="44.11142" lon="6.95829">
        <ele>1759.83</ele>
        <time>2018-07-05T14:56:24Z</time>
      </trkpt>
      <trkpt lat="44.11131" lon="6.95831">
        <ele>1758.87</ele>
        <time>2018-07-05T14:56:33Z</time>
      </trkpt>
      <trkpt lat="44.11123" lon="6.95838">
        <ele>1757.91</ele>
        <time>2018-07-05T14:56:41Z</time>
      </trkpt>
      <trkpt lat="44.11114" lon="6.95845">
        <ele>1757.43</ele>
        <time>2018-07-05T14:56:49Z</time>
      </trkpt>
      <trkpt lat="44.11103" lon="6.95847">
        <ele>1756.47</ele>
        <time>2018-07-05T14:56:57Z</time>
      </trkpt>
      <trkpt lat="44.11094" lon="6.95842">
        <ele>1755.99</ele>
        <time>2018-07-05T14:57:05Z</time>
      </trkpt>
      <trkpt lat="44.11086" lon="6.95836">
        <ele>1754.54</ele>
        <time>2018-07-05T14:57:13Z</time>
      </trkpt>
      <trkpt lat="44.11075" lon="6.95836">
        <ele>1754.54</ele>
        <time>2018-07-05T14:57:22Z</time>
      </trkpt>
      <trkpt lat="44.11064" lon="6.95835">
        <ele>1754.06</ele>
        <time>2018-07-05T14:57:32Z</time>
      </trkpt>
      <trkpt lat="44.11066" lon="6.95829">
        <ele>1754.54</ele>
        <time>2018-07-05T14:58:24Z</time>
      </trkpt>
      <trkpt lat="44.11071" lon="6.95834">
        <ele>1755.5</ele>
        <time>2018-07-05T15:00:13Z</time>
      </trkpt>
    </trkseg>
  </trk>
</gpx>